<?xml version="1.0" encoding="UTF-8" standalone="no" ?><gpx xmlns="http://www.topografix.com/GPX/1/1" xmlns:gpxx="http://www.garmin.com/xmlschemas/GpxExtensions/v3" xmlns:wptx1="http://www.garmin.com/xmlschemas/WaypointExtension/v1" xmlns:gpxtpx="http://www.garmin.com/xmlschemas/TrackPointExtension/v1" creator="GuideVTT.com" version="1.1" xmlns:xsi="http://www.w3.org/2001/XMLSchema-instance" xsi:schemaLocation="http://www.topografix.com/GPX/1/1 http://www.topografix.com/GPX/1/1/gpx.xsd http://www.garmin.com/xmlschemas/GpxExtensions/v3 http://www8.garmin.com/xmlschemas/GpxExtensionsv3.xsd http://www.garmin.com/xmlschemas/WaypointExtension/v1 http://www8.garmin.com/xmlschemas/WaypointExtensionv1.xsd http://www.garmin.com/xmlschemas/TrackPointExtension/v1 http://www.garmin.com/xmlschemas/TrackPointExtensionv1.xsd">
<metadata><link href="http://www.garmin.com"><text>Garmin International</text></link><time>2013-06-22T15:13:50Z</time></metadata>
<trk><name>open-bike.gpx</name><extensions><gpxx:TrackExtension><gpxx:DisplayColor>Cyan</gpxx:DisplayColor></gpxx:TrackExtension></extensions><trkseg>
<trkpt lat="46.54399786" lon="7.07301543"><ele>745.158936</ele><time>2009-09-12T07:02:59Z</time></trkpt>
<trkpt lat="46.54400046" lon="7.07302440"><ele>744.678223</ele><time>2009-09-12T07:03:00Z</time></trkpt>
<trkpt lat="46.54404740" lon="7.07310705"><ele>744.678223</ele><time>2009-09-12T07:03:05Z</time></trkpt>
<trkpt lat="46.54399451" lon="7.07342883"><ele>744.197754</ele><time>2009-09-12T07:03:14Z</time></trkpt>
<trkpt lat="46.54398730" lon="7.07354249"><ele>743.236328</ele><time>2009-09-12T07:03:17Z</time></trkpt>
<trkpt lat="46.54378496" lon="7.07362304"><ele>740.833008</ele><time>2009-09-12T07:03:23Z</time></trkpt>
<trkpt lat="46.54374012" lon="7.07360242"><ele>740.833008</ele><time>2009-09-12T07:03:24Z</time></trkpt>
<trkpt lat="46.54327006" lon="7.07337166"><ele>740.352539</ele><time>2009-09-12T07:03:34Z</time></trkpt>
<trkpt lat="46.54308901" lon="7.07325968"><ele>739.871826</ele><time>2009-09-12T07:03:39Z</time></trkpt>
<trkpt lat="46.54304828" lon="7.07326588"><ele>739.871826</ele><time>2009-09-12T07:03:40Z</time></trkpt>
<trkpt lat="46.54284619" lon="7.07354592"><ele>738.910645</ele><time>2009-09-12T07:03:45Z</time></trkpt>
<trkpt lat="46.54280126" lon="7.07361750"><ele>738.429932</ele><time>2009-09-12T07:03:46Z</time></trkpt>
<trkpt lat="46.54237563" lon="7.07434279"><ele>739.391113</ele><time>2009-09-12T07:03:57Z</time></trkpt>
<trkpt lat="46.54226591" lon="7.07450833"><ele>738.910645</ele><time>2009-09-12T07:04:00Z</time></trkpt>
<trkpt lat="46.54216876" lon="7.07487135"><ele>737.949219</ele><time>2009-09-12T07:04:05Z</time></trkpt>
<trkpt lat="46.54233112" lon="7.07522071"><ele>737.949219</ele><time>2009-09-12T07:04:10Z</time></trkpt>
<trkpt lat="46.54297183" lon="7.07583326"><ele>737.949219</ele><time>2009-09-12T07:04:19Z</time></trkpt>
<trkpt lat="46.54480211" lon="7.07782983"><ele>734.104004</ele><time>2009-09-12T07:04:53Z</time></trkpt>
<trkpt lat="46.54490579" lon="7.07798632"><ele>732.181396</ele><time>2009-09-12T07:04:56Z</time></trkpt>
<trkpt lat="46.54479029" lon="7.07842855"><ele>731.219971</ele><time>2009-09-12T07:05:04Z</time></trkpt>
<trkpt lat="46.54471049" lon="7.07863013"><ele>727.855225</ele><time>2009-09-12T07:05:08Z</time></trkpt>
<trkpt lat="46.54463120" lon="7.07960553"><ele>726.41333</ele><time>2009-09-12T07:05:28Z</time></trkpt>
<trkpt lat="46.54468811" lon="7.07968642"><ele>725.932617</ele><time>2009-09-12T07:05:33Z</time></trkpt>
<trkpt lat="46.54468032" lon="7.07946589"><ele>725.932617</ele><time>2009-09-12T07:05:37Z</time></trkpt>
<trkpt lat="46.54465668" lon="7.07929532"><ele>725.932617</ele><time>2009-09-12T07:05:40Z</time></trkpt>
<trkpt lat="46.54472667" lon="7.07912131"><ele>724.490723</ele><time>2009-09-12T07:05:44Z</time></trkpt>
<trkpt lat="46.54488014" lon="7.07888980"><ele>724.490723</ele><time>2009-09-12T07:05:50Z</time></trkpt>
<trkpt lat="46.54443498" lon="7.07854933"><ele>725.451904</ele><time>2009-09-12T07:06:03Z</time></trkpt>
<trkpt lat="46.54435275" lon="7.07849284"><ele>725.451904</ele><time>2009-09-12T07:06:05Z</time></trkpt>
<trkpt lat="46.54409383" lon="7.07845780"><ele>726.894043</ele><time>2009-09-12T07:06:12Z</time></trkpt>
<trkpt lat="46.54401722" lon="7.07850642"><ele>726.894043</ele><time>2009-09-12T07:06:14Z</time></trkpt>
<trkpt lat="46.54373115" lon="7.07874253"><ele>727.855225</ele><time>2009-09-12T07:06:23Z</time></trkpt>
<trkpt lat="46.54348011" lon="7.07880640"><ele>728.81665</ele><time>2009-09-12T07:06:31Z</time></trkpt>
<trkpt lat="46.54317560" lon="7.07883859"><ele>732.662109</ele><time>2009-09-12T07:06:41Z</time></trkpt>
<trkpt lat="46.54304593" lon="7.07881537"><ele>733.142578</ele><time>2009-09-12T07:06:48Z</time></trkpt>
<trkpt lat="46.54294727" lon="7.07875251"><ele>734.104004</ele><time>2009-09-12T07:06:55Z</time></trkpt>
<trkpt lat="46.54273429" lon="7.07859350"><ele>735.06543</ele><time>2009-09-12T07:07:02Z</time></trkpt>
<trkpt lat="46.54257587" lon="7.07848907"><ele>735.545898</ele><time>2009-09-12T07:07:06Z</time></trkpt>
<trkpt lat="46.54247336" lon="7.07836728"><ele>736.026611</ele><time>2009-09-12T07:07:09Z</time></trkpt>
<trkpt lat="46.54240103" lon="7.07829863"><ele>736.026611</ele><time>2009-09-12T07:07:11Z</time></trkpt>
<trkpt lat="46.54225208" lon="7.07841472"><ele>737.468506</ele><time>2009-09-12T07:07:16Z</time></trkpt>
<trkpt lat="46.54221260" lon="7.07847272"><ele>737.949219</ele><time>2009-09-12T07:07:18Z</time></trkpt>
<trkpt lat="46.54203071" lon="7.07864690"><ele>741.313721</ele><time>2009-09-12T07:07:25Z</time></trkpt>
<trkpt lat="46.54174070" lon="7.07890908"><ele>746.120361</ele><time>2009-09-12T07:07:51Z</time></trkpt>
<trkpt lat="46.54174824" lon="7.07893691"><ele>747.562256</ele><time>2009-09-12T07:07:59Z</time></trkpt>
<trkpt lat="46.54174573" lon="7.07893725"><ele>748.043213</ele><time>2009-09-12T07:08:02Z</time></trkpt>
<trkpt lat="46.54174070" lon="7.07907923"><ele>748.523682</ele><time>2009-09-12T07:08:13Z</time></trkpt>
<trkpt lat="46.54175570" lon="7.07915769"><ele>749.004395</ele><time>2009-09-12T07:08:21Z</time></trkpt>
<trkpt lat="46.54175185" lon="7.07918024"><ele>749.485107</ele><time>2009-09-12T07:08:33Z</time></trkpt>
<trkpt lat="46.54175210" lon="7.07917579"><ele>750.446533</ele><time>2009-09-12T07:08:42Z</time></trkpt>
<trkpt lat="46.54174984" lon="7.07917194"><ele>749.485107</ele><time>2009-09-12T07:08:49Z</time></trkpt>
<trkpt lat="46.54230120" lon="7.07837775"><ele>739.391113</ele><time>2009-09-12T07:09:05Z</time></trkpt>
<trkpt lat="46.54252994" lon="7.07833593"><ele>738.429932</ele><time>2009-09-12T07:09:09Z</time></trkpt>
<trkpt lat="46.54257755" lon="7.07839385"><ele>738.429932</ele><time>2009-09-12T07:09:10Z</time></trkpt>
<trkpt lat="46.54282917" lon="7.07862510"><ele>737.949219</ele><time>2009-09-12T07:09:16Z</time></trkpt>
<trkpt lat="46.54308566" lon="7.07875033"><ele>737.949219</ele><time>2009-09-12T07:09:24Z</time></trkpt>
<trkpt lat="46.54339353" lon="7.07873155"><ele>732.662109</ele><time>2009-09-12T07:09:31Z</time></trkpt>
<trkpt lat="46.54357508" lon="7.07870976"><ele>730.258545</ele><time>2009-09-12T07:09:33Z</time></trkpt>
<trkpt lat="46.54373635" lon="7.07865419"><ele>730.258545</ele><time>2009-09-12T07:09:36Z</time></trkpt>
<trkpt lat="46.54404497" lon="7.07842209"><ele>729.297119</ele><time>2009-09-12T07:09:46Z</time></trkpt>
<trkpt lat="46.54427966" lon="7.07830877"><ele>729.297119</ele><time>2009-09-12T07:09:54Z</time></trkpt>
<trkpt lat="46.54449960" lon="7.07852779"><ele>728.335938</ele><time>2009-09-12T07:10:02Z</time></trkpt>
<trkpt lat="46.54475240" lon="7.07862787"><ele>727.855225</ele><time>2009-09-12T07:10:08Z</time></trkpt>
<trkpt lat="46.54483404" lon="7.07865687"><ele>728.335938</ele><time>2009-09-12T07:10:10Z</time></trkpt>
<trkpt lat="46.54502280" lon="7.07882375"><ele>728.335938</ele><time>2009-09-12T07:10:16Z</time></trkpt>
<trkpt lat="46.54505348" lon="7.07898058"><ele>728.335938</ele><time>2009-09-12T07:10:19Z</time></trkpt>
<trkpt lat="46.54520452" lon="7.07929582"><ele>729.297119</ele><time>2009-09-12T07:10:25Z</time></trkpt>
<trkpt lat="46.54524442" lon="7.07932449"><ele>728.81665</ele><time>2009-09-12T07:10:26Z</time></trkpt>
<trkpt lat="46.54534391" lon="7.07947126"><ele>727.855225</ele><time>2009-09-12T07:10:30Z</time></trkpt>
<trkpt lat="46.54529488" lon="7.07978021"><ele>726.894043</ele><time>2009-09-12T07:10:37Z</time></trkpt>
<trkpt lat="46.54525431" lon="7.07987283"><ele>726.894043</ele><time>2009-09-12T07:10:42Z</time></trkpt>
<trkpt lat="46.54515599" lon="7.08000946"><ele>726.41333</ele><time>2009-09-12T07:10:48Z</time></trkpt>
<trkpt lat="46.54510234" lon="7.07990209"><ele>725.451904</ele><time>2009-09-12T07:10:53Z</time></trkpt>
<trkpt lat="46.54514769" lon="7.07985775"><ele>724.971436</ele><time>2009-09-12T07:10:55Z</time></trkpt>
<trkpt lat="46.54533410" lon="7.07965725"><ele>725.451904</ele><time>2009-09-12T07:11:03Z</time></trkpt>
<trkpt lat="46.54496622" lon="7.07900908"><ele>724.01001</ele><time>2009-09-12T07:11:18Z</time></trkpt>
<trkpt lat="46.54492037" lon="7.07884119"><ele>724.01001</ele><time>2009-09-12T07:11:21Z</time></trkpt>
<trkpt lat="46.54473237" lon="7.07856660"><ele>725.932617</ele><time>2009-09-12T07:11:27Z</time></trkpt>
<trkpt lat="46.54456121" lon="7.07852125"><ele>725.451904</ele><time>2009-09-12T07:11:31Z</time></trkpt>
<trkpt lat="46.54439759" lon="7.07842729"><ele>725.451904</ele><time>2009-09-12T07:11:35Z</time></trkpt>
<trkpt lat="46.54412032" lon="7.07842377"><ele>726.894043</ele><time>2009-09-12T07:11:42Z</time></trkpt>
<trkpt lat="46.54375571" lon="7.07872569"><ele>729.297119</ele><time>2009-09-12T07:11:51Z</time></trkpt>
<trkpt lat="46.54339545" lon="7.07895476"><ele>730.258545</ele><time>2009-09-12T07:12:00Z</time></trkpt>
<trkpt lat="46.54330426" lon="7.07900958"><ele>729.297119</ele><time>2009-09-12T07:12:02Z</time></trkpt>
<trkpt lat="46.54293680" lon="7.07914210"><ele>726.894043</ele><time>2009-09-12T07:12:08Z</time></trkpt>
<trkpt lat="46.54268710" lon="7.07928459"><ele>727.374756</ele><time>2009-09-12T07:12:13Z</time></trkpt>
<trkpt lat="46.54254226" lon="7.07949162"><ele>727.855225</ele><time>2009-09-12T07:12:25Z</time></trkpt>
<trkpt lat="46.54266044" lon="7.07946103"><ele>727.855225</ele><time>2009-09-12T07:12:29Z</time></trkpt>
<trkpt lat="46.54294685" lon="7.07951325"><ele>729.297119</ele><time>2009-09-12T07:12:37Z</time></trkpt>
<trkpt lat="46.54325858" lon="7.07958399"><ele>729.297119</ele><time>2009-09-12T07:12:44Z</time></trkpt>
<trkpt lat="46.54344189" lon="7.07959749"><ele>729.297119</ele><time>2009-09-12T07:12:47Z</time></trkpt>
<trkpt lat="46.54369829" lon="7.07952700"><ele>733.623291</ele><time>2009-09-12T07:12:52Z</time></trkpt>
<trkpt lat="46.54388512" lon="7.07956371"><ele>736.507324</ele><time>2009-09-12T07:12:58Z</time></trkpt>
<trkpt lat="46.54405402" lon="7.07968893"><ele>735.545898</ele><time>2009-09-12T07:13:07Z</time></trkpt>
<trkpt lat="46.54421587" lon="7.07982715"><ele>732.181396</ele><time>2009-09-12T07:13:14Z</time></trkpt>
<trkpt lat="46.54424974" lon="7.07986864"><ele>731.700439</ele><time>2009-09-12T07:13:16Z</time></trkpt>
<trkpt lat="46.54409920" lon="7.08074899"><ele>732.181396</ele><time>2009-09-12T07:15:23Z</time></trkpt>
<trkpt lat="46.54419475" lon="7.08167008"><ele>728.81665</ele><time>2009-09-12T07:15:55Z</time></trkpt>
<trkpt lat="46.54407330" lon="7.08189354"><ele>729.297119</ele><time>2009-09-12T07:16:02Z</time></trkpt>
<trkpt lat="46.54394388" lon="7.08199111"><ele>730.739258</ele><time>2009-09-12T07:16:09Z</time></trkpt>
<trkpt lat="46.54379401" lon="7.08209856"><ele>733.623291</ele><time>2009-09-12T07:16:18Z</time></trkpt>
<trkpt lat="46.54362964" lon="7.08224634"><ele>735.06543</ele><time>2009-09-12T07:16:30Z</time></trkpt>
<trkpt lat="46.54343368" lon="7.08232295"><ele>735.545898</ele><time>2009-09-12T07:16:40Z</time></trkpt>
<trkpt lat="46.54319840" lon="7.08240241"><ele>737.468506</ele><time>2009-09-12T07:16:52Z</time></trkpt>
<trkpt lat="46.54297569" lon="7.08241699"><ele>740.352539</ele><time>2009-09-12T07:17:03Z</time></trkpt>
<trkpt lat="46.54286915" lon="7.08241356"><ele>740.352539</ele><time>2009-09-12T07:17:10Z</time></trkpt>
<trkpt lat="46.54269783" lon="7.08237936"><ele>742.275146</ele><time>2009-09-12T07:17:20Z</time></trkpt>
<trkpt lat="46.54229457" lon="7.08222538"><ele>744.197754</ele><time>2009-09-12T07:17:47Z</time></trkpt>
<trkpt lat="46.54209835" lon="7.08197476"><ele>747.562256</ele><time>2009-09-12T07:18:03Z</time></trkpt>
<trkpt lat="46.54166635" lon="7.08156078"><ele>749.004395</ele><time>2009-09-12T07:18:33Z</time></trkpt>
<trkpt lat="46.54150399" lon="7.08158308"><ele>751.888428</ele><time>2009-09-12T07:18:44Z</time></trkpt>
<trkpt lat="46.54127332" lon="7.08167402"><ele>753.811035</ele><time>2009-09-12T07:18:56Z</time></trkpt>
<trkpt lat="46.54088834" lon="7.08202195"><ele>754.772217</ele><time>2009-09-12T07:19:14Z</time></trkpt>
<trkpt lat="46.54076546" lon="7.08230350"><ele>756.694824</ele><time>2009-09-12T07:19:23Z</time></trkpt>
<trkpt lat="46.54070486" lon="7.08233267"><ele>757.65625</ele><time>2009-09-12T07:19:31Z</time></trkpt>
<trkpt lat="46.54067553" lon="7.08238556"><ele>758.617432</ele><time>2009-09-12T07:19:41Z</time></trkpt>
<trkpt lat="46.54058475" lon="7.08244901"><ele>758.136963</ele><time>2009-09-12T07:19:46Z</time></trkpt>
<trkpt lat="46.54030102" lon="7.08255152"><ele>758.617432</ele><time>2009-09-12T07:19:58Z</time></trkpt>
<trkpt lat="46.53996097" lon="7.08272075"><ele>760.059326</ele><time>2009-09-12T07:20:13Z</time></trkpt>
<trkpt lat="46.53987355" lon="7.08275596"><ele>759.098145</ele><time>2009-09-12T07:20:18Z</time></trkpt>
<trkpt lat="46.53973700" lon="7.08271530"><ele>760.540039</ele><time>2009-09-12T07:20:28Z</time></trkpt>
<trkpt lat="46.53970515" lon="7.08272553"><ele>761.982178</ele><time>2009-09-12T07:20:35Z</time></trkpt>
<trkpt lat="46.53967456" lon="7.08275554"><ele>762.462646</ele><time>2009-09-12T07:20:43Z</time></trkpt>
<trkpt lat="46.53961396" lon="7.08277809"><ele>759.578857</ele><time>2009-09-12T07:20:53Z</time></trkpt>
<trkpt lat="46.53947717" lon="7.08294036"><ele>760.059326</ele><time>2009-09-12T07:21:02Z</time></trkpt>
<trkpt lat="46.53929511" lon="7.08322811"><ele>759.098145</ele><time>2009-09-12T07:21:14Z</time></trkpt>
<trkpt lat="46.53917123" lon="7.08342508"><ele>760.540039</ele><time>2009-09-12T07:21:23Z</time></trkpt>
<trkpt lat="46.53909554" lon="7.08355584"><ele>761.020752</ele><time>2009-09-12T07:21:28Z</time></trkpt>
<trkpt lat="46.53890845" lon="7.08351133"><ele>762.943359</ele><time>2009-09-12T07:21:36Z</time></trkpt>
<trkpt lat="46.53876487" lon="7.08346255"><ele>765.346924</ele><time>2009-09-12T07:21:42Z</time></trkpt>
<trkpt lat="46.53872707" lon="7.08357680"><ele>766.308105</ele><time>2009-09-12T07:21:46Z</time></trkpt>
<trkpt lat="46.53866747" lon="7.08382943"><ele>767.269531</ele><time>2009-09-12T07:21:55Z</time></trkpt>
<trkpt lat="46.53852766" lon="7.08421818"><ele>767.269531</ele><time>2009-09-12T07:22:07Z</time></trkpt>
<trkpt lat="46.53846086" lon="7.08436193"><ele>767.75</ele><time>2009-09-12T07:22:15Z</time></trkpt>
<trkpt lat="46.53845835" lon="7.08459528"><ele>767.269531</ele><time>2009-09-12T07:22:25Z</time></trkpt>
<trkpt lat="46.53866110" lon="7.08503659"><ele>768.230713</ele><time>2009-09-12T07:22:39Z</time></trkpt>
<trkpt lat="46.53898490" lon="7.08541235"><ele>767.75</ele><time>2009-09-12T07:22:53Z</time></trkpt>
<trkpt lat="46.53892413" lon="7.08572047"><ele>769.192139</ele><time>2009-09-12T07:23:01Z</time></trkpt>
<trkpt lat="46.53863881" lon="7.08578995"><ele>771.595215</ele><time>2009-09-12T07:23:11Z</time></trkpt>
<trkpt lat="46.53834745" lon="7.08580471"><ele>771.595215</ele><time>2009-09-12T07:23:21Z</time></trkpt>
<trkpt lat="46.53815333" lon="7.08577227"><ele>772.556641</ele><time>2009-09-12T07:23:29Z</time></trkpt>
<trkpt lat="46.53789039" lon="7.08582809"><ele>773.518066</ele><time>2009-09-12T07:23:38Z</time></trkpt>
<trkpt lat="46.53761622" lon="7.08603085"><ele>774.959961</ele><time>2009-09-12T07:23:48Z</time></trkpt>
<trkpt lat="46.53739041" lon="7.08632355"><ele>775.44043</ele><time>2009-09-12T07:23:58Z</time></trkpt>
<trkpt lat="46.53725588" lon="7.08671632"><ele>776.401855</ele><time>2009-09-12T07:24:08Z</time></trkpt>
<trkpt lat="46.53708086" lon="7.08725276"><ele>777.84375</ele><time>2009-09-12T07:24:22Z</time></trkpt>
<trkpt lat="46.53680837" lon="7.08781905"><ele>779.766357</ele><time>2009-09-12T07:24:40Z</time></trkpt>
<trkpt lat="46.53660544" lon="7.08795860"><ele>784.573242</ele><time>2009-09-12T07:24:51Z</time></trkpt>
<trkpt lat="46.53645809" lon="7.08809137"><ele>787.457031</ele><time>2009-09-12T07:25:00Z</time></trkpt>
<trkpt lat="46.53623999" lon="7.08807109"><ele>788.418457</ele><time>2009-09-12T07:25:09Z</time></trkpt>
<trkpt lat="46.53602173" lon="7.08792147"><ele>787.937744</ele><time>2009-09-12T07:25:17Z</time></trkpt>
<trkpt lat="46.53587664" lon="7.08767270"><ele>786.976318</ele><time>2009-09-12T07:25:24Z</time></trkpt>
<trkpt lat="46.53586800" lon="7.08739199"><ele>787.457031</ele><time>2009-09-12T07:25:30Z</time></trkpt>
<trkpt lat="46.53591452" lon="7.08702377"><ele>788.89917</ele><time>2009-09-12T07:25:40Z</time></trkpt>
<trkpt lat="46.53585157" lon="7.08672403"><ele>789.379639</ele><time>2009-09-12T07:25:49Z</time></trkpt>
<trkpt lat="46.53571947" lon="7.08664742"><ele>789.379639</ele><time>2009-09-12T07:25:56Z</time></trkpt>
<trkpt lat="46.53553650" lon="7.08669260"><ele>790.821533</ele><time>2009-09-12T07:26:05Z</time></trkpt>
<trkpt lat="46.53533550" lon="7.08683643"><ele>792.744385</ele><time>2009-09-12T07:26:14Z</time></trkpt>
<trkpt lat="46.53522402" lon="7.08701497"><ele>794.186279</ele><time>2009-09-12T07:26:22Z</time></trkpt>
<trkpt lat="46.53509511" lon="7.08718671"><ele>795.628174</ele><time>2009-09-12T07:26:31Z</time></trkpt>
<trkpt lat="46.53491506" lon="7.08735913"><ele>797.070313</ele><time>2009-09-12T07:26:41Z</time></trkpt>
<trkpt lat="46.53479914" lon="7.08727858"><ele>797.551025</ele><time>2009-09-12T07:26:45Z</time></trkpt>
<trkpt lat="46.53475774" lon="7.08723717"><ele>797.070313</ele><time>2009-09-12T07:26:47Z</time></trkpt>
<trkpt lat="46.53356398" lon="7.08589925"><ele>785.053955</ele><time>2009-09-12T07:27:16Z</time></trkpt>
<trkpt lat="46.53273979" lon="7.08508101"><ele>784.092529</ele><time>2009-09-12T07:27:28Z</time></trkpt>
<trkpt lat="46.53267190" lon="7.08473199"><ele>784.573242</ele><time>2009-09-12T07:27:33Z</time></trkpt>
<trkpt lat="46.53272797" lon="7.08461389"><ele>784.573242</ele><time>2009-09-12T07:27:36Z</time></trkpt>
<trkpt lat="46.53283652" lon="7.08442622"><ele>783.611816</ele><time>2009-09-12T07:27:43Z</time></trkpt>
<trkpt lat="46.53302603" lon="7.08416026"><ele>781.689209</ele><time>2009-09-12T07:27:52Z</time></trkpt>
<trkpt lat="46.53326442" lon="7.08410360"><ele>780.728027</ele><time>2009-09-12T07:27:59Z</time></trkpt>
<trkpt lat="46.53361654" lon="7.08406060"><ele>780.247314</ele><time>2009-09-12T07:28:10Z</time></trkpt>
<trkpt lat="46.53389616" lon="7.08407795"><ele>780.728027</ele><time>2009-09-12T07:28:19Z</time></trkpt>
<trkpt lat="46.53406505" lon="7.08417468"><ele>780.728027</ele><time>2009-09-12T07:28:26Z</time></trkpt>
<trkpt lat="46.53412733" lon="7.08438364"><ele>780.247314</ele><time>2009-09-12T07:28:32Z</time></trkpt>
<trkpt lat="46.53419984" lon="7.08464792"><ele>781.689209</ele><time>2009-09-12T07:28:40Z</time></trkpt>
<trkpt lat="46.53426697" lon="7.08484774"><ele>782.169922</ele><time>2009-09-12T07:28:46Z</time></trkpt>
<trkpt lat="46.53447862" lon="7.08489217"><ele>782.169922</ele><time>2009-09-12T07:28:54Z</time></trkpt>
<trkpt lat="46.53474759" lon="7.08489016"><ele>783.131104</ele><time>2009-09-12T07:29:04Z</time></trkpt>
<trkpt lat="46.53492822" lon="7.08493869"><ele>782.650635</ele><time>2009-09-12T07:29:12Z</time></trkpt>
<trkpt lat="46.53519049" lon="7.08501739"><ele>782.650635</ele><time>2009-09-12T07:29:23Z</time></trkpt>
<trkpt lat="46.53541982" lon="7.08513533"><ele>783.611816</ele><time>2009-09-12T07:29:34Z</time></trkpt>
<trkpt lat="46.53562107" lon="7.08525192"><ele>783.131104</ele><time>2009-09-12T07:29:44Z</time></trkpt>
<trkpt lat="46.53574646" lon="7.08534982"><ele>783.131104</ele><time>2009-09-12T07:29:52Z</time></trkpt>
<trkpt lat="46.53591477" lon="7.08544563"><ele>782.650635</ele><time>2009-09-12T07:30:02Z</time></trkpt>
<trkpt lat="46.53607034" lon="7.08553020"><ele>783.131104</ele><time>2009-09-12T07:30:12Z</time></trkpt>
<trkpt lat="46.53632347" lon="7.08569918"><ele>783.131104</ele><time>2009-09-12T07:30:24Z</time></trkpt>
<trkpt lat="46.53658818" lon="7.08591459"><ele>783.131104</ele><time>2009-09-12T07:30:35Z</time></trkpt>
<trkpt lat="46.53683184" lon="7.08602649"><ele>781.20874</ele><time>2009-09-12T07:30:42Z</time></trkpt>
<trkpt lat="46.53696494" lon="7.08614761"><ele>778.805176</ele><time>2009-09-12T07:30:45Z</time></trkpt>
<trkpt lat="46.53716485" lon="7.08614124"><ele>777.363281</ele><time>2009-09-12T07:30:49Z</time></trkpt>
<trkpt lat="46.53723610" lon="7.08602021"><ele>776.882568</ele><time>2009-09-12T07:30:51Z</time></trkpt>
<trkpt lat="46.53758604" lon="7.08542082"><ele>774.479248</ele><time>2009-09-12T07:31:01Z</time></trkpt>
<trkpt lat="46.53793674" lon="7.08502821"><ele>772.556641</ele><time>2009-09-12T07:31:09Z</time></trkpt>
<trkpt lat="46.53834016" lon="7.08470425"><ele>770.634033</ele><time>2009-09-12T07:31:17Z</time></trkpt>
<trkpt lat="46.53838475" lon="7.08467030"><ele>770.634033</ele><time>2009-09-12T07:31:18Z</time></trkpt>
<trkpt lat="46.53848475" lon="7.08460425"><ele>769.192139</ele><time>2009-09-12T07:31:21Z</time></trkpt>
<trkpt lat="46.53851811" lon="7.08449629"><ele>769.192139</ele><time>2009-09-12T07:31:24Z</time></trkpt>
<trkpt lat="46.53842457" lon="7.08430108"><ele>769.672852</ele><time>2009-09-12T07:31:30Z</time></trkpt>
<trkpt lat="46.53816707" lon="7.08397770"><ele>769.672852</ele><time>2009-09-12T07:31:41Z</time></trkpt>
<trkpt lat="46.53792216" lon="7.08373371"><ele>770.15332</ele><time>2009-09-12T07:31:50Z</time></trkpt>
<trkpt lat="46.53765737" lon="7.08350555"><ele>770.634033</ele><time>2009-09-12T07:31:59Z</time></trkpt>
<trkpt lat="46.53736752" lon="7.08327228"><ele>770.15332</ele><time>2009-09-12T07:32:09Z</time></trkpt>
<trkpt lat="46.53710006" lon="7.08296685"><ele>771.114746</ele><time>2009-09-12T07:32:19Z</time></trkpt>
<trkpt lat="46.53677803" lon="7.08266367"><ele>771.114746</ele><time>2009-09-12T07:32:29Z</time></trkpt>
<trkpt lat="46.53631736" lon="7.08237718"><ele>770.634033</ele><time>2009-09-12T07:32:42Z</time></trkpt>
<trkpt lat="46.53615718" lon="7.08222982"><ele>771.114746</ele><time>2009-09-12T07:32:47Z</time></trkpt>
<trkpt lat="46.53606431" lon="7.08181668"><ele>773.037354</ele><time>2009-09-12T07:32:55Z</time></trkpt>
<trkpt lat="46.53570204" lon="7.08060952"><ele>773.518066</ele><time>2009-09-12T07:33:20Z</time></trkpt>
<trkpt lat="46.53533357" lon="7.08035228"><ele>773.518066</ele><time>2009-09-12T07:33:30Z</time></trkpt>
<trkpt lat="46.53505781" lon="7.08021708"><ele>774.479248</ele><time>2009-09-12T07:33:37Z</time></trkpt>
<trkpt lat="46.53478447" lon="7.07999730"><ele>775.44043</ele><time>2009-09-12T07:33:46Z</time></trkpt>
<trkpt lat="46.53453536" lon="7.07986336"><ele>776.401855</ele><time>2009-09-12T07:33:54Z</time></trkpt>
<trkpt lat="46.53407235" lon="7.07962716"><ele>777.363281</ele><time>2009-09-12T07:34:09Z</time></trkpt>
<trkpt lat="46.53383162" lon="7.07944360"><ele>780.247314</ele><time>2009-09-12T07:34:21Z</time></trkpt>
<trkpt lat="46.53366214" lon="7.07930731"><ele>782.650635</ele><time>2009-09-12T07:34:31Z</time></trkpt>
<trkpt lat="46.53349467" lon="7.07917445"><ele>785.053955</ele><time>2009-09-12T07:34:44Z</time></trkpt>
<trkpt lat="46.53309292" lon="7.07889031"><ele>786.976318</ele><time>2009-09-12T07:35:12Z</time></trkpt>
<trkpt lat="46.53264642" lon="7.07852662"><ele>792.263672</ele><time>2009-09-12T07:35:42Z</time></trkpt>
<trkpt lat="46.53241625" lon="7.07836560"><ele>792.744385</ele><time>2009-09-12T07:35:53Z</time></trkpt>
<trkpt lat="46.53219203" lon="7.07818195"><ele>795.628174</ele><time>2009-09-12T07:36:04Z</time></trkpt>
<trkpt lat="46.53200109" lon="7.07804047"><ele>797.070313</ele><time>2009-09-12T07:36:13Z</time></trkpt>
<trkpt lat="46.53179415" lon="7.07784927"><ele>798.512207</ele><time>2009-09-12T07:36:24Z</time></trkpt>
<trkpt lat="46.53155501" lon="7.07762942"><ele>799.954346</ele><time>2009-09-12T07:36:36Z</time></trkpt>
<trkpt lat="46.53127765" lon="7.07744217"><ele>800.435059</ele><time>2009-09-12T07:36:47Z</time></trkpt>
<trkpt lat="46.53075630" lon="7.07712717"><ele>800.915527</ele><time>2009-09-12T07:37:04Z</time></trkpt>
<trkpt lat="46.53012246" lon="7.07670959"><ele>801.876953</ele><time>2009-09-12T07:37:25Z</time></trkpt>
<trkpt lat="46.52983395" lon="7.07637322"><ele>801.876953</ele><time>2009-09-12T07:37:39Z</time></trkpt>
<trkpt lat="46.52955090" lon="7.07603753"><ele>803.318848</ele><time>2009-09-12T07:37:53Z</time></trkpt>
<trkpt lat="46.52935677" lon="7.07569789"><ele>804.760742</ele><time>2009-09-12T07:38:04Z</time></trkpt>
<trkpt lat="46.52913691" lon="7.07478737"><ele>808.605957</ele><time>2009-09-12T07:38:21Z</time></trkpt>
<trkpt lat="46.52887909" lon="7.07440590"><ele>809.567383</ele><time>2009-09-12T07:38:31Z</time></trkpt>
<trkpt lat="46.52873852" lon="7.07421337"><ele>811.009277</ele><time>2009-09-12T07:38:38Z</time></trkpt>
<trkpt lat="46.52854155" lon="7.07398597"><ele>812.932129</ele><time>2009-09-12T07:38:46Z</time></trkpt>
<trkpt lat="46.52824307" lon="7.07366528"><ele>815.335449</ele><time>2009-09-12T07:38:57Z</time></trkpt>
<trkpt lat="46.52794903" lon="7.07333629"><ele>817.738525</ele><time>2009-09-12T07:39:06Z</time></trkpt>
<trkpt lat="46.52769280" lon="7.07301510"><ele>820.141846</ele><time>2009-09-12T07:39:14Z</time></trkpt>
<trkpt lat="46.52762725" lon="7.07294360"><ele>820.622559</ele><time>2009-09-12T07:39:20Z</time></trkpt>
<trkpt lat="46.52758710" lon="7.07288786"><ele>820.622559</ele><time>2009-09-12T07:39:29Z</time></trkpt>
<trkpt lat="46.52756154" lon="7.07288635"><ele>823.025879</ele><time>2009-09-12T07:42:03Z</time></trkpt>
<trkpt lat="46.52756405" lon="7.07287109"><ele>820.141846</ele><time>2009-09-12T07:42:38Z</time></trkpt>
<trkpt lat="46.52748467" lon="7.07277772"><ele>819.661377</ele><time>2009-09-12T07:43:36Z</time></trkpt>
<trkpt lat="46.52737278" lon="7.07269038"><ele>818.699951</ele><time>2009-09-12T07:43:42Z</time></trkpt>
<trkpt lat="46.52717941" lon="7.07292139"><ele>816.296631</ele><time>2009-09-12T07:43:50Z</time></trkpt>
<trkpt lat="46.52690733" lon="7.07320511"><ele>815.335449</ele><time>2009-09-12T07:43:58Z</time></trkpt>
<trkpt lat="46.52706985" lon="7.07272450"><ele>816.296631</ele><time>2009-09-12T07:44:30Z</time></trkpt>
<trkpt lat="46.52489207" lon="7.07030464"><ele>817.738525</ele><time>2009-09-12T07:45:30Z</time></trkpt>
<trkpt lat="46.52212285" lon="7.06837311"><ele>799.473633</ele><time>2009-09-12T07:46:54Z</time></trkpt>
<trkpt lat="46.52131643" lon="7.06809869"><ele>749.004395</ele><time>2009-09-12T07:47:11Z</time></trkpt>
<trkpt lat="46.52125843" lon="7.06809123"><ele>749.004395</ele><time>2009-09-12T07:47:12Z</time></trkpt>
<trkpt lat="46.52099364" lon="7.06795259"><ele>750.446533</ele><time>2009-09-12T07:47:19Z</time></trkpt>
<trkpt lat="46.52079332" lon="7.06780222"><ele>751.407715</ele><time>2009-09-12T07:47:27Z</time></trkpt>
<trkpt lat="46.52054622" lon="7.06772058"><ele>750.927002</ele><time>2009-09-12T07:47:36Z</time></trkpt>
<trkpt lat="46.52025830" lon="7.06768102"><ele>752.368896</ele><time>2009-09-12T07:47:46Z</time></trkpt>
<trkpt lat="46.51992478" lon="7.06772117"><ele>754.291748</ele><time>2009-09-12T07:47:59Z</time></trkpt>
<trkpt lat="46.51988782" lon="7.06774036"><ele>754.291748</ele><time>2009-09-12T07:48:05Z</time></trkpt>
<trkpt lat="46.51987583" lon="7.06774045"><ele>758.136963</ele><time>2009-09-12T07:48:23Z</time></trkpt>
<trkpt lat="46.51986980" lon="7.06794438"><ele>755.25293</ele><time>2009-09-12T07:48:29Z</time></trkpt>
<trkpt lat="46.51989880" lon="7.06822291"><ele>755.733643</ele><time>2009-09-12T07:48:37Z</time></trkpt>
<trkpt lat="46.51991431" lon="7.06841142"><ele>756.694824</ele><time>2009-09-12T07:48:45Z</time></trkpt>
<trkpt lat="46.51991724" lon="7.06860370"><ele>759.098145</ele><time>2009-09-12T07:48:54Z</time></trkpt>
<trkpt lat="46.51986921" lon="7.06873865"><ele>758.617432</ele><time>2009-09-12T07:49:00Z</time></trkpt>
<trkpt lat="46.51993937" lon="7.06915590"><ele>758.136963</ele><time>2009-09-12T07:49:15Z</time></trkpt>
<trkpt lat="46.51996384" lon="7.06938699"><ele>761.982178</ele><time>2009-09-12T07:49:23Z</time></trkpt>
<trkpt lat="46.52009150" lon="7.06958036"><ele>766.308105</ele><time>2009-09-12T07:49:33Z</time></trkpt>
<trkpt lat="46.52026433" lon="7.06971749"><ele>769.192139</ele><time>2009-09-12T07:49:44Z</time></trkpt>
<trkpt lat="46.52039333" lon="7.06981505"><ele>773.037354</ele><time>2009-09-12T07:49:50Z</time></trkpt>
<trkpt lat="46.52053365" lon="7.06998621"><ele>775.921143</ele><time>2009-09-12T07:49:58Z</time></trkpt>
<trkpt lat="46.52056625" lon="7.07010381"><ele>776.401855</ele><time>2009-09-12T07:50:05Z</time></trkpt>
<trkpt lat="46.52056751" lon="7.07021059"><ele>776.882568</ele><time>2009-09-12T07:50:11Z</time></trkpt>
<trkpt lat="46.52061000" lon="7.07035552"><ele>776.882568</ele><time>2009-09-12T07:50:19Z</time></trkpt>
<trkpt lat="46.52065468" lon="7.07053397"><ele>778.324463</ele><time>2009-09-12T07:50:29Z</time></trkpt>
<trkpt lat="46.52070682" lon="7.07068954"><ele>781.20874</ele><time>2009-09-12T07:50:38Z</time></trkpt>
<trkpt lat="46.52076323" lon="7.07087570"><ele>784.573242</ele><time>2009-09-12T07:50:48Z</time></trkpt>
<trkpt lat="46.52086691" lon="7.07105834"><ele>792.744385</ele><time>2009-09-12T07:50:58Z</time></trkpt>
<trkpt lat="46.52091888" lon="7.07125171"><ele>793.705566</ele><time>2009-09-12T07:51:08Z</time></trkpt>
<trkpt lat="46.52093925" lon="7.07139529"><ele>792.744385</ele><time>2009-09-12T07:51:16Z</time></trkpt>
<trkpt lat="46.52097755" lon="7.07162051"><ele>792.263672</ele><time>2009-09-12T07:51:28Z</time></trkpt>
<trkpt lat="46.52101837" lon="7.07175991"><ele>795.628174</ele><time>2009-09-12T07:51:36Z</time></trkpt>
<trkpt lat="46.52103840" lon="7.07183777"><ele>797.551025</ele><time>2009-09-12T07:51:40Z</time></trkpt>
<trkpt lat="46.52101753" lon="7.07198714"><ele>798.031738</ele><time>2009-09-12T07:51:47Z</time></trkpt>
<trkpt lat="46.52094495" lon="7.07201052"><ele>797.070313</ele><time>2009-09-12T07:51:51Z</time></trkpt>
<trkpt lat="46.52081201" lon="7.07197616"><ele>797.070313</ele><time>2009-09-12T07:51:59Z</time></trkpt>
<trkpt lat="46.52068309" lon="7.07193366"><ele>796.589844</ele><time>2009-09-12T07:52:08Z</time></trkpt>
<trkpt lat="46.52067572" lon="7.07195219"><ele>794.666748</ele><time>2009-09-12T07:52:16Z</time></trkpt>
<trkpt lat="46.52065275" lon="7.07194883"><ele>792.744385</ele><time>2009-09-12T07:53:33Z</time></trkpt>
<trkpt lat="46.52062685" lon="7.07191983"><ele>792.744385</ele><time>2009-09-12T07:53:35Z</time></trkpt>
<trkpt lat="46.52057949" lon="7.07188681"><ele>793.705566</ele><time>2009-09-12T07:53:39Z</time></trkpt>
<trkpt lat="46.52048084" lon="7.07184909"><ele>794.666748</ele><time>2009-09-12T07:53:43Z</time></trkpt>
<trkpt lat="46.52039358" lon="7.07180785"><ele>796.109131</ele><time>2009-09-12T07:53:45Z</time></trkpt>
<trkpt lat="46.52016384" lon="7.07171137"><ele>798.031738</ele><time>2009-09-12T07:53:50Z</time></trkpt>
<trkpt lat="46.51982697" lon="7.07150233"><ele>810.047852</ele><time>2009-09-12T07:54:04Z</time></trkpt>
<trkpt lat="46.51975689" lon="7.07145975"><ele>816.777344</ele><time>2009-09-12T07:54:12Z</time></trkpt>
<trkpt lat="46.51964701" lon="7.07140963"><ele>821.58374</ele><time>2009-09-12T07:54:21Z</time></trkpt>
<trkpt lat="46.51953754" lon="7.07137702"><ele>824.467773</ele><time>2009-09-12T07:54:30Z</time></trkpt>
<trkpt lat="46.51947895" lon="7.07133746"><ele>824.948486</ele><time>2009-09-12T07:54:35Z</time></trkpt>
<trkpt lat="46.51931156" lon="7.07124140"><ele>828.313232</ele><time>2009-09-12T07:54:48Z</time></trkpt>
<trkpt lat="46.51912297" lon="7.07104736"><ele>832.63916</ele><time>2009-09-12T07:55:05Z</time></trkpt>
<trkpt lat="46.51896263" lon="7.07089431"><ele>833.119629</ele><time>2009-09-12T07:55:17Z</time></trkpt>
<trkpt lat="46.51880966" lon="7.07076062"><ele>832.158447</ele><time>2009-09-12T07:55:28Z</time></trkpt>
<trkpt lat="46.51865082" lon="7.07066339"><ele>828.313232</ele><time>2009-09-12T07:55:38Z</time></trkpt>
<trkpt lat="46.51849131" lon="7.07044805"><ele>830.23584</ele><time>2009-09-12T07:55:59Z</time></trkpt>
<trkpt lat="46.51842325" lon="7.07030497"><ele>832.63916</ele><time>2009-09-12T07:56:09Z</time></trkpt>
<trkpt lat="46.51825394" lon="7.07003290"><ele>831.197266</ele><time>2009-09-12T07:56:16Z</time></trkpt>
<trkpt lat="46.51821555" lon="7.06998906"><ele>830.23584</ele><time>2009-09-12T07:56:17Z</time></trkpt>
<trkpt lat="46.51786485" lon="7.06968086"><ele>825.428955</ele><time>2009-09-12T07:56:23Z</time></trkpt>
<trkpt lat="46.51749127" lon="7.06956200"><ele>822.545166</ele><time>2009-09-12T07:56:27Z</time></trkpt>
<trkpt lat="46.51688366" lon="7.06954448"><ele>819.180664</ele><time>2009-09-12T07:56:33Z</time></trkpt>
<trkpt lat="46.51664612" lon="7.06954448"><ele>818.219238</ele><time>2009-09-12T07:56:36Z</time></trkpt>
<trkpt lat="46.51629617" lon="7.06940191"><ele>816.777344</ele><time>2009-09-12T07:56:42Z</time></trkpt>
<trkpt lat="46.51598185" lon="7.06908734"><ele>813.893311</ele><time>2009-09-12T07:56:49Z</time></trkpt>
<trkpt lat="46.51564775" lon="7.06877477"><ele>813.412842</ele><time>2009-09-12T07:56:57Z</time></trkpt>
<trkpt lat="46.51532161" lon="7.06858844"><ele>814.854736</ele><time>2009-09-12T07:57:06Z</time></trkpt>
<trkpt lat="46.51506244" lon="7.06841653"><ele>815.816162</ele><time>2009-09-12T07:57:15Z</time></trkpt>
<trkpt lat="46.51484200" lon="7.06819282"><ele>816.296631</ele><time>2009-09-12T07:57:24Z</time></trkpt>
<trkpt lat="46.51457478" lon="7.06797204"><ele>814.854736</ele><time>2009-09-12T07:57:34Z</time></trkpt>
<trkpt lat="46.51434503" lon="7.06783039"><ele>812.932129</ele><time>2009-09-12T07:57:38Z</time></trkpt>
<trkpt lat="46.51428125" lon="7.06778378"><ele>812.451416</ele><time>2009-09-12T07:57:39Z</time></trkpt>
<trkpt lat="46.51383818" lon="7.06740509"><ele>814.374023</ele><time>2009-09-12T07:57:47Z</time></trkpt>
<trkpt lat="46.51367750" lon="7.06735337"><ele>815.335449</ele><time>2009-09-12T07:58:00Z</time></trkpt>
<trkpt lat="46.51361237" lon="7.06733158"><ele>815.816162</ele><time>2009-09-12T07:58:06Z</time></trkpt>
<trkpt lat="46.51354942" lon="7.06731725"><ele>816.296631</ele><time>2009-09-12T07:58:11Z</time></trkpt>
<trkpt lat="46.51352076" lon="7.06730576"><ele>816.777344</ele><time>2009-09-12T07:58:14Z</time></trkpt>
<trkpt lat="46.51347516" lon="7.06731884"><ele>817.258057</ele><time>2009-09-12T07:58:19Z</time></trkpt>
<trkpt lat="46.51341858" lon="7.06731557"><ele>817.258057</ele><time>2009-09-12T07:58:24Z</time></trkpt>
<trkpt lat="46.51329596" lon="7.06728296"><ele>818.219238</ele><time>2009-09-12T07:58:34Z</time></trkpt>
<trkpt lat="46.51311876" lon="7.06720342"><ele>819.661377</ele><time>2009-09-12T07:58:45Z</time></trkpt>
<trkpt lat="46.51293998" lon="7.06707995"><ele>821.103271</ele><time>2009-09-12T07:58:57Z</time></trkpt>
<trkpt lat="46.51275390" lon="7.06695490"><ele>821.58374</ele><time>2009-09-12T07:59:08Z</time></trkpt>
<trkpt lat="46.51258442" lon="7.06675901"><ele>822.545166</ele><time>2009-09-12T07:59:19Z</time></trkpt>
<trkpt lat="46.51233237" lon="7.06654443"><ele>824.467773</ele><time>2009-09-12T07:59:32Z</time></trkpt>
<trkpt lat="46.51207932" lon="7.06642231"><ele>824.948486</ele><time>2009-09-12T07:59:44Z</time></trkpt>
<trkpt lat="46.51185326" lon="7.06639079"><ele>825.909668</ele><time>2009-09-12T07:59:55Z</time></trkpt>
<trkpt lat="46.51163424" lon="7.06632935"><ele>824.948486</ele><time>2009-09-12T08:00:06Z</time></trkpt>
<trkpt lat="46.51146233" lon="7.06619759"><ele>825.428955</ele><time>2009-09-12T08:00:16Z</time></trkpt>
<trkpt lat="46.51127248" lon="7.06604353"><ele>825.428955</ele><time>2009-09-12T08:00:27Z</time></trkpt>
<trkpt lat="46.51109797" lon="7.06592266"><ele>826.390381</ele><time>2009-09-12T08:00:37Z</time></trkpt>
<trkpt lat="46.51091860" lon="7.06578436"><ele>831.197266</ele><time>2009-09-12T08:00:48Z</time></trkpt>
<trkpt lat="46.51070964" lon="7.06566400"><ele>834.081055</ele><time>2009-09-12T08:00:59Z</time></trkpt>
<trkpt lat="46.51046849" lon="7.06554724"><ele>835.522949</ele><time>2009-09-12T08:01:12Z</time></trkpt>
<trkpt lat="46.51025249" lon="7.06544632"><ele>837.92627</ele><time>2009-09-12T08:01:24Z</time></trkpt>
<trkpt lat="46.51005828" lon="7.06539016"><ele>839.368164</ele><time>2009-09-12T08:01:34Z</time></trkpt>
<trkpt lat="46.50987622" lon="7.06533308"><ele>841.290771</ele><time>2009-09-12T08:01:44Z</time></trkpt>
<trkpt lat="46.50971076" lon="7.06529293"><ele>843.213379</ele><time>2009-09-12T08:01:53Z</time></trkpt>
<trkpt lat="46.50951052" lon="7.06524666"><ele>844.175049</ele><time>2009-09-12T08:02:03Z</time></trkpt>
<trkpt lat="46.50929108" lon="7.06515388"><ele>844.655518</ele><time>2009-09-12T08:02:12Z</time></trkpt>
<trkpt lat="46.50903032" lon="7.06507375"><ele>843.694092</ele><time>2009-09-12T08:02:22Z</time></trkpt>
<trkpt lat="46.50886578" lon="7.06498582"><ele>844.175049</ele><time>2009-09-12T08:02:29Z</time></trkpt>
<trkpt lat="46.50864517" lon="7.06482489"><ele>843.213379</ele><time>2009-09-12T08:02:38Z</time></trkpt>
<trkpt lat="46.50839279" lon="7.06453663"><ele>842.252197</ele><time>2009-09-12T08:02:49Z</time></trkpt>
<trkpt lat="46.50826857" lon="7.06442742"><ele>842.73291</ele><time>2009-09-12T08:02:56Z</time></trkpt>
<trkpt lat="46.50809792" lon="7.06429331"><ele>842.73291</ele><time>2009-09-12T08:03:05Z</time></trkpt>
<trkpt lat="46.50790572" lon="7.06413405"><ele>842.252197</ele><time>2009-09-12T08:03:13Z</time></trkpt>
<trkpt lat="46.50761847" lon="7.06390841"><ele>841.771484</ele><time>2009-09-12T08:03:24Z</time></trkpt>
<trkpt lat="46.50726585" lon="7.06367137"><ele>839.368164</ele><time>2009-09-12T08:03:34Z</time></trkpt>
<trkpt lat="46.50694859" lon="7.06352611"><ele>836.964844</ele><time>2009-09-12T08:03:41Z</time></trkpt>
<trkpt lat="46.50652698" lon="7.06332746"><ele>833.119629</ele><time>2009-09-12T08:03:50Z</time></trkpt>
<trkpt lat="46.50624929" lon="7.06319092"><ele>836.003662</ele><time>2009-09-12T08:03:58Z</time></trkpt>
<trkpt lat="46.50622079" lon="7.06317214"><ele>836.484375</ele><time>2009-09-12T08:03:59Z</time></trkpt>
<trkpt lat="46.50585216" lon="7.06291398"><ele>832.158447</ele><time>2009-09-12T08:04:07Z</time></trkpt>
<trkpt lat="46.50554370" lon="7.06261927"><ele>828.313232</ele><time>2009-09-12T08:04:13Z</time></trkpt>
<trkpt lat="46.50546667" lon="7.06250293"><ele>826.871094</ele><time>2009-09-12T08:04:15Z</time></trkpt>
<trkpt lat="46.50535041" lon="7.06235935"><ele>826.390381</ele><time>2009-09-12T08:04:18Z</time></trkpt>
<trkpt lat="46.50510206" lon="7.06221367"><ele>824.467773</ele><time>2009-09-12T08:04:24Z</time></trkpt>
<trkpt lat="46.50490668" lon="7.06207202"><ele>823.506592</ele><time>2009-09-12T08:04:30Z</time></trkpt>
<trkpt lat="46.50482361" lon="7.06186490"><ele>823.025879</ele><time>2009-09-12T08:04:37Z</time></trkpt>
<trkpt lat="46.50485521" lon="7.06152133"><ele>824.467773</ele><time>2009-09-12T08:04:44Z</time></trkpt>
<trkpt lat="46.50490140" lon="7.06108622"><ele>824.948486</ele><time>2009-09-12T08:04:53Z</time></trkpt>
<trkpt lat="46.50487038" lon="7.06081582"><ele>824.948486</ele><time>2009-09-12T08:04:59Z</time></trkpt>
<trkpt lat="46.50482705" lon="7.06054752"><ele>826.871094</ele><time>2009-09-12T08:05:07Z</time></trkpt>
<trkpt lat="46.50474298" lon="7.06018953"><ele>827.351807</ele><time>2009-09-12T08:05:17Z</time></trkpt>
<trkpt lat="46.50459998" lon="7.06007319"><ele>826.390381</ele><time>2009-09-12T08:05:28Z</time></trkpt>
<trkpt lat="46.50464457" lon="7.06006288"><ele>826.871094</ele><time>2009-09-12T08:05:31Z</time></trkpt>
<trkpt lat="46.50471414" lon="7.06023521"><ele>824.467773</ele><time>2009-09-12T08:05:36Z</time></trkpt>
<trkpt lat="46.50474658" lon="7.06040980"><ele>823.987061</ele><time>2009-09-12T08:05:42Z</time></trkpt>
<trkpt lat="46.50465296" lon="7.06000479"><ele>824.467773</ele><time>2009-09-12T08:06:07Z</time></trkpt>
<trkpt lat="46.50456386" lon="7.05981762"><ele>823.506592</ele><time>2009-09-12T08:06:15Z</time></trkpt>
<trkpt lat="46.50440921" lon="7.05955787"><ele>823.506592</ele><time>2009-09-12T08:06:26Z</time></trkpt>
<trkpt lat="46.50430251" lon="7.05937548"><ele>823.506592</ele><time>2009-09-12T08:06:35Z</time></trkpt>
<trkpt lat="46.50415968" lon="7.05902830"><ele>824.467773</ele><time>2009-09-12T08:06:47Z</time></trkpt>
<trkpt lat="46.50404435" lon="7.05871574"><ele>825.428955</ele><time>2009-09-12T08:06:57Z</time></trkpt>
<trkpt lat="46.50388727" lon="7.05839664"><ele>825.428955</ele><time>2009-09-12T08:07:07Z</time></trkpt>
<trkpt lat="46.50375542" lon="7.05825398"><ele>826.390381</ele><time>2009-09-12T08:07:16Z</time></trkpt>
<trkpt lat="46.50361100" lon="7.05813965"><ele>827.832275</ele><time>2009-09-12T08:07:26Z</time></trkpt>
<trkpt lat="46.50342794" lon="7.05798911"><ele>828.793945</ele><time>2009-09-12T08:07:37Z</time></trkpt>
<trkpt lat="46.50325133" lon="7.05782524"><ele>829.274414</ele><time>2009-09-12T08:07:47Z</time></trkpt>
<trkpt lat="46.50302754" lon="7.05753104"><ele>830.23584</ele><time>2009-09-12T08:07:59Z</time></trkpt>
<trkpt lat="46.50284129" lon="7.05725418"><ele>832.158447</ele><time>2009-09-12T08:08:10Z</time></trkpt>
<trkpt lat="46.50261020" lon="7.05700457"><ele>831.677734</ele><time>2009-09-12T08:08:21Z</time></trkpt>
<trkpt lat="46.50227216" lon="7.05675546"><ele>833.119629</ele><time>2009-09-12T08:08:35Z</time></trkpt>
<trkpt lat="46.50203026" lon="7.05660090"><ele>834.081055</ele><time>2009-09-12T08:08:46Z</time></trkpt>
<trkpt lat="46.50178702" lon="7.05637735"><ele>835.04248</ele><time>2009-09-12T08:08:56Z</time></trkpt>
<trkpt lat="46.50146792" lon="7.05602531"><ele>834.561768</ele><time>2009-09-12T08:09:09Z</time></trkpt>
<trkpt lat="46.50120506" lon="7.05574745"><ele>832.158447</ele><time>2009-09-12T08:09:16Z</time></trkpt>
<trkpt lat="46.50078471" lon="7.05544126"><ele>831.197266</ele><time>2009-09-12T08:09:24Z</time></trkpt>
<trkpt lat="46.50030216" lon="7.05512895"><ele>830.23584</ele><time>2009-09-12T08:09:33Z</time></trkpt>
<trkpt lat="46.50011139" lon="7.05500155"><ele>830.23584</ele><time>2009-09-12T08:09:37Z</time></trkpt>
<trkpt lat="46.49961803" lon="7.05488697"><ele>828.793945</ele><time>2009-09-12T08:09:46Z</time></trkpt>
<trkpt lat="46.49908964" lon="7.05486132"><ele>828.313232</ele><time>2009-09-12T08:09:56Z</time></trkpt>
<trkpt lat="46.49890289" lon="7.05489946"><ele>828.793945</ele><time>2009-09-12T08:10:00Z</time></trkpt>
<trkpt lat="46.49876065" lon="7.05506181"><ele>828.313232</ele><time>2009-09-12T08:10:05Z</time></trkpt>
<trkpt lat="46.49877029" lon="7.05580252"><ele>827.351807</ele><time>2009-09-12T08:10:16Z</time></trkpt>
<trkpt lat="46.49874095" lon="7.05627803"><ele>826.871094</ele><time>2009-09-12T08:10:21Z</time></trkpt>
<trkpt lat="46.49861455" lon="7.05640040"><ele>825.428955</ele><time>2009-09-12T08:10:25Z</time></trkpt>
<trkpt lat="46.49858370" lon="7.05635229"><ele>824.948486</ele><time>2009-09-12T08:10:26Z</time></trkpt>
<trkpt lat="46.49739238" lon="7.05348275"><ele>810.047852</ele><time>2009-09-12T08:11:40Z</time></trkpt>
<trkpt lat="46.49705619" lon="7.05259569"><ele>809.08667</ele><time>2009-09-12T08:11:48Z</time></trkpt>
<trkpt lat="46.49679459" lon="7.05232227"><ele>809.08667</ele><time>2009-09-12T08:11:52Z</time></trkpt>
<trkpt lat="46.49647423" lon="7.05198490"><ele>803.799561</ele><time>2009-09-12T08:12:16Z</time></trkpt>
<trkpt lat="46.49704386" lon="7.05206319"><ele>830.23584</ele><time>2009-09-12T08:13:31Z</time></trkpt>
<trkpt lat="46.49640835" lon="7.05129767"><ele>807.164063</ele><time>2009-09-12T08:15:44Z</time></trkpt>
<trkpt lat="46.49625395" lon="7.05125777"><ele>803.318848</ele><time>2009-09-12T08:15:52Z</time></trkpt>
<trkpt lat="46.49603661" lon="7.05118175"><ele>798.99292</ele><time>2009-09-12T08:16:03Z</time></trkpt>
<trkpt lat="46.49584534" lon="7.05105183"><ele>796.109131</ele><time>2009-09-12T08:16:12Z</time></trkpt>
<trkpt lat="46.49567753" lon="7.05088260"><ele>796.589844</ele><time>2009-09-12T08:16:21Z</time></trkpt>
<trkpt lat="46.49555390" lon="7.05086365"><ele>796.109131</ele><time>2009-09-12T08:16:28Z</time></trkpt>
<trkpt lat="46.49547553" lon="7.05079517"><ele>796.109131</ele><time>2009-09-12T08:16:36Z</time></trkpt>
<trkpt lat="46.49545264" lon="7.05064447"><ele>796.589844</ele><time>2009-09-12T08:16:43Z</time></trkpt>
<trkpt lat="46.49544334" lon="7.05064556"><ele>796.589844</ele><time>2009-09-12T08:16:44Z</time></trkpt>
<trkpt lat="46.49535030" lon="7.05069501"><ele>797.070313</ele><time>2009-09-12T08:16:49Z</time></trkpt>
<trkpt lat="46.49503212" lon="7.05074882"><ele>796.589844</ele><time>2009-09-12T08:17:00Z</time></trkpt>
<trkpt lat="46.49474345" lon="7.05074354"><ele>795.628174</ele><time>2009-09-12T08:17:10Z</time></trkpt>
<trkpt lat="46.49452209" lon="7.05075368"><ele>795.628174</ele><time>2009-09-12T08:17:21Z</time></trkpt>
<trkpt lat="46.49442980" lon="7.05077556"><ele>796.589844</ele><time>2009-09-12T08:17:30Z</time></trkpt>
<trkpt lat="46.49442871" lon="7.05078889"><ele>796.589844</ele><time>2009-09-12T08:17:31Z</time></trkpt>
<trkpt lat="46.49448680" lon="7.05082116"><ele>796.589844</ele><time>2009-09-12T08:17:35Z</time></trkpt>
<trkpt lat="46.49469358" lon="7.05132910"><ele>789.860352</ele><time>2009-09-12T08:17:50Z</time></trkpt>
<trkpt lat="46.49450046" lon="7.05156513"><ele>783.131104</ele><time>2009-09-12T08:18:11Z</time></trkpt>
<trkpt lat="46.49421330" lon="7.05138006"><ele>782.650635</ele><time>2009-09-12T08:18:19Z</time></trkpt>
<trkpt lat="46.49392001" lon="7.05103020"><ele>781.689209</ele><time>2009-09-12T08:18:25Z</time></trkpt>
<trkpt lat="46.49362698" lon="7.05077170"><ele>781.20874</ele><time>2009-09-12T08:18:31Z</time></trkpt>
<trkpt lat="46.49338055" lon="7.05060088"><ele>780.728027</ele><time>2009-09-12T08:18:38Z</time></trkpt>
<trkpt lat="46.49304268" lon="7.05038890"><ele>781.20874</ele><time>2009-09-12T08:18:47Z</time></trkpt>
<trkpt lat="46.49281310" lon="7.05031891"><ele>780.728027</ele><time>2009-09-12T08:18:53Z</time></trkpt>
<trkpt lat="46.49258042" lon="7.05037382"><ele>782.169922</ele><time>2009-09-12T08:18:58Z</time></trkpt>
<trkpt lat="46.49230809" lon="7.05028530"><ele>786.976318</ele><time>2009-09-12T08:19:05Z</time></trkpt>
<trkpt lat="46.49227791" lon="7.05027399"><ele>787.457031</ele><time>2009-09-12T08:19:06Z</time></trkpt>
<trkpt lat="46.49218362" lon="7.05023811"><ele>787.937744</ele><time>2009-09-12T08:19:14Z</time></trkpt>
<trkpt lat="46.49213400" lon="7.05017558"><ele>787.457031</ele><time>2009-09-12T08:19:18Z</time></trkpt>
<trkpt lat="46.49200425" lon="7.05002462"><ele>786.976318</ele><time>2009-09-12T08:19:24Z</time></trkpt>
<trkpt lat="46.49186016" lon="7.04993988"><ele>785.534424</ele><time>2009-09-12T08:19:28Z</time></trkpt>
<trkpt lat="46.49177835" lon="7.04988012"><ele>785.534424</ele><time>2009-09-12T08:19:30Z</time></trkpt>
<trkpt lat="46.49118148" lon="7.04923832"><ele>785.053955</ele><time>2009-09-12T08:19:55Z</time></trkpt>
<trkpt lat="46.49094947" lon="7.04914704"><ele>791.302246</ele><time>2009-09-12T08:20:02Z</time></trkpt>
<trkpt lat="46.49080639" lon="7.04911049"><ele>794.666748</ele><time>2009-09-12T08:20:11Z</time></trkpt>
<trkpt lat="46.49071553" lon="7.04906104"><ele>796.109131</ele><time>2009-09-12T08:20:23Z</time></trkpt>
<trkpt lat="46.49068150" lon="7.04901678"><ele>792.744385</ele><time>2009-09-12T08:20:32Z</time></trkpt>
<trkpt lat="46.49041713" lon="7.04890296"><ele>789.379639</ele><time>2009-09-12T08:20:44Z</time></trkpt>
<trkpt lat="46.49004866" lon="7.04883213"><ele>787.937744</ele><time>2009-09-12T08:20:58Z</time></trkpt>
<trkpt lat="46.48969729" lon="7.04869467"><ele>787.937744</ele><time>2009-09-12T08:21:10Z</time></trkpt>
<trkpt lat="46.48931164" lon="7.04856223"><ele>783.131104</ele><time>2009-09-12T08:21:25Z</time></trkpt>
<trkpt lat="46.48898047" lon="7.04849786"><ele>786.015137</ele><time>2009-09-12T08:21:40Z</time></trkpt>
<trkpt lat="46.48854470" lon="7.04810408"><ele>785.534424</ele><time>2009-09-12T08:22:00Z</time></trkpt>
<trkpt lat="46.48829232" lon="7.04780979"><ele>784.092529</ele><time>2009-09-12T08:22:11Z</time></trkpt>
<trkpt lat="46.48804422" lon="7.04754249"><ele>784.092529</ele><time>2009-09-12T08:22:22Z</time></trkpt>
<trkpt lat="46.48789636" lon="7.04741676"><ele>783.611816</ele><time>2009-09-12T08:22:30Z</time></trkpt>
<trkpt lat="46.48770894" lon="7.04740763"><ele>785.534424</ele><time>2009-09-12T08:22:37Z</time></trkpt>
<trkpt lat="46.48759930" lon="7.04738600"><ele>786.015137</ele><time>2009-09-12T08:22:43Z</time></trkpt>
<trkpt lat="46.48757759" lon="7.04741676"><ele>787.457031</ele><time>2009-09-12T08:22:49Z</time></trkpt>
<trkpt lat="46.48757558" lon="7.04743277"><ele>786.49585</ele><time>2009-09-12T08:22:56Z</time></trkpt>
<trkpt lat="46.48761741" lon="7.04765473"><ele>785.534424</ele><time>2009-09-12T08:23:06Z</time></trkpt>
<trkpt lat="46.48765781" lon="7.04787316"><ele>786.49585</ele><time>2009-09-12T08:23:15Z</time></trkpt>
<trkpt lat="46.48776485" lon="7.04812805"><ele>787.457031</ele><time>2009-09-12T08:23:26Z</time></trkpt>
<trkpt lat="46.48821512" lon="7.04899767"><ele>792.263672</ele><time>2009-09-12T08:23:59Z</time></trkpt>
<trkpt lat="46.48849508" lon="7.04929196"><ele>795.628174</ele><time>2009-09-12T08:24:11Z</time></trkpt>
<trkpt lat="46.48931818" lon="7.05003418"><ele>795.628174</ele><time>2009-09-12T08:24:43Z</time></trkpt>
<trkpt lat="46.48961917" lon="7.05040357"><ele>791.302246</ele><time>2009-09-12T08:24:53Z</time></trkpt>
<trkpt lat="46.48985286" lon="7.05080071"><ele>789.379639</ele><time>2009-09-12T08:25:03Z</time></trkpt>
<trkpt lat="46.49010642" lon="7.05109960"><ele>788.89917</ele><time>2009-09-12T08:25:14Z</time></trkpt>
<trkpt lat="46.49021312" lon="7.05121511"><ele>787.937744</ele><time>2009-09-12T08:25:18Z</time></trkpt>
<trkpt lat="46.49047044" lon="7.05161090"><ele>785.534424</ele><time>2009-09-12T08:25:27Z</time></trkpt>
<trkpt lat="46.49056708" lon="7.05181542"><ele>785.534424</ele><time>2009-09-12T08:25:34Z</time></trkpt>
<trkpt lat="46.49086079" lon="7.05227190"><ele>785.053955</ele><time>2009-09-12T08:25:47Z</time></trkpt>
<trkpt lat="46.49145925" lon="7.05303130"><ele>789.860352</ele><time>2009-09-12T08:26:13Z</time></trkpt>
<trkpt lat="46.49173594" lon="7.05313079"><ele>788.89917</ele><time>2009-09-12T08:26:23Z</time></trkpt>
<trkpt lat="46.49191146" lon="7.05315049"><ele>788.89917</ele><time>2009-09-12T08:26:32Z</time></trkpt>
<trkpt lat="46.49204263" lon="7.05314739"><ele>787.937744</ele><time>2009-09-12T08:26:42Z</time></trkpt>
<trkpt lat="46.49227398" lon="7.05319969"><ele>787.457031</ele><time>2009-09-12T08:26:53Z</time></trkpt>
<trkpt lat="46.49244899" lon="7.05323674"><ele>787.937744</ele><time>2009-09-12T08:27:02Z</time></trkpt>
<trkpt lat="46.49258025" lon="7.05323364"><ele>788.89917</ele><time>2009-09-12T08:27:10Z</time></trkpt>
<trkpt lat="46.49264974" lon="7.05323841"><ele>790.341064</ele><time>2009-09-12T08:27:17Z</time></trkpt>
<trkpt lat="46.49266206" lon="7.05322333"><ele>789.860352</ele><time>2009-09-12T08:27:26Z</time></trkpt>
<trkpt lat="46.49268771" lon="7.05321964"><ele>790.821533</ele><time>2009-09-12T08:27:39Z</time></trkpt>
<trkpt lat="46.49275493" lon="7.05323816"><ele>790.821533</ele><time>2009-09-12T08:27:48Z</time></trkpt>
<trkpt lat="46.49277555" lon="7.05325484"><ele>793.224854</ele><time>2009-09-12T08:27:57Z</time></trkpt>
<trkpt lat="46.49281553" lon="7.05328829"><ele>795.628174</ele><time>2009-09-12T08:28:11Z</time></trkpt>
<trkpt lat="46.49295207" lon="7.05344360"><ele>796.109131</ele><time>2009-09-12T08:28:23Z</time></trkpt>
<trkpt lat="46.49311225" lon="7.05359045"><ele>798.512207</ele><time>2009-09-12T08:28:33Z</time></trkpt>
<trkpt lat="46.49328844" lon="7.05369716"><ele>798.031738</ele><time>2009-09-12T08:28:45Z</time></trkpt>
<trkpt lat="46.49339288" lon="7.05373764"><ele>796.109131</ele><time>2009-09-12T08:28:53Z</time></trkpt>
<trkpt lat="46.49356185" lon="7.05381081"><ele>795.628174</ele><time>2009-09-12T08:29:04Z</time></trkpt>
<trkpt lat="46.49370519" lon="7.05386085"><ele>797.551025</ele><time>2009-09-12T08:29:15Z</time></trkpt>
<trkpt lat="46.49382597" lon="7.05391710"><ele>798.512207</ele><time>2009-09-12T08:29:27Z</time></trkpt>
<trkpt lat="46.49388649" lon="7.05393445"><ele>799.954346</ele><time>2009-09-12T08:29:37Z</time></trkpt>
<trkpt lat="46.49388825" lon="7.05393923"><ele>797.070313</ele><time>2009-09-12T08:29:46Z</time></trkpt>
<trkpt lat="46.49389420" lon="7.05391768"><ele>797.070313</ele><time>2009-09-12T08:30:19Z</time></trkpt>
<trkpt lat="46.49391850" lon="7.05391752"><ele>798.031738</ele><time>2009-09-12T08:30:28Z</time></trkpt>
<trkpt lat="46.49396821" lon="7.05394627"><ele>797.551025</ele><time>2009-09-12T08:30:36Z</time></trkpt>
<trkpt lat="46.49412244" lon="7.05399983"><ele>799.473633</ele><time>2009-09-12T08:30:47Z</time></trkpt>
<trkpt lat="46.49425370" lon="7.05406001"><ele>799.473633</ele><time>2009-09-12T08:30:56Z</time></trkpt>
<trkpt lat="46.49441798" lon="7.05421809"><ele>802.357422</ele><time>2009-09-12T08:31:07Z</time></trkpt>
<trkpt lat="46.49456098" lon="7.05438137"><ele>805.722168</ele><time>2009-09-12T08:31:17Z</time></trkpt>
<trkpt lat="46.49472116" lon="7.05448137"><ele>807.644775</ele><time>2009-09-12T08:31:27Z</time></trkpt>
<trkpt lat="46.49482752" lon="7.05451531"><ele>806.202637</ele><time>2009-09-12T08:31:34Z</time></trkpt>
<trkpt lat="46.49497756" lon="7.05455102"><ele>809.567383</ele><time>2009-09-12T08:31:42Z</time></trkpt>
<trkpt lat="46.49515844" lon="7.05462076"><ele>810.528564</ele><time>2009-09-12T08:31:53Z</time></trkpt>
<trkpt lat="46.49538198" lon="7.05466946"><ele>810.528564</ele><time>2009-09-12T08:32:04Z</time></trkpt>
<trkpt lat="46.49558759" lon="7.05466962"><ele>810.047852</ele><time>2009-09-12T08:32:14Z</time></trkpt>
<trkpt lat="46.49573260" lon="7.05466820"><ele>809.567383</ele><time>2009-09-12T08:32:21Z</time></trkpt>
<trkpt lat="46.49595455" lon="7.05466107"><ele>809.08667</ele><time>2009-09-12T08:32:32Z</time></trkpt>
<trkpt lat="46.49610509" lon="7.05462000"><ele>809.08667</ele><time>2009-09-12T08:32:40Z</time></trkpt>
<trkpt lat="46.49628254" lon="7.05456485"><ele>810.047852</ele><time>2009-09-12T08:32:49Z</time></trkpt>
<trkpt lat="46.49647004" lon="7.05457835"><ele>810.528564</ele><time>2009-09-12T08:32:58Z</time></trkpt>
<trkpt lat="46.49664874" lon="7.05464993"><ele>811.48999</ele><time>2009-09-12T08:33:07Z</time></trkpt>
<trkpt lat="46.49685787" lon="7.05480549"><ele>813.893311</ele><time>2009-09-12T08:33:17Z</time></trkpt>
<trkpt lat="46.49709097" lon="7.05504145"><ele>817.738525</ele><time>2009-09-12T08:33:25Z</time></trkpt>
<trkpt lat="46.49737042" lon="7.05532727"><ele>821.58374</ele><time>2009-09-12T08:33:34Z</time></trkpt>
<trkpt lat="46.49758651" lon="7.05555215"><ele>825.428955</ele><time>2009-09-12T08:33:43Z</time></trkpt>
<trkpt lat="46.49776144" lon="7.05567269"><ele>826.390381</ele><time>2009-09-12T08:33:52Z</time></trkpt>
<trkpt lat="46.49785909" lon="7.05576405"><ele>825.428955</ele><time>2009-09-12T08:34:00Z</time></trkpt>
<trkpt lat="46.49796939" lon="7.05591534"><ele>826.871094</ele><time>2009-09-12T08:34:08Z</time></trkpt>
<trkpt lat="46.49800519" lon="7.05600771"><ele>826.390381</ele><time>2009-09-12T08:34:15Z</time></trkpt>
<trkpt lat="46.49795079" lon="7.05604551"><ele>826.871094</ele><time>2009-09-12T08:34:23Z</time></trkpt>
<trkpt lat="46.49794140" lon="7.05604183"><ele>826.871094</ele><time>2009-09-12T08:34:24Z</time></trkpt>
<trkpt lat="46.49788130" lon="7.05603219"><ele>827.351807</ele><time>2009-09-12T08:34:34Z</time></trkpt>
<trkpt lat="46.49786152" lon="7.05603294"><ele>824.948486</ele><time>2009-09-12T08:35:05Z</time></trkpt>
<trkpt lat="46.49752976" lon="7.05602682"><ele>824.948486</ele><time>2009-09-12T08:35:17Z</time></trkpt>
<trkpt lat="46.49729365" lon="7.05601760"><ele>824.948486</ele><time>2009-09-12T08:35:24Z</time></trkpt>
<trkpt lat="46.49708644" lon="7.05603277"><ele>827.351807</ele><time>2009-09-12T08:35:34Z</time></trkpt>
<trkpt lat="46.49686801" lon="7.05616361"><ele>827.832275</ele><time>2009-09-12T08:35:44Z</time></trkpt>
<trkpt lat="46.49663776" lon="7.05640820"><ele>826.871094</ele><time>2009-09-12T08:35:55Z</time></trkpt>
<trkpt lat="46.49643467" lon="7.05669662"><ele>827.351807</ele><time>2009-09-12T08:36:05Z</time></trkpt>
<trkpt lat="46.49622805" lon="7.05701404"><ele>827.351807</ele><time>2009-09-12T08:36:15Z</time></trkpt>
<trkpt lat="46.49596268" lon="7.05744915"><ele>826.390381</ele><time>2009-09-12T08:36:28Z</time></trkpt>
<trkpt lat="46.49580083" lon="7.05770999"><ele>827.351807</ele><time>2009-09-12T08:36:37Z</time></trkpt>
<trkpt lat="46.49560587" lon="7.05805792"><ele>828.793945</ele><time>2009-09-12T08:36:51Z</time></trkpt>
<trkpt lat="46.49554811" lon="7.05832581"><ele>828.793945</ele><time>2009-09-12T08:37:04Z</time></trkpt>
<trkpt lat="46.49595246" lon="7.05869067"><ele>834.561768</ele><time>2009-09-12T08:37:33Z</time></trkpt>
<trkpt lat="46.49637214" lon="7.05891523"><ele>838.406982</ele><time>2009-09-12T08:38:02Z</time></trkpt>
<trkpt lat="46.49735408" lon="7.05946374"><ele>853.788086</ele><time>2009-09-12T08:39:31Z</time></trkpt>
<trkpt lat="46.49750537" lon="7.05959181"><ele>852.82666</ele><time>2009-09-12T08:39:57Z</time></trkpt>
<trkpt lat="46.49771526" lon="7.05973992"><ele>855.710693</ele><time>2009-09-12T08:40:16Z</time></trkpt>
<trkpt lat="46.49791902" lon="7.05988023"><ele>862.439941</ele><time>2009-09-12T08:40:33Z</time></trkpt>
<trkpt lat="46.49802044" lon="7.05995668"><ele>865.804688</ele><time>2009-09-12T08:40:41Z</time></trkpt>
<trkpt lat="46.49815380" lon="7.05983975"><ele>866.285156</ele><time>2009-09-12T08:40:48Z</time></trkpt>
<trkpt lat="46.49828045" lon="7.05967253"><ele>868.207764</ele><time>2009-09-12T08:40:59Z</time></trkpt>
<trkpt lat="46.49843032" lon="7.05948805"><ele>872.052979</ele><time>2009-09-12T08:41:12Z</time></trkpt>
<trkpt lat="46.49850374" lon="7.05942560"><ele>872.052979</ele><time>2009-09-12T08:41:20Z</time></trkpt>
<trkpt lat="46.49865503" lon="7.05945603"><ele>874.456299</ele><time>2009-09-12T08:41:30Z</time></trkpt>
<trkpt lat="46.49877163" lon="7.05944463"><ele>874.937012</ele><time>2009-09-12T08:41:38Z</time></trkpt>
<trkpt lat="46.49879141" lon="7.05944396"><ele>874.456299</ele><time>2009-09-12T08:41:45Z</time></trkpt>
<trkpt lat="46.49882368" lon="7.05945812"><ele>875.898193</ele><time>2009-09-12T08:41:52Z</time></trkpt>
<trkpt lat="46.49883131" lon="7.05945527"><ele>877.340576</ele><time>2009-09-12T08:41:59Z</time></trkpt>
<trkpt lat="46.49884799" lon="7.05945728"><ele>875.898193</ele><time>2009-09-12T08:42:08Z</time></trkpt>
<trkpt lat="46.49884304" lon="7.05945184"><ele>871.572266</ele><time>2009-09-12T08:42:22Z</time></trkpt>
<trkpt lat="46.49887414" lon="7.05945720"><ele>875.898193</ele><time>2009-09-12T08:42:29Z</time></trkpt>
<trkpt lat="46.49897288" lon="7.05945645"><ele>875.898193</ele><time>2009-09-12T08:42:35Z</time></trkpt>
<trkpt lat="46.49916088" lon="7.05956348"><ele>876.859863</ele><time>2009-09-12T08:42:46Z</time></trkpt>
<trkpt lat="46.49935987" lon="7.05972358"><ele>879.262939</ele><time>2009-09-12T08:42:56Z</time></trkpt>
<trkpt lat="46.49953279" lon="7.05997202"><ele>879.743652</ele><time>2009-09-12T08:43:05Z</time></trkpt>
<trkpt lat="46.49959708" lon="7.06031735"><ele>879.743652</ele><time>2009-09-12T08:43:13Z</time></trkpt>
<trkpt lat="46.49962960" lon="7.06063142"><ele>880.705078</ele><time>2009-09-12T08:43:21Z</time></trkpt>
<trkpt lat="46.49967235" lon="7.06084893"><ele>880.224365</ele><time>2009-09-12T08:43:29Z</time></trkpt>
<trkpt lat="46.49968391" lon="7.06089227"><ele>881.185791</ele><time>2009-09-12T08:43:37Z</time></trkpt>
<trkpt lat="46.49967411" lon="7.06092529"><ele>882.627686</ele><time>2009-09-12T08:43:46Z</time></trkpt>
<trkpt lat="46.49969707" lon="7.06089218"><ele>881.66626</ele><time>2009-09-12T08:44:05Z</time></trkpt>
<trkpt lat="46.49969582" lon="7.06094792"><ele>877.821045</ele><time>2009-09-12T08:44:21Z</time></trkpt>
<trkpt lat="46.49970378" lon="7.06094046"><ele>879.743652</ele><time>2009-09-12T08:44:31Z</time></trkpt>
<trkpt lat="46.49970403" lon="7.06094792"><ele>879.743652</ele><time>2009-09-12T08:44:35Z</time></trkpt>
<trkpt lat="46.49973060" lon="7.06104029"><ele>888.876221</ele><time>2009-09-12T08:45:23Z</time></trkpt>
<trkpt lat="46.49988675" lon="7.06151797"><ele>882.146973</ele><time>2009-09-12T08:46:24Z</time></trkpt>
<trkpt lat="46.50014869" lon="7.06160565"><ele>883.108154</ele><time>2009-09-12T08:46:36Z</time></trkpt>
<trkpt lat="46.50058128" lon="7.06152895"><ele>886.4729</ele><time>2009-09-12T08:46:53Z</time></trkpt>
<trkpt lat="46.50063802" lon="7.06160691"><ele>886.4729</ele><time>2009-09-12T08:46:59Z</time></trkpt>
<trkpt lat="46.50079301" lon="7.06170229"><ele>883.588867</ele><time>2009-09-12T08:47:06Z</time></trkpt>
<trkpt lat="46.50086828" lon="7.06176247"><ele>882.146973</ele><time>2009-09-12T08:47:09Z</time></trkpt>
<trkpt lat="46.50109601" lon="7.06200287"><ele>880.705078</ele><time>2009-09-12T08:47:14Z</time></trkpt>
<trkpt lat="46.50153824" lon="7.06231426"><ele>876.37915</ele><time>2009-09-12T08:47:19Z</time></trkpt>
<trkpt lat="46.50174561" lon="7.06241341"><ele>871.091797</ele><time>2009-09-12T08:47:23Z</time></trkpt>
<trkpt lat="46.50198215" lon="7.06248038"><ele>868.207764</ele><time>2009-09-12T08:47:26Z</time></trkpt>
<trkpt lat="46.50247056" lon="7.06259605"><ele>862.920654</ele><time>2009-09-12T08:47:31Z</time></trkpt>
<trkpt lat="46.50256762" lon="7.06261064"><ele>861.959473</ele><time>2009-09-12T08:47:32Z</time></trkpt>
<trkpt lat="46.50280869" lon="7.06257937"><ele>849.942871</ele><time>2009-09-12T08:47:52Z</time></trkpt>
<trkpt lat="46.50284020" lon="7.06268071"><ele>848.981445</ele><time>2009-09-12T08:47:58Z</time></trkpt>
<trkpt lat="46.50275211" lon="7.06263402"><ele>849.462158</ele><time>2009-09-12T08:48:15Z</time></trkpt>
<trkpt lat="46.50274959" lon="7.06266470"><ele>848.500732</ele><time>2009-09-12T08:48:21Z</time></trkpt>
<trkpt lat="46.50274515" lon="7.06265607"><ele>846.097656</ele><time>2009-09-12T08:49:14Z</time></trkpt>
<trkpt lat="46.50274431" lon="7.06266127"><ele>850.423584</ele><time>2009-09-12T08:49:57Z</time></trkpt>
<trkpt lat="46.50273912" lon="7.06266864"><ele>851.384766</ele><time>2009-09-12T08:50:07Z</time></trkpt>
<trkpt lat="46.50275026" lon="7.06267887"><ele>851.384766</ele><time>2009-09-12T08:53:48Z</time></trkpt>
<trkpt lat="46.50274700" lon="7.06268633"><ele>853.307373</ele><time>2009-09-12T08:54:58Z</time></trkpt>
<trkpt lat="46.50277575" lon="7.06265741"><ele>852.82666</ele><time>2009-09-12T08:55:05Z</time></trkpt>
<trkpt lat="46.50285856" lon="7.06267518"><ele>851.384766</ele><time>2009-09-12T08:55:09Z</time></trkpt>
<trkpt lat="46.50306702" lon="7.06284282"><ele>848.020264</ele><time>2009-09-12T08:55:14Z</time></trkpt>
<trkpt lat="46.50329618" lon="7.06299797"><ele>845.616943</ele><time>2009-09-12T08:55:17Z</time></trkpt>
<trkpt lat="46.50380270" lon="7.06313468"><ele>838.406982</ele><time>2009-09-12T08:55:22Z</time></trkpt>
<trkpt lat="46.50391359" lon="7.06315781"><ele>836.484375</ele><time>2009-09-12T08:55:23Z</time></trkpt>
<trkpt lat="46.50435364" lon="7.06300920"><ele>830.716553</ele><time>2009-09-12T08:55:27Z</time></trkpt>
<trkpt lat="46.50444307" lon="7.06291859"><ele>828.313232</ele><time>2009-09-12T08:55:28Z</time></trkpt>
<trkpt lat="46.50482118" lon="7.06251416"><ele>823.025879</ele><time>2009-09-12T08:55:32Z</time></trkpt>
<trkpt lat="46.50492671" lon="7.06232465"><ele>821.103271</ele><time>2009-09-12T08:55:34Z</time></trkpt>
<trkpt lat="46.50509845" lon="7.06234192"><ele>817.258057</ele><time>2009-09-12T08:55:38Z</time></trkpt>
<trkpt lat="46.50532560" lon="7.06240629"><ele>816.777344</ele><time>2009-09-12T08:55:53Z</time></trkpt>
<trkpt lat="46.50543189" lon="7.06246362"><ele>818.219238</ele><time>2009-09-12T08:56:02Z</time></trkpt>
<trkpt lat="46.50568678" lon="7.06281499"><ele>824.948486</ele><time>2009-09-12T08:56:33Z</time></trkpt>
<trkpt lat="46.50586699" lon="7.06297274"><ele>830.716553</ele><time>2009-09-12T08:56:46Z</time></trkpt>
<trkpt lat="46.50602323" lon="7.06307248"><ele>831.677734</ele><time>2009-09-12T08:56:57Z</time></trkpt>
<trkpt lat="46.50619824" lon="7.06316468"><ele>833.119629</ele><time>2009-09-12T08:57:08Z</time></trkpt>
<trkpt lat="46.50638818" lon="7.06325613"><ele>834.081055</ele><time>2009-09-12T08:57:19Z</time></trkpt>
<trkpt lat="46.50655104" lon="7.06331396"><ele>835.04248</ele><time>2009-09-12T08:57:29Z</time></trkpt>
<trkpt lat="46.50674642" lon="7.06340248"><ele>836.003662</ele><time>2009-09-12T08:57:40Z</time></trkpt>
<trkpt lat="46.50692336" lon="7.06348940"><ele>836.964844</ele><time>2009-09-12T08:57:50Z</time></trkpt>
<trkpt lat="46.50713936" lon="7.06359065"><ele>838.887695</ele><time>2009-09-12T08:58:02Z</time></trkpt>
<trkpt lat="46.50731639" lon="7.06368377"><ele>840.32959</ele><time>2009-09-12T08:58:12Z</time></trkpt>
<trkpt lat="46.50752359" lon="7.06381118"><ele>841.771484</ele><time>2009-09-12T08:58:24Z</time></trkpt>
<trkpt lat="46.50776641" lon="7.06401100"><ele>844.655518</ele><time>2009-09-12T08:58:37Z</time></trkpt>
<trkpt lat="46.50804109" lon="7.06422742"><ele>845.13623</ele><time>2009-09-12T08:58:49Z</time></trkpt>
<trkpt lat="46.50825441" lon="7.06441149"><ele>845.616943</ele><time>2009-09-12T08:58:59Z</time></trkpt>
<trkpt lat="46.50840327" lon="7.06458625"><ele>846.578369</ele><time>2009-09-12T08:59:09Z</time></trkpt>
<trkpt lat="46.50855222" lon="7.06479932"><ele>847.539551</ele><time>2009-09-12T08:59:20Z</time></trkpt>
<trkpt lat="46.50872782" lon="7.06499160"><ele>848.500732</ele><time>2009-09-12T08:59:32Z</time></trkpt>
<trkpt lat="46.50887601" lon="7.06513720"><ele>850.904053</ele><time>2009-09-12T08:59:43Z</time></trkpt>
<trkpt lat="46.50903636" lon="7.06530106"><ele>851.384766</ele><time>2009-09-12T08:59:53Z</time></trkpt>
<trkpt lat="46.50932503" lon="7.06550382"><ele>855.710693</ele><time>2009-09-12T09:00:04Z</time></trkpt>
<trkpt lat="46.50947817" lon="7.06569510"><ele>857.633301</ele><time>2009-09-12T09:00:12Z</time></trkpt>
<trkpt lat="46.50955059" lon="7.06584916"><ele>858.114014</ele><time>2009-09-12T09:00:20Z</time></trkpt>
<trkpt lat="46.50963466" lon="7.06600816"><ele>857.633301</ele><time>2009-09-12T09:00:29Z</time></trkpt>
<trkpt lat="46.50970263" lon="7.06610790"><ele>857.152588</ele><time>2009-09-12T09:00:37Z</time></trkpt>
<trkpt lat="46.50971504" lon="7.06612970"><ele>857.152588</ele><time>2009-09-12T09:00:39Z</time></trkpt>
<trkpt lat="46.50982392" lon="7.06621352"><ele>857.152588</ele><time>2009-09-12T09:00:49Z</time></trkpt>
<trkpt lat="46.51000916" lon="7.06637026"><ele>857.633301</ele><time>2009-09-12T09:00:58Z</time></trkpt>
<trkpt lat="46.51020664" lon="7.06654502"><ele>857.633301</ele><time>2009-09-12T09:01:05Z</time></trkpt>
<trkpt lat="46.51048567" lon="7.06689019"><ele>857.152588</ele><time>2009-09-12T09:01:15Z</time></trkpt>
<trkpt lat="46.51083503" lon="7.06734465"><ele>857.633301</ele><time>2009-09-12T09:01:27Z</time></trkpt>
<trkpt lat="46.51106201" lon="7.06766719"><ele>859.075195</ele><time>2009-09-12T09:01:36Z</time></trkpt>
<trkpt lat="46.51123451" lon="7.06795008"><ele>861.47876</ele><time>2009-09-12T09:01:43Z</time></trkpt>
<trkpt lat="46.51140743" lon="7.06817002"><ele>860.998047</ele><time>2009-09-12T09:01:51Z</time></trkpt>
<trkpt lat="46.51171077" lon="7.06850152"><ele>863.401367</ele><time>2009-09-12T09:02:01Z</time></trkpt>
<trkpt lat="46.51193624" lon="7.06866623"><ele>860.998047</ele><time>2009-09-12T09:02:09Z</time></trkpt>
<trkpt lat="46.51216733" lon="7.06884183"><ele>860.517334</ele><time>2009-09-12T09:02:15Z</time></trkpt>
<trkpt lat="46.51240203" lon="7.06899958"><ele>860.036621</ele><time>2009-09-12T09:02:20Z</time></trkpt>
<trkpt lat="46.51261954" lon="7.06895021"><ele>857.633301</ele><time>2009-09-12T09:02:24Z</time></trkpt>
<trkpt lat="46.51291827" lon="7.06877343"><ele>856.191162</ele><time>2009-09-12T09:02:31Z</time></trkpt>
<trkpt lat="46.51317827" lon="7.06883546"><ele>857.152588</ele><time>2009-09-12T09:02:37Z</time></trkpt>
<trkpt lat="46.51320585" lon="7.06885851"><ele>857.152588</ele><time>2009-09-12T09:02:38Z</time></trkpt>
<trkpt lat="46.51362469" lon="7.06921021"><ele>857.633301</ele><time>2009-09-12T09:02:53Z</time></trkpt>
<trkpt lat="46.51386383" lon="7.06940828"><ele>855.22998</ele><time>2009-09-12T09:03:00Z</time></trkpt>
<trkpt lat="46.51434311" lon="7.06963979"><ele>855.22998</ele><time>2009-09-12T09:03:10Z</time></trkpt>
<trkpt lat="46.51465341" lon="7.06984984"><ele>854.268799</ele><time>2009-09-12T09:03:17Z</time></trkpt>
<trkpt lat="46.51500444" lon="7.07011311"><ele>853.788086</ele><time>2009-09-12T09:03:26Z</time></trkpt>
<trkpt lat="46.51534718" lon="7.07037128"><ele>852.345947</ele><time>2009-09-12T09:03:35Z</time></trkpt>
<trkpt lat="46.51557365" lon="7.07057253"><ele>850.423584</ele><time>2009-09-12T09:03:40Z</time></trkpt>
<trkpt lat="46.51577775" lon="7.07066875"><ele>848.981445</ele><time>2009-09-12T09:03:52Z</time></trkpt>
<trkpt lat="46.51593843" lon="7.07074176"><ele>848.500732</ele><time>2009-09-12T09:04:02Z</time></trkpt>
<trkpt lat="46.51615427" lon="7.07092448"><ele>847.058838</ele><time>2009-09-12T09:04:10Z</time></trkpt>
<trkpt lat="46.51645543" lon="7.07121357"><ele>846.097656</ele><time>2009-09-12T09:04:18Z</time></trkpt>
<trkpt lat="46.51678216" lon="7.07146704"><ele>846.578369</ele><time>2009-09-12T09:04:27Z</time></trkpt>
<trkpt lat="46.51702465" lon="7.07171942"><ele>846.578369</ele><time>2009-09-12T09:04:35Z</time></trkpt>
<trkpt lat="46.51731634" lon="7.07203995"><ele>846.097656</ele><time>2009-09-12T09:04:45Z</time></trkpt>
<trkpt lat="46.51744634" lon="7.07219870"><ele>845.13623</ele><time>2009-09-12T09:04:49Z</time></trkpt>
<trkpt lat="46.51766469" lon="7.07229593"><ele>843.694092</ele><time>2009-09-12T09:04:54Z</time></trkpt>
<trkpt lat="46.51771179" lon="7.07230389"><ele>843.213379</ele><time>2009-09-12T09:04:55Z</time></trkpt>
<trkpt lat="46.51780911" lon="7.07239090"><ele>842.73291</ele><time>2009-09-12T09:05:00Z</time></trkpt>
<trkpt lat="46.51773627" lon="7.07256314"><ele>844.655518</ele><time>2009-09-12T09:05:11Z</time></trkpt>
<trkpt lat="46.51758313" lon="7.07273908"><ele>848.020264</ele><time>2009-09-12T09:05:21Z</time></trkpt>
<trkpt lat="46.51746654" lon="7.07285902"><ele>851.865479</ele><time>2009-09-12T09:05:29Z</time></trkpt>
<trkpt lat="46.51750468" lon="7.07301459"><ele>852.82666</ele><time>2009-09-12T09:05:38Z</time></trkpt>
<trkpt lat="46.51757115" lon="7.07311643"><ele>854.268799</ele><time>2009-09-12T09:05:46Z</time></trkpt>
<trkpt lat="46.51768732" lon="7.07323889"><ele>857.633301</ele><time>2009-09-12T09:05:57Z</time></trkpt>
<trkpt lat="46.51774951" lon="7.07334635"><ele>859.075195</ele><time>2009-09-12T09:06:06Z</time></trkpt>
<trkpt lat="46.51780106" lon="7.07349806"><ele>860.036621</ele><time>2009-09-12T09:06:16Z</time></trkpt>
<trkpt lat="46.51786820" lon="7.07363737"><ele>861.959473</ele><time>2009-09-12T09:06:26Z</time></trkpt>
<trkpt lat="46.51797733" lon="7.07376620"><ele>864.362549</ele><time>2009-09-12T09:06:38Z</time></trkpt>
<trkpt lat="46.51805964" lon="7.07384080"><ele>865.804688</ele><time>2009-09-12T09:06:46Z</time></trkpt>
<trkpt lat="46.51819032" lon="7.07391045"><ele>863.881836</ele><time>2009-09-12T09:06:58Z</time></trkpt>
<trkpt lat="46.51831412" lon="7.07393744"><ele>862.920654</ele><time>2009-09-12T09:07:07Z</time></trkpt>
<trkpt lat="46.51848419" lon="7.07398907"><ele>862.920654</ele><time>2009-09-12T09:07:15Z</time></trkpt>
<trkpt lat="46.51858703" lon="7.07401690"><ele>862.920654</ele><time>2009-09-12T09:08:36Z</time></trkpt>
<trkpt lat="46.51859282" lon="7.07402905"><ele>865.323975</ele><time>2009-09-12T09:08:44Z</time></trkpt>
<trkpt lat="46.51858100" lon="7.07405210"><ele>872.052979</ele><time>2009-09-12T09:09:43Z</time></trkpt>
<trkpt lat="46.52091578" lon="7.07534225"><ele>866.765869</ele><time>2009-09-12T09:11:10Z</time></trkpt>
<trkpt lat="46.52193493" lon="7.07619661"><ele>861.959473</ele><time>2009-09-12T09:13:01Z</time></trkpt>
<trkpt lat="46.52227985" lon="7.07657120"><ele>865.323975</ele><time>2009-09-12T09:13:13Z</time></trkpt>
<trkpt lat="46.52234950" lon="7.07667313"><ele>867.727051</ele><time>2009-09-12T09:13:15Z</time></trkpt>
<trkpt lat="46.52274898" lon="7.07686591"><ele>864.362549</ele><time>2009-09-12T09:13:20Z</time></trkpt>
<trkpt lat="46.52304302" lon="7.07714595"><ele>861.47876</ele><time>2009-09-12T09:13:24Z</time></trkpt>
<trkpt lat="46.52326707" lon="7.07743512"><ele>858.114014</ele><time>2009-09-12T09:13:28Z</time></trkpt>
<trkpt lat="46.52333471" lon="7.07745717"><ele>857.633301</ele><time>2009-09-12T09:13:29Z</time></trkpt>
<trkpt lat="46.52364140" lon="7.07755733"><ele>856.191162</ele><time>2009-09-12T09:13:49Z</time></trkpt>
<trkpt lat="46.52366152" lon="7.07754007"><ele>851.384766</ele><time>2009-09-12T09:14:36Z</time></trkpt>
<trkpt lat="46.52368700" lon="7.07754845"><ele>850.904053</ele><time>2009-09-12T09:14:40Z</time></trkpt>
<trkpt lat="46.52372547" lon="7.07754560"><ele>851.384766</ele><time>2009-09-12T09:14:48Z</time></trkpt>
<trkpt lat="46.52372589" lon="7.07754510"><ele>851.384766</ele><time>2009-09-12T09:14:50Z</time></trkpt>
<trkpt lat="46.52383704" lon="7.07761483"><ele>853.307373</ele><time>2009-09-12T09:14:58Z</time></trkpt>
<trkpt lat="46.52398657" lon="7.07777157"><ele>854.749268</ele><time>2009-09-12T09:15:06Z</time></trkpt>
<trkpt lat="46.52412110" lon="7.07805765"><ele>856.191162</ele><time>2009-09-12T09:15:13Z</time></trkpt>
<trkpt lat="46.52427566" lon="7.07820014"><ele>855.22998</ele><time>2009-09-12T09:15:20Z</time></trkpt>
<trkpt lat="46.52459795" lon="7.07837029"><ele>853.788086</ele><time>2009-09-12T09:15:27Z</time></trkpt>
<trkpt lat="46.52495074" lon="7.07859895"><ele>853.788086</ele><time>2009-09-12T09:15:35Z</time></trkpt>
<trkpt lat="46.52514772" lon="7.07878637"><ele>852.82666</ele><time>2009-09-12T09:15:40Z</time></trkpt>
<trkpt lat="46.52558701" lon="7.07902031"><ele>851.384766</ele><time>2009-09-12T09:15:49Z</time></trkpt>
<trkpt lat="46.52583537" lon="7.07926146"><ele>850.904053</ele><time>2009-09-12T09:15:57Z</time></trkpt>
<trkpt lat="46.52591013" lon="7.07947620"><ele>851.865479</ele><time>2009-09-12T09:16:04Z</time></trkpt>
<trkpt lat="46.52596453" lon="7.07962163"><ele>853.307373</ele><time>2009-09-12T09:16:12Z</time></trkpt>
<trkpt lat="46.52605782" lon="7.07976555"><ele>855.710693</ele><time>2009-09-12T09:16:22Z</time></trkpt>
<trkpt lat="46.52614005" lon="7.07987728"><ele>857.633301</ele><time>2009-09-12T09:16:33Z</time></trkpt>
<trkpt lat="46.52619151" lon="7.07996009"><ele>858.594482</ele><time>2009-09-12T09:16:40Z</time></trkpt>
<trkpt lat="46.52624541" lon="7.08005656"><ele>859.555908</ele><time>2009-09-12T09:16:47Z</time></trkpt>
<trkpt lat="46.52632596" lon="7.08020291"><ele>860.517334</ele><time>2009-09-12T09:16:56Z</time></trkpt>
<trkpt lat="46.52649326" lon="7.08064556"><ele>862.920654</ele><time>2009-09-12T09:17:11Z</time></trkpt>
<trkpt lat="46.52663961" lon="7.08088000"><ele>864.843262</ele><time>2009-09-12T09:17:20Z</time></trkpt>
<trkpt lat="46.52682820" lon="7.08115627"><ele>864.843262</ele><time>2009-09-12T09:17:35Z</time></trkpt>
<trkpt lat="46.52685570" lon="7.08104529"><ele>873.014404</ele><time>2009-09-12T09:17:48Z</time></trkpt>
<trkpt lat="46.53468900" lon="7.08756432"><ele>795.147461</ele><time>2009-09-12T09:23:23Z</time></trkpt>
<trkpt lat="46.53474776" lon="7.08753733"><ele>794.666748</ele><time>2009-09-12T09:23:27Z</time></trkpt>
<trkpt lat="46.53498162" lon="7.08730549"><ele>792.263672</ele><time>2009-09-12T09:23:37Z</time></trkpt>
<trkpt lat="46.53521094" lon="7.08696476"><ele>792.263672</ele><time>2009-09-12T09:23:45Z</time></trkpt>
<trkpt lat="46.53528320" lon="7.08688044"><ele>791.782959</ele><time>2009-09-12T09:23:47Z</time></trkpt>
<trkpt lat="46.53555821" lon="7.08670392"><ele>789.860352</ele><time>2009-09-12T09:23:53Z</time></trkpt>
<trkpt lat="46.53580363" lon="7.08675027"><ele>788.418457</ele><time>2009-09-12T09:23:59Z</time></trkpt>
<trkpt lat="46.53588443" lon="7.08695537"><ele>787.457031</ele><time>2009-09-12T09:24:03Z</time></trkpt>
<trkpt lat="46.53588183" lon="7.08709485"><ele>786.976318</ele><time>2009-09-12T09:24:05Z</time></trkpt>
<trkpt lat="46.53582961" lon="7.08751797"><ele>785.053955</ele><time>2009-09-12T09:24:11Z</time></trkpt>
<trkpt lat="46.53592466" lon="7.08785224"><ele>784.573242</ele><time>2009-09-12T09:24:17Z</time></trkpt>
<trkpt lat="46.53599733" lon="7.08793379"><ele>785.053955</ele><time>2009-09-12T09:24:20Z</time></trkpt>
<trkpt lat="46.53604830" lon="7.08799364"><ele>785.534424</ele><time>2009-09-12T09:24:23Z</time></trkpt>
<trkpt lat="46.53618610" lon="7.08793857"><ele>787.937744</ele><time>2009-09-12T09:24:33Z</time></trkpt>
<trkpt lat="46.53622901" lon="7.08794595"><ele>787.937744</ele><time>2009-09-12T09:24:35Z</time></trkpt>
<trkpt lat="46.53634720" lon="7.08798526"><ele>788.418457</ele><time>2009-09-12T09:24:38Z</time></trkpt>
<trkpt lat="46.53657426" lon="7.08820168"><ele>787.937744</ele><time>2009-09-12T09:24:45Z</time></trkpt>
<trkpt lat="46.53654224" lon="7.08836705"><ele>787.457031</ele><time>2009-09-12T09:24:49Z</time></trkpt>
<trkpt lat="46.53640453" lon="7.08863419"><ele>788.89917</ele><time>2009-09-12T09:24:57Z</time></trkpt>
<trkpt lat="46.53635063" lon="7.08894993"><ele>787.937744</ele><time>2009-09-12T09:25:06Z</time></trkpt>
<trkpt lat="46.53642414" lon="7.08946651"><ele>784.573242</ele><time>2009-09-12T09:25:21Z</time></trkpt>
<trkpt lat="46.53655423" lon="7.08968050"><ele>786.49585</ele><time>2009-09-12T09:25:35Z</time></trkpt>
<trkpt lat="46.53674844" lon="7.08991737"><ele>786.976318</ele><time>2009-09-12T09:25:50Z</time></trkpt>
<trkpt lat="46.53776248" lon="7.09168729"><ele>787.937744</ele><time>2009-09-12T09:26:13Z</time></trkpt>
<trkpt lat="46.53784538" lon="7.09165351"><ele>788.418457</ele><time>2009-09-12T09:26:49Z</time></trkpt>
<trkpt lat="46.53836086" lon="7.09234259"><ele>798.99292</ele><time>2009-09-12T09:27:55Z</time></trkpt>
<trkpt lat="46.53861165" lon="7.09263763"><ele>806.68335</ele><time>2009-09-12T09:28:14Z</time></trkpt>
<trkpt lat="46.53886504" lon="7.09296260"><ele>817.738525</ele><time>2009-09-12T09:28:34Z</time></trkpt>
<trkpt lat="46.53904282" lon="7.09316175"><ele>822.545166</ele><time>2009-09-12T09:28:48Z</time></trkpt>
<trkpt lat="46.53927122" lon="7.09339712"><ele>829.274414</ele><time>2009-09-12T09:29:07Z</time></trkpt>
<trkpt lat="46.53939310" lon="7.09364849"><ele>831.197266</ele><time>2009-09-12T09:29:22Z</time></trkpt>
<trkpt lat="46.53935370" lon="7.09383331"><ele>832.63916</ele><time>2009-09-12T09:29:31Z</time></trkpt>
<trkpt lat="46.53925739" lon="7.09379719"><ele>833.600342</ele><time>2009-09-12T09:29:37Z</time></trkpt>
<trkpt lat="46.53915681" lon="7.09362293"><ele>835.04248</ele><time>2009-09-12T09:29:47Z</time></trkpt>
<trkpt lat="46.53902345" lon="7.09344112"><ele>838.887695</ele><time>2009-09-12T09:29:59Z</time></trkpt>
<trkpt lat="46.53884836" lon="7.09327918"><ele>838.887695</ele><time>2009-09-12T09:30:15Z</time></trkpt>
<trkpt lat="46.53875892" lon="7.09319394"><ele>839.848877</ele><time>2009-09-12T09:30:23Z</time></trkpt>
<trkpt lat="46.53856630" lon="7.09305815"><ele>844.175049</ele><time>2009-09-12T09:30:39Z</time></trkpt>
<trkpt lat="46.53845700" lon="7.09299546"><ele>848.981445</ele><time>2009-09-12T09:30:47Z</time></trkpt>
<trkpt lat="46.53827051" lon="7.09297190"><ele>850.904053</ele><time>2009-09-12T09:30:59Z</time></trkpt>
<trkpt lat="46.53825827" lon="7.09297433"><ele>851.384766</ele><time>2009-09-12T09:31:00Z</time></trkpt>
<trkpt lat="46.53815551" lon="7.09286395"><ele>853.307373</ele><time>2009-09-12T09:31:09Z</time></trkpt>
<trkpt lat="46.53805291" lon="7.09276563"><ele>853.307373</ele><time>2009-09-12T09:31:17Z</time></trkpt>
<trkpt lat="46.53792526" lon="7.09263328"><ele>855.710693</ele><time>2009-09-12T09:31:28Z</time></trkpt>
<trkpt lat="46.53780590" lon="7.09256153"><ele>858.594482</ele><time>2009-09-12T09:31:39Z</time></trkpt>
<trkpt lat="46.53768461" lon="7.09250101"><ele>860.036621</ele><time>2009-09-12T09:31:48Z</time></trkpt>
<trkpt lat="46.53765477" lon="7.09250478"><ele>860.517334</ele><time>2009-09-12T09:31:51Z</time></trkpt>
<trkpt lat="46.53763524" lon="7.09248894"><ele>861.959473</ele><time>2009-09-12T09:31:53Z</time></trkpt>
<trkpt lat="46.53740122" lon="7.09237905"><ele>867.727051</ele><time>2009-09-12T09:32:08Z</time></trkpt>
<trkpt lat="46.53727775" lon="7.09232080"><ele>868.688477</ele><time>2009-09-12T09:32:16Z</time></trkpt>
<trkpt lat="46.53725898" lon="7.09231862"><ele>870.130371</ele><time>2009-09-12T09:32:17Z</time></trkpt>
<trkpt lat="46.53722755" lon="7.09234678"><ele>870.611084</ele><time>2009-09-12T09:32:19Z</time></trkpt>
<trkpt lat="46.53718933" lon="7.09234058"><ele>870.130371</ele><time>2009-09-12T09:32:26Z</time></trkpt>
<trkpt lat="46.53715362" lon="7.09229775"><ele>870.611084</ele><time>2009-09-12T09:32:31Z</time></trkpt>
<trkpt lat="46.53710190" lon="7.09227411"><ele>872.052979</ele><time>2009-09-12T09:32:35Z</time></trkpt>
<trkpt lat="46.53701180" lon="7.09220228"><ele>872.052979</ele><time>2009-09-12T09:32:43Z</time></trkpt>
<trkpt lat="46.53683586" lon="7.09207010"><ele>875.898193</ele><time>2009-09-12T09:32:56Z</time></trkpt>
<trkpt lat="46.53669245" lon="7.09197613"><ele>875.898193</ele><time>2009-09-12T09:33:07Z</time></trkpt>
<trkpt lat="46.53656236" lon="7.09187631"><ele>875.898193</ele><time>2009-09-12T09:33:17Z</time></trkpt>
<trkpt lat="46.53640998" lon="7.09175544"><ele>879.743652</ele><time>2009-09-12T09:33:29Z</time></trkpt>
<trkpt lat="46.53628768" lon="7.09166433"><ele>882.146973</ele><time>2009-09-12T09:33:39Z</time></trkpt>
<trkpt lat="46.53622407" lon="7.09160021"><ele>885.031006</ele><time>2009-09-12T09:33:47Z</time></trkpt>
<trkpt lat="46.53622323" lon="7.09159585"><ele>885.031006</ele><time>2009-09-12T09:33:57Z</time></trkpt>
<trkpt lat="46.53623027" lon="7.09164924"><ele>883.108154</ele><time>2009-09-12T09:34:05Z</time></trkpt>
<trkpt lat="46.53624846" lon="7.09163231"><ele>883.588867</ele><time>2009-09-12T09:34:09Z</time></trkpt>
<trkpt lat="46.53630394" lon="7.09162166"><ele>883.588867</ele><time>2009-09-12T09:34:16Z</time></trkpt>
<trkpt lat="46.53626950" lon="7.09155603"><ele>887.434082</ele><time>2009-09-12T09:34:24Z</time></trkpt>
<trkpt lat="46.53617252" lon="7.09166609"><ele>880.224365</ele><time>2009-09-12T09:35:09Z</time></trkpt>
<trkpt lat="46.53613136" lon="7.09159182"><ele>881.66626</ele><time>2009-09-12T09:35:18Z</time></trkpt>
<trkpt lat="46.53606783" lon="7.09151370"><ele>886.953369</ele><time>2009-09-12T09:35:26Z</time></trkpt>
<trkpt lat="46.53600848" lon="7.09146341"><ele>888.876221</ele><time>2009-09-12T09:35:34Z</time></trkpt>
<trkpt lat="46.53592693" lon="7.09140742"><ele>889.356689</ele><time>2009-09-12T09:35:44Z</time></trkpt>
<trkpt lat="46.53584152" lon="7.09135160"><ele>890.798584</ele><time>2009-09-12T09:35:53Z</time></trkpt>
<trkpt lat="46.53578133" lon="7.09132017"><ele>891.279297</ele><time>2009-09-12T09:35:57Z</time></trkpt>
<trkpt lat="46.53561319" lon="7.09105019"><ele>894.644043</ele><time>2009-09-12T09:36:06Z</time></trkpt>
<trkpt lat="46.53558914" lon="7.09102705"><ele>895.605469</ele><time>2009-09-12T09:36:07Z</time></trkpt>
<trkpt lat="46.53549568" lon="7.09113593"><ele>895.605469</ele><time>2009-09-12T09:36:12Z</time></trkpt>
<trkpt lat="46.53570699" lon="7.09153826"><ele>894.644043</ele><time>2009-09-12T09:36:20Z</time></trkpt>
<trkpt lat="46.53582592" lon="7.09173976"><ele>896.086182</ele><time>2009-09-12T09:36:23Z</time></trkpt>
<trkpt lat="46.53610982" lon="7.09203925"><ele>899.450684</ele><time>2009-09-12T09:36:30Z</time></trkpt>
<trkpt lat="46.53635843" lon="7.09216942"><ele>898.008789</ele><time>2009-09-12T09:36:40Z</time></trkpt>
<trkpt lat="46.53659530" lon="7.09236355"><ele>903.295898</ele><time>2009-09-12T09:37:00Z</time></trkpt>
<trkpt lat="46.53656965" lon="7.09235650"><ele>904.257324</ele><time>2009-09-12T09:37:03Z</time></trkpt>
<trkpt lat="46.53629992" lon="7.09218283"><ele>902.815186</ele><time>2009-09-12T09:37:17Z</time></trkpt>
<trkpt lat="46.53606816" lon="7.09206532"><ele>902.334473</ele><time>2009-09-12T09:37:24Z</time></trkpt>
<trkpt lat="46.53601192" lon="7.09199960"><ele>901.854004</ele><time>2009-09-12T09:37:28Z</time></trkpt>
<trkpt lat="46.53606204" lon="7.09195049"><ele>901.373291</ele><time>2009-09-12T09:37:34Z</time></trkpt>
<trkpt lat="46.53604570" lon="7.09195836"><ele>903.295898</ele><time>2009-09-12T09:37:41Z</time></trkpt>
<trkpt lat="46.53599968" lon="7.09192869"><ele>909.063965</ele><time>2009-09-12T09:38:58Z</time></trkpt>
<trkpt lat="46.53604478" lon="7.09197404"><ele>898.969971</ele><time>2009-09-12T09:41:55Z</time></trkpt>
<trkpt lat="46.53614771" lon="7.09203715"><ele>900.892578</ele><time>2009-09-12T09:42:02Z</time></trkpt>
<trkpt lat="46.53637729" lon="7.09218895"><ele>901.854004</ele><time>2009-09-12T09:42:13Z</time></trkpt>
<trkpt lat="46.53700920" lon="7.09289655"><ele>895.124756</ele><time>2009-09-12T09:42:29Z</time></trkpt>
<trkpt lat="46.53707298" lon="7.09315203"><ele>895.124756</ele><time>2009-09-12T09:42:32Z</time></trkpt>
<trkpt lat="46.53708740" lon="7.09345453"><ele>895.605469</ele><time>2009-09-12T09:42:35Z</time></trkpt>
<trkpt lat="46.53721271" lon="7.09373784"><ele>895.605469</ele><time>2009-09-12T09:42:39Z</time></trkpt>
<trkpt lat="46.53859472" lon="7.09538606"><ele>893.202148</ele><time>2009-09-12T09:43:02Z</time></trkpt>
<trkpt lat="46.54116595" lon="7.09683864"><ele>892.72168</ele><time>2009-09-12T09:43:32Z</time></trkpt>
<trkpt lat="46.54162729" lon="7.09680076"><ele>890.318115</ele><time>2009-09-12T09:43:37Z</time></trkpt>
<trkpt lat="46.54179853" lon="7.09685608"><ele>889.837402</ele><time>2009-09-12T09:43:39Z</time></trkpt>
<trkpt lat="46.54225426" lon="7.09719094"><ele>885.031006</ele><time>2009-09-12T09:43:59Z</time></trkpt>
<trkpt lat="46.54234814" lon="7.09735740"><ele>886.4729</ele><time>2009-09-12T09:44:15Z</time></trkpt>
<trkpt lat="46.54237680" lon="7.09738431"><ele>888.395508</ele><time>2009-09-12T09:44:25Z</time></trkpt>
<trkpt lat="46.54240790" lon="7.09739705"><ele>887.434082</ele><time>2009-09-12T09:44:30Z</time></trkpt>
<trkpt lat="46.54243665" lon="7.09739403"><ele>887.914795</ele><time>2009-09-12T09:44:33Z</time></trkpt>
<trkpt lat="46.54245073" lon="7.09741515"><ele>889.356689</ele><time>2009-09-12T09:44:36Z</time></trkpt>
<trkpt lat="46.54269942" lon="7.09740434"><ele>888.395508</ele><time>2009-09-12T09:44:55Z</time></trkpt>
<trkpt lat="46.54291542" lon="7.09749335"><ele>883.108154</ele><time>2009-09-12T09:45:10Z</time></trkpt>
<trkpt lat="46.54309270" lon="7.09754884"><ele>883.588867</ele><time>2009-09-12T09:45:24Z</time></trkpt>
<trkpt lat="46.54346586" lon="7.09768371"><ele>879.262939</ele><time>2009-09-12T09:45:42Z</time></trkpt>
<trkpt lat="46.54379980" lon="7.09778597"><ele>877.340576</ele><time>2009-09-12T09:46:02Z</time></trkpt>
<trkpt lat="46.54521449" lon="7.09847664"><ele>875.41748</ele><time>2009-09-12T09:46:32Z</time></trkpt>
<trkpt lat="46.54541574" lon="7.09864553"><ele>875.41748</ele><time>2009-09-12T09:46:35Z</time></trkpt>
<trkpt lat="46.54778916" lon="7.09912154"><ele>871.572266</ele><time>2009-09-12T09:47:06Z</time></trkpt>
<trkpt lat="46.54904461" lon="7.09949219"><ele>868.207764</ele><time>2009-09-12T09:47:21Z</time></trkpt>
<trkpt lat="46.54963980" lon="7.09970735"><ele>862.439941</ele><time>2009-09-12T09:47:29Z</time></trkpt>
<trkpt lat="46.54971524" lon="7.09973954"><ele>859.555908</ele><time>2009-09-12T09:47:30Z</time></trkpt>
<trkpt lat="46.54983955" lon="7.10028503"><ele>855.22998</ele><time>2009-09-12T09:47:40Z</time></trkpt>
<trkpt lat="46.54989160" lon="7.10048972"><ele>846.097656</ele><time>2009-09-12T09:47:47Z</time></trkpt>
<trkpt lat="46.55002780" lon="7.10056113"><ele>838.406982</ele><time>2009-09-12T09:47:57Z</time></trkpt>
<trkpt lat="46.55003836" lon="7.10055426"><ele>836.003662</ele><time>2009-09-12T09:48:24Z</time></trkpt>
<trkpt lat="46.55004364" lon="7.10051604"><ele>839.368164</ele><time>2009-09-12T09:50:28Z</time></trkpt>
<trkpt lat="46.55010408" lon="7.10054529"><ele>838.887695</ele><time>2009-09-12T09:50:52Z</time></trkpt>
<trkpt lat="46.55011556" lon="7.10061511"><ele>837.445557</ele><time>2009-09-12T09:50:57Z</time></trkpt>
<trkpt lat="46.55007876" lon="7.10063615"><ele>837.445557</ele><time>2009-09-12T09:51:00Z</time></trkpt>
<trkpt lat="46.55003250" lon="7.10060623"><ele>836.003662</ele><time>2009-09-12T09:51:07Z</time></trkpt>
<trkpt lat="46.55005613" lon="7.10061427"><ele>834.081055</ele><time>2009-09-12T09:51:15Z</time></trkpt>
<trkpt lat="46.55008354" lon="7.10063556"><ele>840.32959</ele><time>2009-09-12T09:51:28Z</time></trkpt>
<trkpt lat="46.55014808" lon="7.10081368"><ele>830.716553</ele><time>2009-09-12T09:52:45Z</time></trkpt>
<trkpt lat="46.55028580" lon="7.10070597"><ele>831.197266</ele><time>2009-09-12T09:52:56Z</time></trkpt>
<trkpt lat="46.55049560" lon="7.10067144"><ele>829.755127</ele><time>2009-09-12T09:53:03Z</time></trkpt>
<trkpt lat="46.55058294" lon="7.10064168"><ele>829.274414</ele><time>2009-09-12T09:53:05Z</time></trkpt>
<trkpt lat="46.55071436" lon="7.10062617"><ele>827.832275</ele><time>2009-09-12T09:53:08Z</time></trkpt>
<trkpt lat="46.55099155" lon="7.10084561"><ele>823.987061</ele><time>2009-09-12T09:53:15Z</time></trkpt>
<trkpt lat="46.55145759" lon="7.10132782"><ele>823.987061</ele><time>2009-09-12T09:53:28Z</time></trkpt>
<trkpt lat="46.55175347" lon="7.10160535"><ele>823.987061</ele><time>2009-09-12T09:53:35Z</time></trkpt>
<trkpt lat="46.55214641" lon="7.10172982"><ele>821.58374</ele><time>2009-09-12T09:53:42Z</time></trkpt>
<trkpt lat="46.55398004" lon="7.10274772"><ele>818.219238</ele><time>2009-09-12T09:54:12Z</time></trkpt>
<trkpt lat="46.55440031" lon="7.10283833"><ele>816.777344</ele><time>2009-09-12T09:54:19Z</time></trkpt>
<trkpt lat="46.55552994" lon="7.10288669"><ele>813.412842</ele><time>2009-09-12T09:54:35Z</time></trkpt>
<trkpt lat="46.55590964" lon="7.10284872"><ele>808.605957</ele><time>2009-09-12T09:54:44Z</time></trkpt>
<trkpt lat="46.55628188" lon="7.10291485"><ele>808.605957</ele><time>2009-09-12T09:54:49Z</time></trkpt>
<trkpt lat="46.55713524" lon="7.10230809"><ele>788.89917</ele><time>2009-09-12T09:55:17Z</time></trkpt>
<trkpt lat="46.55655513" lon="7.10019912"><ele>767.269531</ele><time>2009-09-12T09:55:40Z</time></trkpt>
<trkpt lat="46.55653434" lon="7.10012561"><ele>766.788818</ele><time>2009-09-12T09:55:41Z</time></trkpt>
<trkpt lat="46.55658748" lon="7.09995478"><ele>763.904541</ele><time>2009-09-12T09:55:45Z</time></trkpt>
<trkpt lat="46.55661916" lon="7.09994900"><ele>763.904541</ele><time>2009-09-12T09:55:46Z</time></trkpt>
<trkpt lat="46.55680809" lon="7.09994062"><ele>761.982178</ele><time>2009-09-12T09:55:54Z</time></trkpt>
<trkpt lat="46.55698981" lon="7.09990005"><ele>761.020752</ele><time>2009-09-12T09:56:01Z</time></trkpt>
<trkpt lat="46.55721746" lon="7.09986057"><ele>759.578857</ele><time>2009-09-12T09:56:11Z</time></trkpt>
<trkpt lat="46.55740069" lon="7.09982486"><ele>759.578857</ele><time>2009-09-12T09:56:19Z</time></trkpt>
<trkpt lat="46.55762139" lon="7.09980601"><ele>759.098145</ele><time>2009-09-12T09:56:28Z</time></trkpt>
<trkpt lat="46.55784166" lon="7.09981321"><ele>758.617432</ele><time>2009-09-12T09:56:37Z</time></trkpt>
<trkpt lat="46.55812061" lon="7.09982403"><ele>757.65625</ele><time>2009-09-12T09:56:46Z</time></trkpt>
<trkpt lat="46.55851230" lon="7.09986183"><ele>757.175537</ele><time>2009-09-12T09:56:57Z</time></trkpt>
<trkpt lat="46.55885587" lon="7.09990206"><ele>759.578857</ele><time>2009-09-12T09:57:08Z</time></trkpt>
<trkpt lat="46.55912066" lon="7.09994623"><ele>760.059326</ele><time>2009-09-12T09:57:18Z</time></trkpt>
<trkpt lat="46.55948427" lon="7.10011622"><ele>761.501465</ele><time>2009-09-12T09:57:31Z</time></trkpt>
<trkpt lat="46.55975031" lon="7.10024245"><ele>761.982178</ele><time>2009-09-12T09:57:40Z</time></trkpt>
<trkpt lat="46.56003621" lon="7.10035225"><ele>762.943359</ele><time>2009-09-12T09:57:49Z</time></trkpt>
<trkpt lat="46.56016152" lon="7.10047807"><ele>763.424072</ele><time>2009-09-12T09:57:56Z</time></trkpt>
<trkpt lat="46.56026353" lon="7.10064570"><ele>763.904541</ele><time>2009-09-12T09:58:04Z</time></trkpt>
<trkpt lat="46.56035615" lon="7.10085802"><ele>764.866211</ele><time>2009-09-12T09:58:13Z</time></trkpt>
<trkpt lat="46.56042723" lon="7.10113487"><ele>765.827637</ele><time>2009-09-12T09:58:22Z</time></trkpt>
<trkpt lat="46.56041960" lon="7.10134635"><ele>767.269531</ele><time>2009-09-12T09:58:30Z</time></trkpt>
<trkpt lat="46.56044709" lon="7.10142413"><ele>767.75</ele><time>2009-09-12T09:58:33Z</time></trkpt>
<trkpt lat="46.56041005" lon="7.10158532"><ele>771.114746</ele><time>2009-09-12T09:58:47Z</time></trkpt>
<trkpt lat="46.56043184" lon="7.10158758"><ele>772.075928</ele><time>2009-09-12T10:00:14Z</time></trkpt>
<trkpt lat="46.56041156" lon="7.10171155"><ele>774.479248</ele><time>2009-09-12T10:00:37Z</time></trkpt>
<trkpt lat="46.56036520" lon="7.10195362"><ele>775.44043</ele><time>2009-09-12T10:00:49Z</time></trkpt>
<trkpt lat="46.56033788" lon="7.10214548"><ele>776.882568</ele><time>2009-09-12T10:00:58Z</time></trkpt>
<trkpt lat="46.56031248" lon="7.10231203"><ele>777.363281</ele><time>2009-09-12T10:01:06Z</time></trkpt>
<trkpt lat="46.56030879" lon="7.10237330"><ele>777.84375</ele><time>2009-09-12T10:01:09Z</time></trkpt>
<trkpt lat="46.56028080" lon="7.10250414"><ele>776.401855</ele><time>2009-09-12T10:01:17Z</time></trkpt>
<trkpt lat="46.56025062" lon="7.10255217"><ele>776.401855</ele><time>2009-09-12T10:01:20Z</time></trkpt>
<trkpt lat="46.56019455" lon="7.10277420"><ele>779.766357</ele><time>2009-09-12T10:01:32Z</time></trkpt>
<trkpt lat="46.56012892" lon="7.10292667"><ele>783.131104</ele><time>2009-09-12T10:01:41Z</time></trkpt>
<trkpt lat="46.56010017" lon="7.10296565"><ele>784.092529</ele><time>2009-09-12T10:01:43Z</time></trkpt>
<trkpt lat="46.56002825" lon="7.10294637"><ele>785.053955</ele><time>2009-09-12T10:01:47Z</time></trkpt>
<trkpt lat="46.55979557" lon="7.10278410"><ele>784.573242</ele><time>2009-09-12T10:01:58Z</time></trkpt>
<trkpt lat="46.55954545" lon="7.10272006"><ele>785.534424</ele><time>2009-09-12T10:02:08Z</time></trkpt>
<trkpt lat="46.55924337" lon="7.10267454"><ele>784.573242</ele><time>2009-09-12T10:02:18Z</time></trkpt>
<trkpt lat="46.55897146" lon="7.10257036"><ele>786.015137</ele><time>2009-09-12T10:02:26Z</time></trkpt>
<trkpt lat="46.55880910" lon="7.10262476"><ele>787.457031</ele><time>2009-09-12T10:02:32Z</time></trkpt>
<trkpt lat="46.55857374" lon="7.10283933"><ele>788.89917</ele><time>2009-09-12T10:02:42Z</time></trkpt>
<trkpt lat="46.55831734" lon="7.10311116"><ele>788.418457</ele><time>2009-09-12T10:02:52Z</time></trkpt>
<trkpt lat="46.55818935" lon="7.10330629"><ele>790.341064</ele><time>2009-09-12T10:02:59Z</time></trkpt>
<trkpt lat="46.55817158" lon="7.10348843"><ele>791.782959</ele><time>2009-09-12T10:03:04Z</time></trkpt>
<trkpt lat="46.55821458" lon="7.10380107"><ele>794.186279</ele><time>2009-09-12T10:03:14Z</time></trkpt>
<trkpt lat="46.55827191" lon="7.10412277"><ele>798.99292</ele><time>2009-09-12T10:03:24Z</time></trkpt>
<trkpt lat="46.55830912" lon="7.10436316"><ele>799.473633</ele><time>2009-09-12T10:03:33Z</time></trkpt>
<trkpt lat="46.55837509" lon="7.10455595"><ele>803.318848</ele><time>2009-09-12T10:03:44Z</time></trkpt>
<trkpt lat="46.55844357" lon="7.10465267"><ele>806.202637</ele><time>2009-09-12T10:03:52Z</time></trkpt>
<trkpt lat="46.55845715" lon="7.10468737"><ele>807.164063</ele><time>2009-09-12T10:03:55Z</time></trkpt>
<trkpt lat="46.55852571" lon="7.10481243"><ele>810.047852</ele><time>2009-09-12T10:04:03Z</time></trkpt>
<trkpt lat="46.55853351" lon="7.10484026"><ele>810.528564</ele><time>2009-09-12T10:04:05Z</time></trkpt>
<trkpt lat="46.55850928" lon="7.10488544"><ele>811.970703</ele><time>2009-09-12T10:04:09Z</time></trkpt>
<trkpt lat="46.55849260" lon="7.10489198"><ele>812.451416</ele><time>2009-09-12T10:04:18Z</time></trkpt>
<trkpt lat="46.55845270" lon="7.10492936"><ele>814.854736</ele><time>2009-09-12T10:04:37Z</time></trkpt>
<trkpt lat="46.55836604" lon="7.10500178"><ele>811.009277</ele><time>2009-09-12T10:04:57Z</time></trkpt>
<trkpt lat="46.55832354" lon="7.10512700"><ele>813.412842</ele><time>2009-09-12T10:05:08Z</time></trkpt>
<trkpt lat="46.55850459" lon="7.10540101"><ele>812.451416</ele><time>2009-09-12T10:05:26Z</time></trkpt>
<trkpt lat="46.55854097" lon="7.10557720"><ele>814.374023</ele><time>2009-09-12T10:05:39Z</time></trkpt>
<trkpt lat="46.55854709" lon="7.10559614"><ele>813.893311</ele><time>2009-09-12T10:05:40Z</time></trkpt>
<trkpt lat="46.55868891" lon="7.10585682"><ele>821.103271</ele><time>2009-09-12T10:05:57Z</time></trkpt>
<trkpt lat="46.55872880" lon="7.10585170"><ele>823.987061</ele><time>2009-09-12T10:06:01Z</time></trkpt>
<trkpt lat="46.55876602" lon="7.10602781"><ele>803.799561</ele><time>2009-09-12T10:07:16Z</time></trkpt>
<trkpt lat="46.55879787" lon="7.10602320"><ele>808.125488</ele><time>2009-09-12T10:07:29Z</time></trkpt>
<trkpt lat="46.55873719" lon="7.10595262"><ele>811.48999</ele><time>2009-09-12T10:07:39Z</time></trkpt>
<trkpt lat="46.55881514" lon="7.10584634"><ele>815.816162</ele><time>2009-09-12T10:07:49Z</time></trkpt>
<trkpt lat="46.55874515" lon="7.10601725"><ele>817.738525</ele><time>2009-09-12T10:08:04Z</time></trkpt>
<trkpt lat="46.55873459" lon="7.10613149"><ele>823.025879</ele><time>2009-09-12T10:08:11Z</time></trkpt>
<trkpt lat="46.55833745" lon="7.10666534"><ele>832.63916</ele><time>2009-09-12T10:08:58Z</time></trkpt>
<trkpt lat="46.55792138" lon="7.10718770"><ele>833.119629</ele><time>2009-09-12T10:09:51Z</time></trkpt>
<trkpt lat="46.55775734" lon="7.10734687"><ele>848.020264</ele><time>2009-09-12T10:10:48Z</time></trkpt>
<trkpt lat="46.55758250" lon="7.10753085"><ele>847.539551</ele><time>2009-09-12T10:11:07Z</time></trkpt>
<trkpt lat="46.55747395" lon="7.10765775"><ele>851.865479</ele><time>2009-09-12T10:11:27Z</time></trkpt>
<trkpt lat="46.55749968" lon="7.10766287"><ele>856.191162</ele><time>2009-09-12T10:11:41Z</time></trkpt>
<trkpt lat="46.55745802" lon="7.10772229"><ele>857.152588</ele><time>2009-09-12T10:13:42Z</time></trkpt>
<trkpt lat="46.55737630" lon="7.10800627"><ele>858.594482</ele><time>2009-09-12T10:14:21Z</time></trkpt>
<trkpt lat="46.55734621" lon="7.10809252"><ele>858.594482</ele><time>2009-09-12T10:14:31Z</time></trkpt>
<trkpt lat="46.55730380" lon="7.10813317"><ele>862.439941</ele><time>2009-09-12T10:14:45Z</time></trkpt>
<trkpt lat="46.55715846" lon="7.10858094"><ele>862.439941</ele><time>2009-09-12T10:15:24Z</time></trkpt>
<trkpt lat="46.55724127" lon="7.10865939"><ele>877.340576</ele><time>2009-09-12T10:15:36Z</time></trkpt>
<trkpt lat="46.55726356" lon="7.10871689"><ele>882.627686</ele><time>2009-09-12T10:16:31Z</time></trkpt>
<trkpt lat="46.55729768" lon="7.10881052"><ele>882.627686</ele><time>2009-09-12T10:16:36Z</time></trkpt>
<trkpt lat="46.55744327" lon="7.10898804"><ele>883.108154</ele><time>2009-09-12T10:16:48Z</time></trkpt>
<trkpt lat="46.55751485" lon="7.10903641"><ele>881.185791</ele><time>2009-09-12T10:16:53Z</time></trkpt>
<trkpt lat="46.55752818" lon="7.10905585"><ele>879.743652</ele><time>2009-09-12T10:16:55Z</time></trkpt>
<trkpt lat="46.55766380" lon="7.10911034"><ele>878.782471</ele><time>2009-09-12T10:17:06Z</time></trkpt>
<trkpt lat="46.55777922" lon="7.10911855"><ele>881.66626</ele><time>2009-09-12T10:17:15Z</time></trkpt>
<trkpt lat="46.55791274" lon="7.10906013"><ele>884.06958</ele><time>2009-09-12T10:17:26Z</time></trkpt>
<trkpt lat="46.55802003" lon="7.10894144"><ele>885.511475</ele><time>2009-09-12T10:17:35Z</time></trkpt>
<trkpt lat="46.55810611" lon="7.10884396"><ele>885.031006</ele><time>2009-09-12T10:17:43Z</time></trkpt>
<trkpt lat="46.55820686" lon="7.10870214"><ele>885.511475</ele><time>2009-09-12T10:17:54Z</time></trkpt>
<trkpt lat="46.55831432" lon="7.10856610"><ele>889.837402</ele><time>2009-09-12T10:18:04Z</time></trkpt>
<trkpt lat="46.55846838" lon="7.10842361"><ele>893.202148</ele><time>2009-09-12T10:18:17Z</time></trkpt>
<trkpt lat="46.55867365" lon="7.10830802"><ele>892.72168</ele><time>2009-09-12T10:18:34Z</time></trkpt>
<trkpt lat="46.55893031" lon="7.10825941"><ele>893.202148</ele><time>2009-09-12T10:18:48Z</time></trkpt>
<trkpt lat="46.55920708" lon="7.10818187"><ele>898.008789</ele><time>2009-09-12T10:19:06Z</time></trkpt>
<trkpt lat="46.55954160" lon="7.10811105"><ele>900.892578</ele><time>2009-09-12T10:19:27Z</time></trkpt>
<trkpt lat="46.56007335" lon="7.10835437"><ele>904.737793</ele><time>2009-09-12T10:20:00Z</time></trkpt>
<trkpt lat="46.56031525" lon="7.10849921"><ele>907.141113</ele><time>2009-09-12T10:20:15Z</time></trkpt>
<trkpt lat="46.56060149" lon="7.10864975"><ele>912.428467</ele><time>2009-09-12T10:20:33Z</time></trkpt>
<trkpt lat="46.56079872" lon="7.10878051"><ele>915.3125</ele><time>2009-09-12T10:20:47Z</time></trkpt>
<trkpt lat="46.56101497" lon="7.10887120"><ele>920.599609</ele><time>2009-09-12T10:21:02Z</time></trkpt>
<trkpt lat="46.56161017" lon="7.10903456"><ele>920.118896</ele><time>2009-09-12T10:21:33Z</time></trkpt>
<trkpt lat="46.56163238" lon="7.10903683"><ele>918.196289</ele><time>2009-09-12T10:21:37Z</time></trkpt>
<trkpt lat="46.56176196" lon="7.10906968"><ele>917.715576</ele><time>2009-09-12T10:21:44Z</time></trkpt>
<trkpt lat="46.56198140" lon="7.10918418"><ele>917.235107</ele><time>2009-09-12T10:21:59Z</time></trkpt>
<trkpt lat="46.56229421" lon="7.10933623"><ele>919.638428</ele><time>2009-09-12T10:22:20Z</time></trkpt>
<trkpt lat="46.56249781" lon="7.10947487"><ele>923.483643</ele><time>2009-09-12T10:22:37Z</time></trkpt>
<trkpt lat="46.56302721" lon="7.10959649"><ele>928.290283</ele><time>2009-09-12T10:23:08Z</time></trkpt>
<trkpt lat="46.56418023" lon="7.10989371"><ele>924.925781</ele><time>2009-09-12T10:23:31Z</time></trkpt>
<trkpt lat="46.56456605" lon="7.11010007"><ele>919.157715</ele><time>2009-09-12T10:23:35Z</time></trkpt>
<trkpt lat="46.56487609" lon="7.11005749"><ele>915.793213</ele><time>2009-09-12T10:23:38Z</time></trkpt>
<trkpt lat="46.56534690" lon="7.11009588"><ele>906.179688</ele><time>2009-09-12T10:24:05Z</time></trkpt>
<trkpt lat="46.56536576" lon="7.11008297"><ele>904.257324</ele><time>2009-09-12T10:24:12Z</time></trkpt>
<trkpt lat="46.56539133" lon="7.11008733"><ele>903.295898</ele><time>2009-09-12T10:24:21Z</time></trkpt>
<trkpt lat="46.56542134" lon="7.11009203"><ele>906.179688</ele><time>2009-09-12T10:24:37Z</time></trkpt>
<trkpt lat="46.56545260" lon="7.11011332"><ele>904.257324</ele><time>2009-09-12T10:24:53Z</time></trkpt>
<trkpt lat="46.56553307" lon="7.11010544"><ele>904.257324</ele><time>2009-09-12T10:25:00Z</time></trkpt>
<trkpt lat="46.56558009" lon="7.11012681"><ele>904.257324</ele><time>2009-09-12T10:25:04Z</time></trkpt>
<trkpt lat="46.56582392" lon="7.11019319"><ele>904.257324</ele><time>2009-09-12T10:25:15Z</time></trkpt>
<trkpt lat="46.56605744" lon="7.11023309"><ele>904.737793</ele><time>2009-09-12T10:25:26Z</time></trkpt>
<trkpt lat="46.56613120" lon="7.11027157"><ele>904.737793</ele><time>2009-09-12T10:25:33Z</time></trkpt>
<trkpt lat="46.56623472" lon="7.11042152"><ele>907.141113</ele><time>2009-09-12T10:25:43Z</time></trkpt>
<trkpt lat="46.56638978" lon="7.11049159"><ele>909.063965</ele><time>2009-09-12T10:25:52Z</time></trkpt>
<trkpt lat="46.56647637" lon="7.11048815"><ele>910.025146</ele><time>2009-09-12T10:25:55Z</time></trkpt>
<trkpt lat="46.56669094" lon="7.11044256"><ele>912.428467</ele><time>2009-09-12T10:25:59Z</time></trkpt>
<trkpt lat="46.56693603" lon="7.11049955"><ele>914.831787</ele><time>2009-09-12T10:26:04Z</time></trkpt>
<trkpt lat="46.56714600" lon="7.11054155"><ele>917.715576</ele><time>2009-09-12T10:26:11Z</time></trkpt>
<trkpt lat="46.56743559" lon="7.11047818"><ele>921.560791</ele><time>2009-09-12T10:26:22Z</time></trkpt>
<trkpt lat="46.56755847" lon="7.11049519"><ele>922.522217</ele><time>2009-09-12T10:26:27Z</time></trkpt>
<trkpt lat="46.56758328" lon="7.11066367"><ele>923.483643</ele><time>2009-09-12T10:26:32Z</time></trkpt>
<trkpt lat="46.56745864" lon="7.11100624"><ele>929.251465</ele><time>2009-09-12T10:26:43Z</time></trkpt>
<trkpt lat="46.56729251" lon="7.11121428"><ele>931.174316</ele><time>2009-09-12T10:26:52Z</time></trkpt>
<trkpt lat="46.56709403" lon="7.11136331"><ele>934.058105</ele><time>2009-09-12T10:27:01Z</time></trkpt>
<trkpt lat="46.56700987" lon="7.11142559"><ele>935.019531</ele><time>2009-09-12T10:27:05Z</time></trkpt>
<trkpt lat="46.56698213" lon="7.11152432"><ele>935.980713</ele><time>2009-09-12T10:27:08Z</time></trkpt>
<trkpt lat="46.56707265" lon="7.11159004"><ele>935.980713</ele><time>2009-09-12T10:27:12Z</time></trkpt>
<trkpt lat="46.56729192" lon="7.11172700"><ele>938.864746</ele><time>2009-09-12T10:27:20Z</time></trkpt>
<trkpt lat="46.56749234" lon="7.11185683"><ele>940.787354</ele><time>2009-09-12T10:27:28Z</time></trkpt>
<trkpt lat="46.56775150" lon="7.11194124"><ele>944.1521</ele><time>2009-09-12T10:27:38Z</time></trkpt>
<trkpt lat="46.56806935" lon="7.11213830"><ele>946.55542</ele><time>2009-09-12T10:27:52Z</time></trkpt>
<trkpt lat="46.56833916" lon="7.11225296"><ele>948.958496</ele><time>2009-09-12T10:28:05Z</time></trkpt>
<trkpt lat="46.56836296" lon="7.11224550"><ele>949.439209</ele><time>2009-09-12T10:28:06Z</time></trkpt>
<trkpt lat="46.56866999" lon="7.11207359"><ele>953.765137</ele><time>2009-09-12T10:28:20Z</time></trkpt>
<trkpt lat="46.56905975" lon="7.11228549"><ele>952.803711</ele><time>2009-09-12T10:28:35Z</time></trkpt>
<trkpt lat="46.56928036" lon="7.11247953"><ele>954.24585</ele><time>2009-09-12T10:28:46Z</time></trkpt>
<trkpt lat="46.56948522" lon="7.11245874"><ele>956.168457</ele><time>2009-09-12T10:28:56Z</time></trkpt>
<trkpt lat="46.56943769" lon="7.11262663"><ele>959.05249</ele><time>2009-09-12T10:29:01Z</time></trkpt>
<trkpt lat="46.56938262" lon="7.11277943"><ele>961.936523</ele><time>2009-09-12T10:29:06Z</time></trkpt>
<trkpt lat="46.56911373" lon="7.11287289"><ele>967.223633</ele><time>2009-09-12T10:29:15Z</time></trkpt>
<trkpt lat="46.56886521" lon="7.11278580"><ele>972.991699</ele><time>2009-09-12T10:29:24Z</time></trkpt>
<trkpt lat="46.56876890" lon="7.11273316"><ele>974.914307</ele><time>2009-09-12T10:29:28Z</time></trkpt>
<trkpt lat="46.56837034" lon="7.11295185"><ele>980.682129</ele><time>2009-09-12T10:29:41Z</time></trkpt>
<trkpt lat="46.56844192" lon="7.11304531"><ele>981.643311</ele><time>2009-09-12T10:29:46Z</time></trkpt>
<trkpt lat="46.56872925" lon="7.11312418"><ele>982.124023</ele><time>2009-09-12T10:29:55Z</time></trkpt>
<trkpt lat="46.56901969" lon="7.11341579"><ele>982.124023</ele><time>2009-09-12T10:30:09Z</time></trkpt>
<trkpt lat="46.56939503" lon="7.11366372"><ele>982.124023</ele><time>2009-09-12T10:30:24Z</time></trkpt>
<trkpt lat="46.56978127" lon="7.11373623"><ele>985.488525</ele><time>2009-09-12T10:30:39Z</time></trkpt>
<trkpt lat="46.56988545" lon="7.11373891"><ele>985.488525</ele><time>2009-09-12T10:30:43Z</time></trkpt>
<trkpt lat="46.56970172" lon="7.11387897"><ele>991.737305</ele><time>2009-09-12T10:30:52Z</time></trkpt>
<trkpt lat="46.56915958" lon="7.11402716"><ele>994.621094</ele><time>2009-09-12T10:31:08Z</time></trkpt>
<trkpt lat="46.56897887" lon="7.11403588"><ele>999.908447</ele><time>2009-09-12T10:31:14Z</time></trkpt>
<trkpt lat="46.56891223" lon="7.11434894"><ele>1007.118408</ele><time>2009-09-12T10:31:22Z</time></trkpt>
<trkpt lat="46.56879212" lon="7.11466092"><ele>1012.88623</ele><time>2009-09-12T10:31:31Z</time></trkpt>
<trkpt lat="46.56866295" lon="7.11489033"><ele>1016.250732</ele><time>2009-09-12T10:31:38Z</time></trkpt>
<trkpt lat="46.56854519" lon="7.11498572"><ele>1016.731445</ele><time>2009-09-12T10:31:43Z</time></trkpt>
<trkpt lat="46.56872381" lon="7.11513475"><ele>1020.576904</ele><time>2009-09-12T10:31:53Z</time></trkpt>
<trkpt lat="46.56902203" lon="7.11498312"><ele>1023.941406</ele><time>2009-09-12T10:32:03Z</time></trkpt>
<trkpt lat="46.56926611" lon="7.11507549"><ele>1027.786621</ele><time>2009-09-12T10:32:12Z</time></trkpt>
<trkpt lat="46.56946485" lon="7.11504229"><ele>1030.670654</ele><time>2009-09-12T10:32:20Z</time></trkpt>
<trkpt lat="46.56966995" lon="7.11490391"><ele>1032.593262</ele><time>2009-09-12T10:32:29Z</time></trkpt>
<trkpt lat="46.56982376" lon="7.11486527"><ele>1034.035156</ele><time>2009-09-12T10:32:35Z</time></trkpt>
<trkpt lat="46.57004848" lon="7.11503576"><ele>1036.919189</ele><time>2009-09-12T10:32:44Z</time></trkpt>
<trkpt lat="46.57030514" lon="7.11519887"><ele>1037.880615</ele><time>2009-09-12T10:32:53Z</time></trkpt>
<trkpt lat="46.57043296" lon="7.11533206"><ele>1038.842041</ele><time>2009-09-12T10:32:58Z</time></trkpt>
<trkpt lat="46.57019743" lon="7.11536609"><ele>1039.32251</ele><time>2009-09-12T10:33:04Z</time></trkpt>
<trkpt lat="46.57009492" lon="7.11539852"><ele>1040.764404</ele><time>2009-09-12T10:33:07Z</time></trkpt>
<trkpt lat="46.56939704" lon="7.11678321"><ele>1057.106934</ele><time>2009-09-12T10:33:48Z</time></trkpt>
<trkpt lat="46.56938883" lon="7.11681741"><ele>1057.106934</ele><time>2009-09-12T10:33:49Z</time></trkpt>
<trkpt lat="46.56951355" lon="7.11676922"><ele>1059.029541</ele><time>2009-09-12T10:33:54Z</time></trkpt>
<trkpt lat="46.56982502" lon="7.11657761"><ele>1062.394043</ele><time>2009-09-12T10:34:04Z</time></trkpt>
<trkpt lat="46.56997782" lon="7.11655623"><ele>1064.31665</ele><time>2009-09-12T10:34:09Z</time></trkpt>
<trkpt lat="46.57016248" lon="7.11670811"><ele>1068.162109</ele><time>2009-09-12T10:34:17Z</time></trkpt>
<trkpt lat="46.57043531" lon="7.11686687"><ele>1071.526611</ele><time>2009-09-12T10:34:28Z</time></trkpt>
<trkpt lat="46.57070537" lon="7.11692068"><ele>1075.371826</ele><time>2009-09-12T10:34:38Z</time></trkpt>
<trkpt lat="46.57073672" lon="7.11701849"><ele>1076.333252</ele><time>2009-09-12T10:34:41Z</time></trkpt>
<trkpt lat="46.57058568" lon="7.11718814"><ele>1077.775146</ele><time>2009-09-12T10:34:48Z</time></trkpt>
<trkpt lat="46.57036431" lon="7.11728605"><ele>1080.178467</ele><time>2009-09-12T10:34:57Z</time></trkpt>
<trkpt lat="46.57033380" lon="7.11730348"><ele>1080.178467</ele><time>2009-09-12T10:34:58Z</time></trkpt>
<trkpt lat="46.57023540" lon="7.11762744"><ele>1078.736572</ele><time>2009-09-12T10:35:07Z</time></trkpt>
<trkpt lat="46.57050177" lon="7.11766860"><ele>1084.023926</ele><time>2009-09-12T10:35:15Z</time></trkpt>
<trkpt lat="46.57053304" lon="7.11765477"><ele>1084.504639</ele><time>2009-09-12T10:35:16Z</time></trkpt>
<trkpt lat="46.57089237" lon="7.11739727"><ele>1088.349854</ele><time>2009-09-12T10:35:29Z</time></trkpt>
<trkpt lat="46.57111181" lon="7.11732569"><ele>1089.791748</ele><time>2009-09-12T10:35:37Z</time></trkpt>
<trkpt lat="46.57136746" lon="7.11741211"><ele>1094.117676</ele><time>2009-09-12T10:35:46Z</time></trkpt>
<trkpt lat="46.57156326" lon="7.11746860"><ele>1096.040283</ele><time>2009-09-12T10:35:53Z</time></trkpt>
<trkpt lat="46.57175655" lon="7.11722704"><ele>1097.962891</ele><time>2009-09-12T10:36:00Z</time></trkpt>
<trkpt lat="46.57219986" lon="7.11711707"><ele>1101.327637</ele><time>2009-09-12T10:36:18Z</time></trkpt>
<trkpt lat="46.57324601" lon="7.11707189"><ele>1114.785889</ele><time>2009-09-12T10:36:54Z</time></trkpt>
<trkpt lat="46.57373191" lon="7.11699964"><ele>1114.785889</ele><time>2009-09-12T10:37:08Z</time></trkpt>
<trkpt lat="46.57379905" lon="7.11698664"><ele>1114.305176</ele><time>2009-09-12T10:37:10Z</time></trkpt>
<trkpt lat="46.57400097" lon="7.11658406"><ele>1118.150635</ele><time>2009-09-12T10:37:19Z</time></trkpt>
<trkpt lat="46.57423440" lon="7.11632120"><ele>1120.553955</ele><time>2009-09-12T10:37:25Z</time></trkpt>
<trkpt lat="46.57447522" lon="7.11612641"><ele>1121.034668</ele><time>2009-09-12T10:37:30Z</time></trkpt>
<trkpt lat="46.57479775" lon="7.11607645"><ele>1121.034668</ele><time>2009-09-12T10:37:35Z</time></trkpt>
<trkpt lat="46.57503982" lon="7.11639723"><ele>1120.553955</ele><time>2009-09-12T10:37:40Z</time></trkpt>
<trkpt lat="46.57532221" lon="7.11671356"><ele>1121.99585</ele><time>2009-09-12T10:37:46Z</time></trkpt>
<trkpt lat="46.57551474" lon="7.11686661"><ele>1125.360352</ele><time>2009-09-12T10:38:02Z</time></trkpt>
<trkpt lat="46.57554374" lon="7.11688816"><ele>1125.360352</ele><time>2009-09-12T10:38:12Z</time></trkpt>
<trkpt lat="46.57561859" lon="7.11696167"><ele>1125.360352</ele><time>2009-09-12T10:38:16Z</time></trkpt>
<trkpt lat="46.57583602" lon="7.11717976"><ele>1127.283203</ele><time>2009-09-12T10:38:21Z</time></trkpt>
<trkpt lat="46.57629568" lon="7.11758109"><ele>1131.608887</ele><time>2009-09-12T10:38:30Z</time></trkpt>
<trkpt lat="46.57631789" lon="7.11794939"><ele>1129.205566</ele><time>2009-09-12T10:38:36Z</time></trkpt>
<trkpt lat="46.57632343" lon="7.11838366"><ele>1132.089844</ele><time>2009-09-12T10:38:45Z</time></trkpt>
<trkpt lat="46.57637380" lon="7.11874810"><ele>1138.338379</ele><time>2009-09-12T10:39:05Z</time></trkpt>
<trkpt lat="46.57637380" lon="7.11874810"><ele>1139.299561</ele><time>2009-09-12T10:39:06Z</time></trkpt>
<trkpt lat="46.57634614" lon="7.11844468"><ele>1138.338379</ele><time>2009-09-12T10:39:12Z</time></trkpt>
<trkpt lat="46.57630423" lon="7.11794151"><ele>1134.493164</ele><time>2009-09-12T10:39:17Z</time></trkpt>
<trkpt lat="46.57630599" lon="7.11772006"><ele>1132.089844</ele><time>2009-09-12T10:39:19Z</time></trkpt>
<trkpt lat="46.57587005" lon="7.11709066"><ele>1127.763672</ele><time>2009-09-12T10:39:28Z</time></trkpt>
<trkpt lat="46.57563837" lon="7.11689084"><ele>1126.321777</ele><time>2009-09-12T10:39:33Z</time></trkpt>
<trkpt lat="46.57558976" lon="7.11686569"><ele>1126.321777</ele><time>2009-09-12T10:39:38Z</time></trkpt>
<trkpt lat="46.57554810" lon="7.11687583"><ele>1126.80249</ele><time>2009-09-12T10:39:45Z</time></trkpt>
<trkpt lat="46.57546713" lon="7.11682336"><ele>1126.80249</ele><time>2009-09-12T10:39:50Z</time></trkpt>
<trkpt lat="46.57525104" lon="7.11662387"><ele>1124.879883</ele><time>2009-09-12T10:39:56Z</time></trkpt>
<trkpt lat="46.57515977" lon="7.11654165"><ele>1124.39917</ele><time>2009-09-12T10:39:58Z</time></trkpt>
<trkpt lat="46.57503890" lon="7.11627770"><ele>1123.918457</ele><time>2009-09-12T10:40:02Z</time></trkpt>
<trkpt lat="46.57487285" lon="7.11612993"><ele>1122.957275</ele><time>2009-09-12T10:40:06Z</time></trkpt>
<trkpt lat="46.57472919" lon="7.11608584"><ele>1122.957275</ele><time>2009-09-12T10:40:09Z</time></trkpt>
<trkpt lat="46.57447916" lon="7.11618047"><ele>1122.957275</ele><time>2009-09-12T10:40:15Z</time></trkpt>
<trkpt lat="46.57437162" lon="7.11627787"><ele>1123.437988</ele><time>2009-09-12T10:40:18Z</time></trkpt>
<trkpt lat="46.57390022" lon="7.11679202"><ele>1124.39917</ele><time>2009-09-12T10:40:32Z</time></trkpt>
<trkpt lat="46.57411261" lon="7.11644685"><ele>1132.089844</ele><time>2009-09-12T10:41:37Z</time></trkpt>
<trkpt lat="46.57414304" lon="7.11643537"><ele>1129.205566</ele><time>2009-09-12T10:41:45Z</time></trkpt>
<trkpt lat="46.57418587" lon="7.11648130"><ele>1127.283203</ele><time>2009-09-12T10:43:20Z</time></trkpt>
<trkpt lat="46.57417095" lon="7.11644995"><ele>1125.360352</ele><time>2009-09-12T10:46:54Z</time></trkpt>
<trkpt lat="46.57420884" lon="7.11642095"><ele>1123.918457</ele><time>2009-09-12T10:47:00Z</time></trkpt>
<trkpt lat="46.57406014" lon="7.11656629"><ele>1123.437988</ele><time>2009-09-12T10:47:09Z</time></trkpt>
<trkpt lat="46.57397565" lon="7.11680643"><ele>1117.669922</ele><time>2009-09-12T10:47:38Z</time></trkpt>
<trkpt lat="46.57199283" lon="7.11731161"><ele>1117.189453</ele><time>2009-09-12T10:48:12Z</time></trkpt>
<trkpt lat="46.57159938" lon="7.11705462"><ele>1115.747314</ele><time>2009-09-12T10:48:16Z</time></trkpt>
<trkpt lat="46.57148531" lon="7.11721036"><ele>1114.305176</ele><time>2009-09-12T10:48:19Z</time></trkpt>
<trkpt lat="46.57137752" lon="7.11730993"><ele>1113.343994</ele><time>2009-09-12T10:48:26Z</time></trkpt>
<trkpt lat="46.57153987" lon="7.11718513"><ele>1109.979248</ele><time>2009-09-12T10:48:33Z</time></trkpt>
<trkpt lat="46.57155882" lon="7.11716568"><ele>1109.498779</ele><time>2009-09-12T10:48:34Z</time></trkpt>
<trkpt lat="46.57158975" lon="7.11712168"><ele>1108.056885</ele><time>2009-09-12T10:48:36Z</time></trkpt>
<trkpt lat="46.57183081" lon="7.11711790"><ele>1106.614746</ele><time>2009-09-12T10:48:47Z</time></trkpt>
<trkpt lat="46.57195788" lon="7.11719544"><ele>1106.614746</ele><time>2009-09-12T10:48:55Z</time></trkpt>
<trkpt lat="46.57217413" lon="7.11741253"><ele>1106.614746</ele><time>2009-09-12T10:49:14Z</time></trkpt>
<trkpt lat="46.57231537" lon="7.11745268"><ele>1107.576172</ele><time>2009-09-12T10:49:23Z</time></trkpt>
<trkpt lat="46.57239860" lon="7.11746693"><ele>1108.537354</ele><time>2009-09-12T10:49:31Z</time></trkpt>
<trkpt lat="46.57247110" lon="7.11749224"><ele>1109.498779</ele><time>2009-09-12T10:49:43Z</time></trkpt>
<trkpt lat="46.57236314" lon="7.11748319"><ele>1109.018066</ele><time>2009-09-12T10:49:50Z</time></trkpt>
<trkpt lat="46.57237295" lon="7.11747237"><ele>1111.421387</ele><time>2009-09-12T10:50:04Z</time></trkpt>
<trkpt lat="46.57240472" lon="7.11744446"><ele>1116.228027</ele><time>2009-09-12T10:53:46Z</time></trkpt>
<trkpt lat="46.57275517" lon="7.11749098"><ele>1114.785889</ele><time>2009-09-12T10:54:08Z</time></trkpt>
<trkpt lat="46.57300411" lon="7.11740892"><ele>1113.343994</ele><time>2009-09-12T10:54:25Z</time></trkpt>
<trkpt lat="46.57312095" lon="7.11729309"><ele>1113.824463</ele><time>2009-09-12T10:54:37Z</time></trkpt>
<trkpt lat="46.57327216" lon="7.11710625"><ele>1113.824463</ele><time>2009-09-12T10:54:53Z</time></trkpt>
<trkpt lat="46.57345564" lon="7.11698187"><ele>1115.266602</ele><time>2009-09-12T10:55:11Z</time></trkpt>
<trkpt lat="46.57364524" lon="7.11706208"><ele>1115.266602</ele><time>2009-09-12T10:55:28Z</time></trkpt>
<trkpt lat="46.57383316" lon="7.11713308"><ele>1116.228027</ele><time>2009-09-12T10:55:42Z</time></trkpt>
<trkpt lat="46.57393835" lon="7.11695856"><ele>1118.631348</ele><time>2009-09-12T10:55:54Z</time></trkpt>
<trkpt lat="46.57398848" lon="7.11677492"><ele>1117.669922</ele><time>2009-09-12T10:56:05Z</time></trkpt>
<trkpt lat="46.57409082" lon="7.11658507"><ele>1121.034668</ele><time>2009-09-12T10:56:16Z</time></trkpt>
<trkpt lat="46.57423826" lon="7.11640687"><ele>1121.515137</ele><time>2009-09-12T10:56:26Z</time></trkpt>
<trkpt lat="46.57445602" lon="7.11618978"><ele>1120.553955</ele><time>2009-09-12T10:56:34Z</time></trkpt>
<trkpt lat="46.57466222" lon="7.11608626"><ele>1120.553955</ele><time>2009-09-12T10:56:40Z</time></trkpt>
<trkpt lat="46.57493069" lon="7.11614946"><ele>1118.631348</ele><time>2009-09-12T10:56:47Z</time></trkpt>
<trkpt lat="46.57506078" lon="7.11634845"><ele>1118.631348</ele><time>2009-09-12T10:56:52Z</time></trkpt>
<trkpt lat="46.57519044" lon="7.11657476"><ele>1119.592773</ele><time>2009-09-12T10:56:59Z</time></trkpt>
<trkpt lat="46.57521173" lon="7.11659278"><ele>1119.592773</ele><time>2009-09-12T10:57:00Z</time></trkpt>
<trkpt lat="46.57552103" lon="7.11687215"><ele>1121.99585</ele><time>2009-09-12T10:57:08Z</time></trkpt>
<trkpt lat="46.57553662" lon="7.11690584"><ele>1121.515137</ele><time>2009-09-12T10:57:36Z</time></trkpt>
<trkpt lat="46.57584842" lon="7.11722670"><ele>1123.918457</ele><time>2009-09-12T10:57:53Z</time></trkpt>
<trkpt lat="46.57598119" lon="7.11735520"><ele>1124.879883</ele><time>2009-09-12T10:58:00Z</time></trkpt>
<trkpt lat="46.57621228" lon="7.11753499"><ele>1125.360352</ele><time>2009-09-12T10:58:11Z</time></trkpt>
<trkpt lat="46.57638713" lon="7.11776323"><ele>1128.244385</ele><time>2009-09-12T10:58:23Z</time></trkpt>
<trkpt lat="46.57632996" lon="7.11805919"><ele>1130.166992</ele><time>2009-09-12T10:58:37Z</time></trkpt>
<trkpt lat="46.57633918" lon="7.11818609"><ele>1130.166992</ele><time>2009-09-12T10:58:43Z</time></trkpt>
<trkpt lat="46.57641303" lon="7.11872262"><ele>1133.051025</ele><time>2009-09-12T10:59:06Z</time></trkpt>
<trkpt lat="46.57665811" lon="7.11886092"><ele>1130.166992</ele><time>2009-09-12T10:59:32Z</time></trkpt>
<trkpt lat="46.57676037" lon="7.11896620"><ele>1134.012451</ele><time>2009-09-12T10:59:54Z</time></trkpt>
<trkpt lat="46.57675224" lon="7.11894684"><ele>1136.415771</ele><time>2009-09-12T11:00:01Z</time></trkpt>
<trkpt lat="46.57679499" lon="7.11900442"><ele>1140.741455</ele><time>2009-09-12T11:00:13Z</time></trkpt>
<trkpt lat="46.57669533" lon="7.11895295"><ele>1137.857666</ele><time>2009-09-12T11:15:39Z</time></trkpt>
<trkpt lat="46.57673280" lon="7.11895689"><ele>1138.338379</ele><time>2009-09-12T11:17:20Z</time></trkpt>
<trkpt lat="46.57672710" lon="7.11884642"><ele>1133.531738</ele><time>2009-09-12T11:17:43Z</time></trkpt>
<trkpt lat="46.57674688" lon="7.11883645"><ele>1132.089844</ele><time>2009-09-12T11:17:45Z</time></trkpt>
<trkpt lat="46.57706707" lon="7.11844191"><ele>1127.283203</ele><time>2009-09-12T11:17:53Z</time></trkpt>
<trkpt lat="46.57710060" lon="7.11832440"><ele>1127.283203</ele><time>2009-09-12T11:17:56Z</time></trkpt>
<trkpt lat="46.57741534" lon="7.11749417"><ele>1117.669922</ele><time>2009-09-12T11:18:11Z</time></trkpt>
<trkpt lat="46.57746571" lon="7.11677877"><ele>1090.272461</ele><time>2009-09-12T11:18:47Z</time></trkpt>
<trkpt lat="46.57746471" lon="7.11678908"><ele>1090.75293</ele><time>2009-09-12T11:18:48Z</time></trkpt>
<trkpt lat="46.57743998" lon="7.11685262"><ele>1093.636963</ele><time>2009-09-12T11:18:55Z</time></trkpt>
<trkpt lat="46.57744291" lon="7.11684943"><ele>1090.272461</ele><time>2009-09-12T11:19:07Z</time></trkpt>
<trkpt lat="46.57742053" lon="7.11682764"><ele>1096.520996</ele><time>2009-09-12T11:19:39Z</time></trkpt>
<trkpt lat="46.57742296" lon="7.11684365"><ele>1096.040283</ele><time>2009-09-12T11:19:49Z</time></trkpt>
<trkpt lat="46.57743964" lon="7.11681758"><ele>1092.675781</ele><time>2009-09-12T11:20:11Z</time></trkpt>
<trkpt lat="46.57743453" lon="7.11682060"><ele>1085.946533</ele><time>2009-09-12T11:20:25Z</time></trkpt>
<trkpt lat="46.57744149" lon="7.11679378"><ele>1085.46582</ele><time>2009-09-12T11:20:46Z</time></trkpt>
<trkpt lat="46.57747359" lon="7.11619640"><ele>1083.062256</ele><time>2009-09-12T11:20:55Z</time></trkpt>
<trkpt lat="46.57762891" lon="7.11560631"><ele>1074.891357</ele><time>2009-09-12T11:21:06Z</time></trkpt>
<trkpt lat="46.57762564" lon="7.11547069"><ele>1072.007324</ele><time>2009-09-12T11:21:18Z</time></trkpt>
<trkpt lat="46.57756210" lon="7.11527925"><ele>1071.046143</ele><time>2009-09-12T11:21:27Z</time></trkpt>
<trkpt lat="46.57744668" lon="7.11472227"><ele>1065.278076</ele><time>2009-09-12T11:22:00Z</time></trkpt>
<trkpt lat="46.57747803" lon="7.11467550"><ele>1055.665039</ele><time>2009-09-12T11:22:18Z</time></trkpt>
<trkpt lat="46.57725952" lon="7.11387352"><ele>1047.012939</ele><time>2009-09-12T11:22:41Z</time></trkpt>
<trkpt lat="46.57716656" lon="7.11353716"><ele>1041.72583</ele><time>2009-09-12T11:22:45Z</time></trkpt>
<trkpt lat="46.57709858" lon="7.11340304"><ele>1041.245117</ele><time>2009-09-12T11:22:47Z</time></trkpt>
<trkpt lat="46.57671411" lon="7.11270978"><ele>1037.399902</ele><time>2009-09-12T11:22:55Z</time></trkpt>
<trkpt lat="46.57660615" lon="7.11234123"><ele>1032.593262</ele><time>2009-09-12T11:23:03Z</time></trkpt>
<trkpt lat="46.57663532" lon="7.11216562"><ele>1027.306152</ele><time>2009-09-12T11:23:09Z</time></trkpt>
<trkpt lat="46.57663599" lon="7.11204451"><ele>1026.825439</ele><time>2009-09-12T11:23:19Z</time></trkpt>
<trkpt lat="46.57669156" lon="7.11200704"><ele>1027.306152</ele><time>2009-09-12T11:23:26Z</time></trkpt>
<trkpt lat="46.57678158" lon="7.11198977"><ele>1026.344727</ele><time>2009-09-12T11:23:31Z</time></trkpt>
<trkpt lat="46.57674688" lon="7.11191400"><ele>1023.941406</ele><time>2009-09-12T11:23:34Z</time></trkpt>
<trkpt lat="46.57659567" lon="7.11173614"><ele>1018.17334</ele><time>2009-09-12T11:23:43Z</time></trkpt>
<trkpt lat="46.57649802" lon="7.11151284"><ele>1006.156982</ele><time>2009-09-12T11:24:47Z</time></trkpt>
<trkpt lat="46.57637917" lon="7.11119584"><ele>1002.792236</ele><time>2009-09-12T11:24:57Z</time></trkpt>
<trkpt lat="46.57620122" lon="7.11084832"><ele>997.024414</ele><time>2009-09-12T11:25:05Z</time></trkpt>
<trkpt lat="46.57608219" lon="7.11052126"><ele>985.969238</ele><time>2009-09-12T11:25:13Z</time></trkpt>
<trkpt lat="46.57593878" lon="7.11032362"><ele>980.201416</ele><time>2009-09-12T11:25:18Z</time></trkpt>
<trkpt lat="46.57585504" lon="7.11001810"><ele>973.952881</ele><time>2009-09-12T11:25:23Z</time></trkpt>
<trkpt lat="46.57588002" lon="7.10971643"><ele>965.781738</ele><time>2009-09-12T11:25:29Z</time></trkpt>
<trkpt lat="46.57592042" lon="7.10943983"><ele>960.494385</ele><time>2009-09-12T11:25:34Z</time></trkpt>
<trkpt lat="46.57590299" lon="7.10819931"><ele>944.632568</ele><time>2009-09-12T11:25:47Z</time></trkpt>
<trkpt lat="46.57587558" lon="7.10791768"><ele>942.710205</ele><time>2009-09-12T11:25:50Z</time></trkpt>
<trkpt lat="46.57580961" lon="7.10758734"><ele>940.787354</ele><time>2009-09-12T11:25:54Z</time></trkpt>
<trkpt lat="46.57549479" lon="7.10699642"><ele>937.422607</ele><time>2009-09-12T11:26:02Z</time></trkpt>
<trkpt lat="46.57537183" lon="7.10687069"><ele>933.577393</ele><time>2009-09-12T11:26:47Z</time></trkpt>
<trkpt lat="46.57536806" lon="7.10687161"><ele>935.5</ele><time>2009-09-12T11:26:56Z</time></trkpt>
<trkpt lat="46.57536671" lon="7.10689064"><ele>936.941895</ele><time>2009-09-12T11:27:12Z</time></trkpt>
<trkpt lat="46.57534484" lon="7.10688486"><ele>932.616211</ele><time>2009-09-12T11:27:23Z</time></trkpt>
<trkpt lat="46.57470178" lon="7.10625596"><ele>911.467285</ele><time>2009-09-12T11:27:54Z</time></trkpt>
<trkpt lat="46.57441839" lon="7.10585112"><ele>905.699219</ele><time>2009-09-12T11:27:59Z</time></trkpt>
<trkpt lat="46.57404447" lon="7.10523999"><ele>897.528076</ele><time>2009-09-12T11:28:04Z</time></trkpt>
<trkpt lat="46.57376502" lon="7.10472216"><ele>892.72168</ele><time>2009-09-12T11:28:09Z</time></trkpt>
<trkpt lat="46.57369821" lon="7.10464949"><ele>891.76001</ele><time>2009-09-12T11:28:11Z</time></trkpt>
<trkpt lat="46.57254453" lon="7.10403484"><ele>867.246582</ele><time>2009-09-12T11:30:35Z</time></trkpt>
<trkpt lat="46.57249231" lon="7.10401154"><ele>871.572266</ele><time>2009-09-12T11:32:09Z</time></trkpt>
<trkpt lat="46.57180977" lon="7.10283187"><ele>865.804688</ele><time>2009-09-12T11:32:26Z</time></trkpt>
<trkpt lat="46.57151624" lon="7.10143712"><ele>842.73291</ele><time>2009-09-12T11:32:41Z</time></trkpt>
<trkpt lat="46.57131557" lon="7.10134492"><ele>839.368164</ele><time>2009-09-12T11:32:44Z</time></trkpt>
<trkpt lat="46.57097929" lon="7.10142137"><ele>835.04248</ele><time>2009-09-12T11:33:02Z</time></trkpt>
<trkpt lat="46.57122723" lon="7.10136336"><ele>835.522949</ele><time>2009-09-12T11:33:08Z</time></trkpt>
<trkpt lat="46.57156862" lon="7.10139940"><ele>837.445557</ele><time>2009-09-12T11:33:16Z</time></trkpt>
<trkpt lat="46.57175353" lon="7.10118215"><ele>835.04248</ele><time>2009-09-12T11:33:32Z</time></trkpt>
<trkpt lat="46.57171824" lon="7.10117636"><ele>834.561768</ele><time>2009-09-12T11:33:38Z</time></trkpt>
<trkpt lat="46.57170919" lon="7.10118676"><ele>834.561768</ele><time>2009-09-12T11:33:39Z</time></trkpt>
<trkpt lat="46.57158807" lon="7.10136864"><ele>835.522949</ele><time>2009-09-12T11:33:45Z</time></trkpt>
<trkpt lat="46.57143250" lon="7.10140225"><ele>835.522949</ele><time>2009-09-12T11:33:50Z</time></trkpt>
<trkpt lat="46.57120678" lon="7.10134165"><ele>836.003662</ele><time>2009-09-12T11:34:17Z</time></trkpt>
<trkpt lat="46.57124181" lon="7.10131844"><ele>840.810059</ele><time>2009-09-12T11:34:33Z</time></trkpt>
<trkpt lat="46.57127551" lon="7.10125574"><ele>827.351807</ele><time>2009-09-12T11:35:24Z</time></trkpt>
<trkpt lat="46.57123335" lon="7.10016651"><ele>820.622559</ele><time>2009-09-12T11:35:41Z</time></trkpt>
<trkpt lat="46.57118591" lon="7.09984389"><ele>816.296631</ele><time>2009-09-12T11:35:46Z</time></trkpt>
<trkpt lat="46.57107225" lon="7.09959134"><ele>811.48999</ele><time>2009-09-12T11:35:50Z</time></trkpt>
<trkpt lat="46.57101441" lon="7.09918700"><ele>806.202637</ele><time>2009-09-12T11:35:55Z</time></trkpt>
<trkpt lat="46.57102732" lon="7.09860957"><ele>798.99292</ele><time>2009-09-12T11:36:00Z</time></trkpt>
<trkpt lat="46.57095943" lon="7.09829785"><ele>793.224854</ele><time>2009-09-12T11:36:18Z</time></trkpt>
<trkpt lat="46.57079212" lon="7.09764926"><ele>788.89917</ele><time>2009-09-12T11:36:30Z</time></trkpt>
<trkpt lat="46.57058509" lon="7.09538950"><ele>769.192139</ele><time>2009-09-12T11:36:52Z</time></trkpt>
<trkpt lat="46.57070369" lon="7.09498918"><ele>757.175537</ele><time>2009-09-12T11:37:35Z</time></trkpt>
<trkpt lat="46.56886219" lon="7.09317424"><ele>741.794434</ele><time>2009-09-12T11:38:50Z</time></trkpt>
<trkpt lat="46.56873839" lon="7.09304860"><ele>734.584717</ele><time>2009-09-12T11:38:54Z</time></trkpt>
<trkpt lat="46.56864057" lon="7.09299185"><ele>732.181396</ele><time>2009-09-12T11:38:56Z</time></trkpt>
<trkpt lat="46.56870495" lon="7.09296939"><ele>712.954834</ele><time>2009-09-12T11:39:25Z</time></trkpt>
<trkpt lat="46.56876664" lon="7.09300602"><ele>722.568115</ele><time>2009-09-12T11:40:37Z</time></trkpt>
<trkpt lat="46.56879505" lon="7.09299940"><ele>705.745117</ele><time>2009-09-12T11:41:40Z</time></trkpt>
<trkpt lat="46.56905204" lon="7.09278541"><ele>705.745117</ele><time>2009-09-12T11:41:50Z</time></trkpt>
<trkpt lat="46.56952335" lon="7.09274216"><ele>703.82251</ele><time>2009-09-12T11:41:59Z</time></trkpt>
<trkpt lat="46.57019634" lon="7.09275481"><ele>701.419189</ele><time>2009-09-12T11:42:14Z</time></trkpt>
<trkpt lat="46.57142814" lon="7.09263034"><ele>701.419189</ele><time>2009-09-12T11:42:39Z</time></trkpt>
<trkpt lat="46.57154323" lon="7.09259438"><ele>701.419189</ele><time>2009-09-12T11:42:41Z</time></trkpt>
<trkpt lat="46.57170718" lon="7.09247335"><ele>700.458008</ele><time>2009-09-12T11:42:44Z</time></trkpt>
<trkpt lat="46.57189250" lon="7.09227319"><ele>698.054443</ele><time>2009-09-12T11:42:48Z</time></trkpt>
<trkpt lat="46.57196735" lon="7.09215098"><ele>699.015625</ele><time>2009-09-12T11:42:50Z</time></trkpt>
<trkpt lat="46.57208947" lon="7.09192257"><ele>698.054443</ele><time>2009-09-12T11:42:54Z</time></trkpt>
<trkpt lat="46.57247479" lon="7.09165854"><ele>698.534912</ele><time>2009-09-12T11:43:02Z</time></trkpt>
<trkpt lat="46.57255568" lon="7.09166835"><ele>698.534912</ele><time>2009-09-12T11:43:03Z</time></trkpt>
<trkpt lat="46.57314627" lon="7.09166969"><ele>698.534912</ele><time>2009-09-12T11:43:11Z</time></trkpt>
<trkpt lat="46.57362085" lon="7.09169459"><ele>703.341797</ele><time>2009-09-12T11:43:18Z</time></trkpt>
<trkpt lat="46.57497033" lon="7.09164455"><ele>704.303223</ele><time>2009-09-12T11:43:41Z</time></trkpt>
<trkpt lat="46.57540242" lon="7.09159409"><ele>700.458008</ele><time>2009-09-12T11:43:52Z</time></trkpt>
<trkpt lat="46.57552815" lon="7.09157942"><ele>702.380371</ele><time>2009-09-12T11:43:56Z</time></trkpt>
<trkpt lat="46.57616266" lon="7.09214847"><ele>700.938477</ele><time>2009-09-12T11:44:16Z</time></trkpt>
<trkpt lat="46.57640104" lon="7.09226154"><ele>700.458008</ele><time>2009-09-12T11:44:22Z</time></trkpt>
<trkpt lat="46.57831010" lon="7.09260813"><ele>703.341797</ele><time>2009-09-12T11:45:05Z</time></trkpt>
<trkpt lat="46.58066257" lon="7.09338496"><ele>702.861084</ele><time>2009-09-12T11:46:00Z</time></trkpt>
<trkpt lat="46.58136791" lon="7.09391252"><ele>703.82251</ele><time>2009-09-12T11:46:14Z</time></trkpt>
<trkpt lat="46.58154468" lon="7.09412542"><ele>703.82251</ele><time>2009-09-12T11:46:18Z</time></trkpt>
<trkpt lat="46.58187702" lon="7.09437193"><ele>704.303223</ele><time>2009-09-12T11:46:25Z</time></trkpt>
<trkpt lat="46.58228614" lon="7.09434981"><ele>703.82251</ele><time>2009-09-12T11:46:32Z</time></trkpt>
<trkpt lat="46.58263760" lon="7.09416549"><ele>705.745117</ele><time>2009-09-12T11:46:39Z</time></trkpt>
<trkpt lat="46.58269652" lon="7.09400070"><ele>706.225586</ele><time>2009-09-12T11:46:42Z</time></trkpt>
<trkpt lat="46.58274698" lon="7.09388453"><ele>710.551514</ele><time>2009-09-12T11:46:47Z</time></trkpt>
<trkpt lat="46.58278730" lon="7.09386097"><ele>709.109619</ele><time>2009-09-12T11:46:50Z</time></trkpt>
<trkpt lat="46.58374962" lon="7.09359460"><ele>707.187012</ele><time>2009-09-12T11:47:55Z</time></trkpt>
<trkpt lat="46.58382925" lon="7.09361178"><ele>702.861084</ele><time>2009-09-12T11:48:00Z</time></trkpt>
<trkpt lat="46.58400150" lon="7.09377388"><ele>701.419189</ele><time>2009-09-12T11:48:10Z</time></trkpt>
<trkpt lat="46.58406847" lon="7.09382057"><ele>701.419189</ele><time>2009-09-12T11:48:14Z</time></trkpt>
<trkpt lat="46.58422773" lon="7.09407052"><ele>703.341797</ele><time>2009-09-12T11:48:23Z</time></trkpt>
<trkpt lat="46.58432538" lon="7.09410019"><ele>701.419189</ele><time>2009-09-12T11:48:26Z</time></trkpt>
<trkpt lat="46.58434826" lon="7.09413204"><ele>700.938477</ele><time>2009-09-12T11:48:27Z</time></trkpt>
<trkpt lat="46.58458245" lon="7.09442281"><ele>697.57373</ele><time>2009-09-12T11:48:36Z</time></trkpt>
<trkpt lat="46.58500850" lon="7.09469908"><ele>697.57373</ele><time>2009-09-12T11:48:49Z</time></trkpt>
<trkpt lat="46.58529575" lon="7.09463244"><ele>696.612549</ele><time>2009-09-12T11:48:57Z</time></trkpt>
<trkpt lat="46.58542852" lon="7.09454343"><ele>696.612549</ele><time>2009-09-12T11:49:00Z</time></trkpt>
<trkpt lat="46.58568031" lon="7.09429096"><ele>695.17041</ele><time>2009-09-12T11:49:05Z</time></trkpt>
<trkpt lat="46.58608692" lon="7.09366173"><ele>698.534912</ele><time>2009-09-12T11:49:17Z</time></trkpt>
<trkpt lat="46.58620569" lon="7.09337139"><ele>700.458008</ele><time>2009-09-12T11:49:23Z</time></trkpt>
<trkpt lat="46.58624182" lon="7.09298062"><ele>702.380371</ele><time>2009-09-12T11:49:31Z</time></trkpt>
<trkpt lat="46.58619982" lon="7.09241753"><ele>705.264404</ele><time>2009-09-12T11:49:42Z</time></trkpt>
<trkpt lat="46.58613444" lon="7.09214008"><ele>705.264404</ele><time>2009-09-12T11:49:50Z</time></trkpt>
<trkpt lat="46.58613176" lon="7.09211737"><ele>705.745117</ele><time>2009-09-12T11:49:51Z</time></trkpt>
<trkpt lat="46.58614702" lon="7.09208250"><ele>705.745117</ele><time>2009-09-12T11:49:54Z</time></trkpt>
<trkpt lat="46.58607485" lon="7.09197295"><ele>705.264404</ele><time>2009-09-12T11:50:01Z</time></trkpt>
<trkpt lat="46.58583965" lon="7.09155964"><ele>708.148438</ele><time>2009-09-12T11:50:14Z</time></trkpt>
<trkpt lat="46.58572792" lon="7.09115957"><ele>710.070801</ele><time>2009-09-12T11:50:25Z</time></trkpt>
<trkpt lat="46.58569037" lon="7.09072371"><ele>712.954834</ele><time>2009-09-12T11:50:36Z</time></trkpt>
<trkpt lat="46.58566179" lon="7.09016497"><ele>715.358154</ele><time>2009-09-12T11:50:48Z</time></trkpt>
<trkpt lat="46.58563488" lon="7.08980707"><ele>717.281006</ele><time>2009-09-12T11:50:58Z</time></trkpt>
<trkpt lat="46.58555240" lon="7.08960037"><ele>718.242188</ele><time>2009-09-12T11:51:06Z</time></trkpt>
<trkpt lat="46.58543246" lon="7.08922343"><ele>717.281006</ele><time>2009-09-12T11:51:17Z</time></trkpt>
<trkpt lat="46.58543447" lon="7.08912025"><ele>718.242188</ele><time>2009-09-12T11:51:22Z</time></trkpt>
<trkpt lat="46.58549331" lon="7.08914984"><ele>719.684326</ele><time>2009-09-12T11:51:26Z</time></trkpt>
<trkpt lat="46.58572700" lon="7.08894004"><ele>719.203613</ele><time>2009-09-12T11:51:38Z</time></trkpt>
<trkpt lat="46.58588014" lon="7.08876511"><ele>723.048828</ele><time>2009-09-12T11:51:49Z</time></trkpt>
<trkpt lat="46.58592314" lon="7.08873661"><ele>722.568115</ele><time>2009-09-12T11:51:57Z</time></trkpt>
<trkpt lat="46.58594283" lon="7.08870091"><ele>724.490723</ele><time>2009-09-12T11:52:11Z</time></trkpt>
<trkpt lat="46.58600637" lon="7.08851625"><ele>727.374756</ele><time>2009-09-12T11:52:44Z</time></trkpt>
<trkpt lat="46.58590578" lon="7.08850192"><ele>733.142578</ele><time>2009-09-12T11:52:54Z</time></trkpt>
<trkpt lat="46.58583965" lon="7.08840435"><ele>732.662109</ele><time>2009-09-12T11:53:12Z</time></trkpt>
<trkpt lat="46.58576078" lon="7.08831090"><ele>732.181396</ele><time>2009-09-12T11:53:30Z</time></trkpt>
<trkpt lat="46.58571619" lon="7.08826832"><ele>736.026611</ele><time>2009-09-12T11:53:39Z</time></trkpt>
<trkpt lat="46.58567872" lon="7.08821149"><ele>736.987793</ele><time>2009-09-12T11:53:48Z</time></trkpt>
<trkpt lat="46.58565257" lon="7.08817586"><ele>742.275146</ele><time>2009-09-12T11:53:59Z</time></trkpt>
<trkpt lat="46.58557244" lon="7.08803128"><ele>747.562256</ele><time>2009-09-12T11:54:13Z</time></trkpt>
<trkpt lat="46.58552089" lon="7.08784042"><ele>749.96582</ele><time>2009-09-12T11:54:29Z</time></trkpt>
<trkpt lat="46.58543145" lon="7.08775769"><ele>754.772217</ele><time>2009-09-12T11:54:41Z</time></trkpt>
<trkpt lat="46.58540949" lon="7.08772467"><ele>755.733643</ele><time>2009-09-12T11:54:51Z</time></trkpt>
<trkpt lat="46.58535317" lon="7.08767354"><ele>768.711426</ele><time>2009-09-12T11:55:28Z</time></trkpt>
<trkpt lat="46.58535467" lon="7.08763163"><ele>759.578857</ele><time>2009-09-12T11:55:37Z</time></trkpt>
<trkpt lat="46.58522995" lon="7.08738553"><ele>761.501465</ele><time>2009-09-12T11:55:48Z</time></trkpt>
<trkpt lat="46.58512744" lon="7.08706560"><ele>763.424072</ele><time>2009-09-12T11:56:00Z</time></trkpt>
<trkpt lat="46.58505636" lon="7.08685311"><ele>764.866211</ele><time>2009-09-12T11:56:10Z</time></trkpt>
<trkpt lat="46.58499652" lon="7.08666687"><ele>766.308105</ele><time>2009-09-12T11:56:20Z</time></trkpt>
<trkpt lat="46.58492862" lon="7.08646948"><ele>767.75</ele><time>2009-09-12T11:56:31Z</time></trkpt>
<trkpt lat="46.58483801" lon="7.08627183"><ele>770.634033</ele><time>2009-09-12T11:56:42Z</time></trkpt>
<trkpt lat="46.58476979" lon="7.08610461"><ele>772.075928</ele><time>2009-09-12T11:56:52Z</time></trkpt>
<trkpt lat="46.58471237" lon="7.08593999"><ele>771.595215</ele><time>2009-09-12T11:57:04Z</time></trkpt>
<trkpt lat="46.58477331" lon="7.08601216"><ele>772.075928</ele><time>2009-09-12T11:57:09Z</time></trkpt>
<trkpt lat="46.58481756" lon="7.08603194"><ele>771.595215</ele><time>2009-09-12T11:57:17Z</time></trkpt>
<trkpt lat="46.58483257" lon="7.08602498"><ele>775.921143</ele><time>2009-09-12T11:58:38Z</time></trkpt>
<trkpt lat="46.58481915" lon="7.08607117"><ele>771.114746</ele><time>2009-09-12T11:59:23Z</time></trkpt>
<trkpt lat="46.58489526" lon="7.08607569"><ele>772.556641</ele><time>2009-09-12T11:59:34Z</time></trkpt>
<trkpt lat="46.58506718" lon="7.08612506"><ele>772.556641</ele><time>2009-09-12T11:59:40Z</time></trkpt>
<trkpt lat="46.58529399" lon="7.08603068"><ele>773.518066</ele><time>2009-09-12T11:59:48Z</time></trkpt>
<trkpt lat="46.58606512" lon="7.08282293"><ele>761.020752</ele><time>2009-09-12T12:00:33Z</time></trkpt>
<trkpt lat="46.58611223" lon="7.08273710"><ele>748.523682</ele><time>2009-09-12T12:00:49Z</time></trkpt>
<trkpt lat="46.58605993" lon="7.08302870"><ele>747.562256</ele><time>2009-09-12T12:00:58Z</time></trkpt>
<trkpt lat="46.58598592" lon="7.08322434"><ele>749.004395</ele><time>2009-09-12T12:01:05Z</time></trkpt>
<trkpt lat="46.58594443" lon="7.08335082"><ele>749.004395</ele><time>2009-09-12T12:01:10Z</time></trkpt>
<trkpt lat="46.58588257" lon="7.08338753"><ele>750.446533</ele><time>2009-09-12T12:01:25Z</time></trkpt>
<trkpt lat="46.58588433" lon="7.08329164"><ele>751.407715</ele><time>2009-09-12T12:01:32Z</time></trkpt>
<trkpt lat="46.58586111" lon="7.08311412"><ele>753.811035</ele><time>2009-09-12T12:01:42Z</time></trkpt>
<trkpt lat="46.58574460" lon="7.08283399"><ele>762.462646</ele><time>2009-09-12T12:01:54Z</time></trkpt>
<trkpt lat="46.58564863" lon="7.08265353"><ele>765.827637</ele><time>2009-09-12T12:02:05Z</time></trkpt>
<trkpt lat="46.58552701" lon="7.08249805"><ele>768.711426</ele><time>2009-09-12T12:02:15Z</time></trkpt>
<trkpt lat="46.58536163" lon="7.08226101"><ele>769.192139</ele><time>2009-09-12T12:02:28Z</time></trkpt>
<trkpt lat="46.58525283" lon="7.08209781"><ele>771.595215</ele><time>2009-09-12T12:02:38Z</time></trkpt>
<trkpt lat="46.58517438" lon="7.08197937"><ele>773.037354</ele><time>2009-09-12T12:02:48Z</time></trkpt>
<trkpt lat="46.58491270" lon="7.08175692"><ele>773.037354</ele><time>2009-09-12T12:03:17Z</time></trkpt>
<trkpt lat="46.58475403" lon="7.08168115"><ele>775.44043</ele><time>2009-09-12T12:03:28Z</time></trkpt>
<trkpt lat="46.58458480" lon="7.08156950"><ele>780.728027</ele><time>2009-09-12T12:03:41Z</time></trkpt>
<trkpt lat="46.58445043" lon="7.08149029"><ele>783.131104</ele><time>2009-09-12T12:03:52Z</time></trkpt>
<trkpt lat="46.58425572" lon="7.08134076"><ele>788.418457</ele><time>2009-09-12T12:04:09Z</time></trkpt>
<trkpt lat="46.58398834" lon="7.08118200"><ele>790.341064</ele><time>2009-09-12T12:04:34Z</time></trkpt>
<trkpt lat="46.58378148" lon="7.08104898"><ele>794.666748</ele><time>2009-09-12T12:04:52Z</time></trkpt>
<trkpt lat="46.58368802" lon="7.08090506"><ele>801.39624</ele><time>2009-09-12T12:05:01Z</time></trkpt>
<trkpt lat="46.58365793" lon="7.08088755"><ele>802.838135</ele><time>2009-09-12T12:05:05Z</time></trkpt>
<trkpt lat="46.58363873" lon="7.08086701"><ele>803.318848</ele><time>2009-09-12T12:05:14Z</time></trkpt>
<trkpt lat="46.58358241" lon="7.08081823"><ele>807.164063</ele><time>2009-09-12T12:06:18Z</time></trkpt>
<trkpt lat="46.58360076" lon="7.08082024"><ele>805.241455</ele><time>2009-09-12T12:06:26Z</time></trkpt>
<trkpt lat="46.58360906" lon="7.08082099"><ele>804.760742</ele><time>2009-09-12T12:06:30Z</time></trkpt>
<trkpt lat="46.58366622" lon="7.08078805"><ele>803.799561</ele><time>2009-09-12T12:06:37Z</time></trkpt>
<trkpt lat="46.58362406" lon="7.08080976"><ele>804.280273</ele><time>2009-09-12T12:06:49Z</time></trkpt>
<trkpt lat="46.58360059" lon="7.08090724"><ele>805.722168</ele><time>2009-09-12T12:07:12Z</time></trkpt>
<trkpt lat="46.58353748" lon="7.08096449"><ele>806.68335</ele><time>2009-09-12T12:07:23Z</time></trkpt>
<trkpt lat="46.58348107" lon="7.08102786"><ele>807.164063</ele><time>2009-09-12T12:07:31Z</time></trkpt>
<trkpt lat="46.58344327" lon="7.08118334"><ele>812.451416</ele><time>2009-09-12T12:07:43Z</time></trkpt>
<trkpt lat="46.58344469" lon="7.08117823"><ele>810.528564</ele><time>2009-09-12T12:07:52Z</time></trkpt>
<trkpt lat="46.58340639" lon="7.08105837"><ele>806.202637</ele><time>2009-09-12T12:09:09Z</time></trkpt>
<trkpt lat="46.58340337" lon="7.08106591"><ele>806.68335</ele><time>2009-09-12T12:09:42Z</time></trkpt>
<trkpt lat="46.58340286" lon="7.08108628"><ele>812.451416</ele><time>2009-09-12T12:10:16Z</time></trkpt>
<trkpt lat="46.58339532" lon="7.08107681"><ele>812.932129</ele><time>2009-09-12T12:10:28Z</time></trkpt>
<trkpt lat="46.58339825" lon="7.08108611"><ele>811.970703</ele><time>2009-09-12T12:10:44Z</time></trkpt>
<trkpt lat="46.58342181" lon="7.08116717"><ele>811.48999</ele><time>2009-09-12T12:10:53Z</time></trkpt>
<trkpt lat="46.58344184" lon="7.08121771"><ele>811.48999</ele><time>2009-09-12T12:11:01Z</time></trkpt>
<trkpt lat="46.58349356" lon="7.08135107"><ele>812.932129</ele><time>2009-09-12T12:11:12Z</time></trkpt>
<trkpt lat="46.58355349" lon="7.08145676"><ele>812.932129</ele><time>2009-09-12T12:11:23Z</time></trkpt>
<trkpt lat="46.58358274" lon="7.08151845"><ele>813.893311</ele><time>2009-09-12T12:11:33Z</time></trkpt>
<trkpt lat="46.58357721" lon="7.08151074"><ele>816.777344</ele><time>2009-09-12T12:11:45Z</time></trkpt>
<trkpt lat="46.58357997" lon="7.08149565"><ele>817.258057</ele><time>2009-09-12T12:11:55Z</time></trkpt>
<trkpt lat="46.58357905" lon="7.08155081"><ele>819.180664</ele><time>2009-09-12T12:12:12Z</time></trkpt>
<trkpt lat="46.58356455" lon="7.08160504"><ele>818.219238</ele><time>2009-09-12T12:12:41Z</time></trkpt>
<trkpt lat="46.58360017" lon="7.08164670"><ele>816.777344</ele><time>2009-09-12T12:12:49Z</time></trkpt>
<trkpt lat="46.58376035" lon="7.08204157"><ele>814.374023</ele><time>2009-09-12T12:12:59Z</time></trkpt>
<trkpt lat="46.58363119" lon="7.08231322"><ele>809.08667</ele><time>2009-09-12T12:13:07Z</time></trkpt>
<trkpt lat="46.58342524" lon="7.08216134"><ele>806.202637</ele><time>2009-09-12T12:13:12Z</time></trkpt>
<trkpt lat="46.58295167" lon="7.08181844"><ele>804.760742</ele><time>2009-09-12T12:13:18Z</time></trkpt>
<trkpt lat="46.58271681" lon="7.08175122"><ele>804.280273</ele><time>2009-09-12T12:13:21Z</time></trkpt>
<trkpt lat="46.58241606" lon="7.08210041"><ele>800.915527</ele><time>2009-09-12T12:13:26Z</time></trkpt>
<trkpt lat="46.58226670" lon="7.08280524"><ele>792.263672</ele><time>2009-09-12T12:13:31Z</time></trkpt>
<trkpt lat="46.58224063" lon="7.08347948"><ele>786.49585</ele><time>2009-09-12T12:13:36Z</time></trkpt>
<trkpt lat="46.58223543" lon="7.08360882"><ele>777.84375</ele><time>2009-09-12T12:13:57Z</time></trkpt>
<trkpt lat="46.58218849" lon="7.08351167"><ele>778.805176</ele><time>2009-09-12T12:14:06Z</time></trkpt>
<trkpt lat="46.58217039" lon="7.08348644"><ele>778.324463</ele><time>2009-09-12T12:14:09Z</time></trkpt>
<trkpt lat="46.58131233" lon="7.08254063"><ele>773.037354</ele><time>2009-09-12T12:14:30Z</time></trkpt>
<trkpt lat="46.58060222" lon="7.08223737"><ele>757.175537</ele><time>2009-09-12T12:14:46Z</time></trkpt>
<trkpt lat="46.58042746" lon="7.08205431"><ele>753.811035</ele><time>2009-09-12T12:14:52Z</time></trkpt>
<trkpt lat="46.58040206" lon="7.08204383"><ele>752.849609</ele><time>2009-09-12T12:14:53Z</time></trkpt>
<trkpt lat="46.58051999" lon="7.08216118"><ele>746.601074</ele><time>2009-09-12T12:15:09Z</time></trkpt>
<trkpt lat="46.58054120" lon="7.08216118"><ele>745.158936</ele><time>2009-09-12T12:15:12Z</time></trkpt>
<trkpt lat="46.58049309" lon="7.08211675"><ele>745.158936</ele><time>2009-09-12T12:15:17Z</time></trkpt>
<trkpt lat="46.58047901" lon="7.08210812"><ele>745.158936</ele><time>2009-09-12T12:15:18Z</time></trkpt>
<trkpt lat="46.58044841" lon="7.08208029"><ele>744.197754</ele><time>2009-09-12T12:15:26Z</time></trkpt>
<trkpt lat="46.58040315" lon="7.08206277"><ele>749.004395</ele><time>2009-09-12T12:16:02Z</time></trkpt>
<trkpt lat="46.58040642" lon="7.08202556"><ele>746.601074</ele><time>2009-09-12T12:16:35Z</time></trkpt>
<trkpt lat="46.58033836" lon="7.08201257"><ele>751.888428</ele><time>2009-09-12T12:17:00Z</time></trkpt>
<trkpt lat="46.58023434" lon="7.08193822"><ele>747.562256</ele><time>2009-09-12T12:17:05Z</time></trkpt>
<trkpt lat="46.57995027" lon="7.08167444"><ele>744.197754</ele><time>2009-09-12T12:17:12Z</time></trkpt>
<trkpt lat="46.57975347" lon="7.08146523"><ele>744.197754</ele><time>2009-09-12T12:17:17Z</time></trkpt>
<trkpt lat="46.57955876" lon="7.08113146"><ele>743.236328</ele><time>2009-09-12T12:17:25Z</time></trkpt>
<trkpt lat="46.57937268" lon="7.08079753"><ele>743.717041</ele><time>2009-09-12T12:17:33Z</time></trkpt>
<trkpt lat="46.57918559" lon="7.08010728"><ele>743.717041</ele><time>2009-09-12T12:17:45Z</time></trkpt>
<trkpt lat="46.57902407" lon="7.07971710"><ele>743.236328</ele><time>2009-09-12T12:17:50Z</time></trkpt>
<trkpt lat="46.57872836" lon="7.07925349"><ele>742.275146</ele><time>2009-09-12T12:17:57Z</time></trkpt>
<trkpt lat="46.57850130" lon="7.07880875"><ele>741.313721</ele><time>2009-09-12T12:18:05Z</time></trkpt>
<trkpt lat="46.57832477" lon="7.07843576"><ele>742.275146</ele><time>2009-09-12T12:18:14Z</time></trkpt>
<trkpt lat="46.57829301" lon="7.07839184"><ele>742.275146</ele><time>2009-09-12T12:18:16Z</time></trkpt>
<trkpt lat="46.57821740" lon="7.07852058"><ele>741.313721</ele><time>2009-09-12T12:18:21Z</time></trkpt>
<trkpt lat="46.57809444" lon="7.07877698"><ele>739.871826</ele><time>2009-09-12T12:18:27Z</time></trkpt>
<trkpt lat="46.57785807" lon="7.07880045"><ele>738.910645</ele><time>2009-09-12T12:18:33Z</time></trkpt>
<trkpt lat="46.57782462" lon="7.07878754"><ele>738.910645</ele><time>2009-09-12T12:18:34Z</time></trkpt>
<trkpt lat="46.57757333" lon="7.07877539"><ele>740.352539</ele><time>2009-09-12T12:18:43Z</time></trkpt>
<trkpt lat="46.57699825" lon="7.07946581"><ele>743.236328</ele><time>2009-09-12T12:19:11Z</time></trkpt>
<trkpt lat="46.57672978" lon="7.07859099"><ele>750.446533</ele><time>2009-09-12T12:19:39Z</time></trkpt>
<trkpt lat="46.57650908" lon="7.07833844"><ele>752.849609</ele><time>2009-09-12T12:20:03Z</time></trkpt>
<trkpt lat="46.57636902" lon="7.07805564"><ele>754.291748</ele><time>2009-09-12T12:20:18Z</time></trkpt>
<trkpt lat="46.57630851" lon="7.07771366"><ele>763.424072</ele><time>2009-09-12T12:20:41Z</time></trkpt>
<trkpt lat="46.57622167" lon="7.07753227"><ele>768.230713</ele><time>2009-09-12T12:20:52Z</time></trkpt>
<trkpt lat="46.57619099" lon="7.07746840"><ele>769.672852</ele><time>2009-09-12T12:20:58Z</time></trkpt>
<trkpt lat="46.57615352" lon="7.07733756"><ele>769.192139</ele><time>2009-09-12T12:21:08Z</time></trkpt>
<trkpt lat="46.57615302" lon="7.07728459"><ele>769.672852</ele><time>2009-09-12T12:21:12Z</time></trkpt>
<trkpt lat="46.57612603" lon="7.07703221"><ele>768.711426</ele><time>2009-09-12T12:21:27Z</time></trkpt>
<trkpt lat="46.57605101" lon="7.07679525"><ele>769.192139</ele><time>2009-09-12T12:21:40Z</time></trkpt>
<trkpt lat="46.57604414" lon="7.07636945"><ele>773.518066</ele><time>2009-09-12T12:22:02Z</time></trkpt>
<trkpt lat="46.57602587" lon="7.07630650"><ele>773.518066</ele><time>2009-09-12T12:22:06Z</time></trkpt>
<trkpt lat="46.57590014" lon="7.07606544"><ele>777.363281</ele><time>2009-09-12T12:22:20Z</time></trkpt>
<trkpt lat="46.57576947" lon="7.07589126"><ele>779.766357</ele><time>2009-09-12T12:22:31Z</time></trkpt>
<trkpt lat="46.57572127" lon="7.07568222"><ele>780.728027</ele><time>2009-09-12T12:22:41Z</time></trkpt>
<trkpt lat="46.57573217" lon="7.07535641"><ele>781.689209</ele><time>2009-09-12T12:22:56Z</time></trkpt>
<trkpt lat="46.57570199" lon="7.07496305"><ele>782.169922</ele><time>2009-09-12T12:23:11Z</time></trkpt>
<trkpt lat="46.57556620" lon="7.07460950"><ele>783.131104</ele><time>2009-09-12T12:23:24Z</time></trkpt>
<trkpt lat="46.57537946" lon="7.07441001"><ele>785.053955</ele><time>2009-09-12T12:23:35Z</time></trkpt>
<trkpt lat="46.57531994" lon="7.07421740"><ele>785.534424</ele><time>2009-09-12T12:23:43Z</time></trkpt>
<trkpt lat="46.57520545" lon="7.07380023"><ele>785.534424</ele><time>2009-09-12T12:24:00Z</time></trkpt>
<trkpt lat="46.57497235" lon="7.07231789"><ele>793.224854</ele><time>2009-09-12T12:25:10Z</time></trkpt>
<trkpt lat="46.57489356" lon="7.07166955"><ele>802.357422</ele><time>2009-09-12T12:25:44Z</time></trkpt>
<trkpt lat="46.57497243" lon="7.07091434"><ele>808.605957</ele><time>2009-09-12T12:26:21Z</time></trkpt>
<trkpt lat="46.57469826" lon="7.06956720"><ele>832.63916</ele><time>2009-09-12T12:33:54Z</time></trkpt>
<trkpt lat="46.57460539" lon="7.06946008"><ele>832.63916</ele><time>2009-09-12T12:34:06Z</time></trkpt>
<trkpt lat="46.57451386" lon="7.06937961"><ele>835.04248</ele><time>2009-09-12T12:34:18Z</time></trkpt>
<trkpt lat="46.57433356" lon="7.06917929"><ele>839.368164</ele><time>2009-09-12T12:34:35Z</time></trkpt>
<trkpt lat="46.57336151" lon="7.07092440"><ele>852.345947</ele><time>2009-09-12T12:36:13Z</time></trkpt>
<trkpt lat="46.57321558" lon="7.07080529"><ele>854.268799</ele><time>2009-09-12T12:36:29Z</time></trkpt>
<trkpt lat="46.57315012" lon="7.07078819"><ele>858.114014</ele><time>2009-09-12T12:36:34Z</time></trkpt>
<trkpt lat="46.57309698" lon="7.07079456"><ele>862.439941</ele><time>2009-09-12T12:36:38Z</time></trkpt>
<trkpt lat="46.57295491" lon="7.07065048"><ele>860.998047</ele><time>2009-09-12T12:36:55Z</time></trkpt>
<trkpt lat="46.57276841" lon="7.07056213"><ele>861.959473</ele><time>2009-09-12T12:37:12Z</time></trkpt>
<trkpt lat="46.57265299" lon="7.07057278"><ele>865.323975</ele><time>2009-09-12T12:37:23Z</time></trkpt>
<trkpt lat="46.57253246" lon="7.07041729"><ele>862.920654</ele><time>2009-09-12T12:37:39Z</time></trkpt>
<trkpt lat="46.57249390" lon="7.07031344"><ele>868.207764</ele><time>2009-09-12T12:37:46Z</time></trkpt>
<trkpt lat="46.57241620" lon="7.07016181"><ele>870.130371</ele><time>2009-09-12T12:38:03Z</time></trkpt>
<trkpt lat="46.57238452" lon="7.06999552"><ele>875.41748</ele><time>2009-09-12T12:38:29Z</time></trkpt>
<trkpt lat="46.57239961" lon="7.06991656"><ele>879.262939</ele><time>2009-09-12T12:38:38Z</time></trkpt>
<trkpt lat="46.57237723" lon="7.06984992"><ele>879.743652</ele><time>2009-09-12T12:38:46Z</time></trkpt>
<trkpt lat="46.57240639" lon="7.06980030"><ele>884.550293</ele><time>2009-09-12T12:38:58Z</time></trkpt>
<trkpt lat="46.57239458" lon="7.06966208"><ele>885.992188</ele><time>2009-09-12T12:39:12Z</time></trkpt>
<trkpt lat="46.57241905" lon="7.06963518"><ele>886.953369</ele><time>2009-09-12T12:39:27Z</time></trkpt>
<trkpt lat="46.57252064" lon="7.06959545"><ele>898.489258</ele><time>2009-09-12T12:40:10Z</time></trkpt>
<trkpt lat="46.57252114" lon="7.06969092"><ele>897.047363</ele><time>2009-09-12T12:40:14Z</time></trkpt>
<trkpt lat="46.57250538" lon="7.06981036"><ele>888.395508</ele><time>2009-09-12T12:40:41Z</time></trkpt>
<trkpt lat="46.57245099" lon="7.06972210"><ele>887.914795</ele><time>2009-09-12T12:40:52Z</time></trkpt>
<trkpt lat="46.57241218" lon="7.06959293"><ele>887.914795</ele><time>2009-09-12T12:41:04Z</time></trkpt>
<trkpt lat="46.57236683" lon="7.06950434"><ele>889.356689</ele><time>2009-09-12T12:41:13Z</time></trkpt>
<trkpt lat="46.57234286" lon="7.06941599"><ele>888.876221</ele><time>2009-09-12T12:41:25Z</time></trkpt>
<trkpt lat="46.57235317" lon="7.06938481"><ele>889.356689</ele><time>2009-09-12T12:41:33Z</time></trkpt>
<trkpt lat="46.57239701" lon="7.06926445"><ele>901.854004</ele><time>2009-09-12T12:42:06Z</time></trkpt>
<trkpt lat="46.57239441" lon="7.06935816"><ele>891.279297</ele><time>2009-09-12T12:42:51Z</time></trkpt>
<trkpt lat="46.57241754" lon="7.06924550"><ele>899.931396</ele><time>2009-09-12T12:44:33Z</time></trkpt>
<trkpt lat="46.57242542" lon="7.06922413"><ele>899.931396</ele><time>2009-09-12T12:44:36Z</time></trkpt>
<trkpt lat="46.57247839" lon="7.06906018"><ele>900.892578</ele><time>2009-09-12T12:44:47Z</time></trkpt>
<trkpt lat="46.57257009" lon="7.06895130"><ele>899.931396</ele><time>2009-09-12T12:44:58Z</time></trkpt>
<trkpt lat="46.57267068" lon="7.06887075"><ele>899.450684</ele><time>2009-09-12T12:45:09Z</time></trkpt>
<trkpt lat="46.57268291" lon="7.06884602"><ele>899.450684</ele><time>2009-09-12T12:45:11Z</time></trkpt>
<trkpt lat="46.57267361" lon="7.06878047"><ele>899.450684</ele><time>2009-09-12T12:45:15Z</time></trkpt>
<trkpt lat="46.57256565" lon="7.06874837"><ele>899.931396</ele><time>2009-09-12T12:45:23Z</time></trkpt>
<trkpt lat="46.57240899" lon="7.06882062"><ele>899.931396</ele><time>2009-09-12T12:45:34Z</time></trkpt>
<trkpt lat="46.57228595" lon="7.06882331"><ele>899.931396</ele><time>2009-09-12T12:45:43Z</time></trkpt>
<trkpt lat="46.57213298" lon="7.06872163"><ele>901.854004</ele><time>2009-09-12T12:45:56Z</time></trkpt>
<trkpt lat="46.57203021" lon="7.06855970"><ele>903.295898</ele><time>2009-09-12T12:46:08Z</time></trkpt>
<trkpt lat="46.57196609" lon="7.06838627"><ele>905.218506</ele><time>2009-09-12T12:46:19Z</time></trkpt>
<trkpt lat="46.57190901" lon="7.06820145"><ele>907.141113</ele><time>2009-09-12T12:46:30Z</time></trkpt>
<trkpt lat="46.57185151" lon="7.06804773"><ele>909.063965</ele><time>2009-09-12T12:46:40Z</time></trkpt>
<trkpt lat="46.57174925" lon="7.06786249"><ele>910.505859</ele><time>2009-09-12T12:46:53Z</time></trkpt>
<trkpt lat="46.57166401" lon="7.06770658"><ele>912.428467</ele><time>2009-09-12T12:47:04Z</time></trkpt>
<trkpt lat="46.57157315" lon="7.06754138"><ele>914.831787</ele><time>2009-09-12T12:47:16Z</time></trkpt>
<trkpt lat="46.57150987" lon="7.06735589"><ele>916.754395</ele><time>2009-09-12T12:47:28Z</time></trkpt>
<trkpt lat="46.57146251" lon="7.06716201"><ele>919.157715</ele><time>2009-09-12T12:47:40Z</time></trkpt>
<trkpt lat="46.57138179" lon="7.06696093"><ele>920.118896</ele><time>2009-09-12T12:47:54Z</time></trkpt>
<trkpt lat="46.57127945" lon="7.06678181"><ele>923.483643</ele><time>2009-09-12T12:48:07Z</time></trkpt>
<trkpt lat="46.57120384" lon="7.06665524"><ele>924.925781</ele><time>2009-09-12T12:48:17Z</time></trkpt>
<trkpt lat="46.57109303" lon="7.06650781"><ele>928.770996</ele><time>2009-09-12T12:48:29Z</time></trkpt>
<trkpt lat="46.57097594" lon="7.06631536"><ele>929.732178</ele><time>2009-09-12T12:48:42Z</time></trkpt>
<trkpt lat="46.57085926" lon="7.06616255"><ele>931.654785</ele><time>2009-09-12T12:48:54Z</time></trkpt>
<trkpt lat="46.57074845" lon="7.06600221"><ele>931.174316</ele><time>2009-09-12T12:49:06Z</time></trkpt>
<trkpt lat="46.57065667" lon="7.06583533"><ele>933.09668</ele><time>2009-09-12T12:49:17Z</time></trkpt>
<trkpt lat="46.57056305" lon="7.06568009"><ele>935.019531</ele><time>2009-09-12T12:49:28Z</time></trkpt>
<trkpt lat="46.57050136" lon="7.06553559"><ele>936.461426</ele><time>2009-09-12T12:49:37Z</time></trkpt>
<trkpt lat="46.57039365" lon="7.06533325"><ele>939.825928</ele><time>2009-09-12T12:49:50Z</time></trkpt>
<trkpt lat="46.57029407" lon="7.06522227"><ele>942.229492</ele><time>2009-09-12T12:50:00Z</time></trkpt>
<trkpt lat="46.57018460" lon="7.06517123"><ele>943.190674</ele><time>2009-09-12T12:50:09Z</time></trkpt>
<trkpt lat="46.57008092" lon="7.06516025"><ele>945.113281</ele><time>2009-09-12T12:50:19Z</time></trkpt>
<trkpt lat="46.57003515" lon="7.06516486"><ele>945.593994</ele><time>2009-09-12T12:50:29Z</time></trkpt>
<trkpt lat="46.57003323" lon="7.06519822"><ele>944.632568</ele><time>2009-09-12T12:50:48Z</time></trkpt>
<trkpt lat="46.57003088" lon="7.06520140"><ele>944.632568</ele><time>2009-09-12T12:51:05Z</time></trkpt>
<trkpt lat="46.57000431" lon="7.06519956"><ele>944.1521</ele><time>2009-09-12T12:51:12Z</time></trkpt>
<trkpt lat="46.57000171" lon="7.06520878"><ele>943.671387</ele><time>2009-09-12T12:51:23Z</time></trkpt>
<trkpt lat="46.56999601" lon="7.06521079"><ele>945.593994</ele><time>2009-09-12T12:51:44Z</time></trkpt>
<trkpt lat="46.56993072" lon="7.06521465"><ele>945.593994</ele><time>2009-09-12T12:51:51Z</time></trkpt>
<trkpt lat="46.56977372" lon="7.06514893"><ele>944.1521</ele><time>2009-09-12T12:51:58Z</time></trkpt>
<trkpt lat="46.56951967" lon="7.06498339"><ele>943.671387</ele><time>2009-09-12T12:52:06Z</time></trkpt>
<trkpt lat="46.56912723" lon="7.06486420"><ele>936.461426</ele><time>2009-09-12T12:52:45Z</time></trkpt>
<trkpt lat="46.56912572" lon="7.06486847"><ele>936.941895</ele><time>2009-09-12T12:53:00Z</time></trkpt>
<trkpt lat="46.56913050" lon="7.06480896"><ele>936.941895</ele><time>2009-09-12T12:53:18Z</time></trkpt>
<trkpt lat="46.56839456" lon="7.06469195"><ele>936.461426</ele><time>2009-09-12T12:54:38Z</time></trkpt>
<trkpt lat="46.56909705" lon="7.06639918"><ele>934.058105</ele><time>2009-09-12T12:54:57Z</time></trkpt>
<trkpt lat="46.56920895" lon="7.06674552"><ele>928.770996</ele><time>2009-09-12T12:55:01Z</time></trkpt>
<trkpt lat="46.56928740" lon="7.06723016"><ele>915.3125</ele><time>2009-09-12T12:55:06Z</time></trkpt>
<trkpt lat="46.56925463" lon="7.06739922"><ele>904.737793</ele><time>2009-09-12T12:55:11Z</time></trkpt>
<trkpt lat="46.56918104" lon="7.06750240"><ele>892.240967</ele><time>2009-09-12T12:55:19Z</time></trkpt>
<trkpt lat="46.56915765" lon="7.06750190"><ele>886.4729</ele><time>2009-09-12T12:55:27Z</time></trkpt>
<trkpt lat="46.56901122" lon="7.06862994"><ele>855.710693</ele><time>2009-09-12T12:55:59Z</time></trkpt>
<trkpt lat="46.56897954" lon="7.07230347"><ele>816.777344</ele><time>2009-09-12T12:56:30Z</time></trkpt>
<trkpt lat="46.56893763" lon="7.07250715"><ele>814.374023</ele><time>2009-09-12T12:56:32Z</time></trkpt>
<trkpt lat="46.56878717" lon="7.07295508"><ele>809.08667</ele><time>2009-09-12T12:56:37Z</time></trkpt>
<trkpt lat="46.56890125" lon="7.07308609"><ele>807.164063</ele><time>2009-09-12T12:56:40Z</time></trkpt>
<trkpt lat="46.56897367" lon="7.07317645"><ele>806.202637</ele><time>2009-09-12T12:56:42Z</time></trkpt>
<trkpt lat="46.56901382" lon="7.07334953"><ele>805.241455</ele><time>2009-09-12T12:56:44Z</time></trkpt>
<trkpt lat="46.56923477" lon="7.07375388"><ele>801.876953</ele><time>2009-09-12T12:56:49Z</time></trkpt>
<trkpt lat="46.56981588" lon="7.07451487"><ele>795.628174</ele><time>2009-09-12T12:56:58Z</time></trkpt>
<trkpt lat="46.57024001" lon="7.07525088"><ele>789.379639</ele><time>2009-09-12T12:57:05Z</time></trkpt>
<trkpt lat="46.57061116" lon="7.07598858"><ele>786.976318</ele><time>2009-09-12T12:57:11Z</time></trkpt>
<trkpt lat="46.57082775" lon="7.07659920"><ele>783.131104</ele><time>2009-09-12T12:57:16Z</time></trkpt>
<trkpt lat="46.57108088" lon="7.07689784"><ele>780.728027</ele><time>2009-09-12T12:57:20Z</time></trkpt>
<trkpt lat="46.57116143" lon="7.07710689"><ele>778.805176</ele><time>2009-09-12T12:57:22Z</time></trkpt>
<trkpt lat="46.57126646" lon="7.07756664"><ele>774.959961</ele><time>2009-09-12T12:57:26Z</time></trkpt>
<trkpt lat="46.57129705" lon="7.07767728"><ele>774.479248</ele><time>2009-09-12T12:57:27Z</time></trkpt>
<trkpt lat="46.57144876" lon="7.07795950"><ele>772.556641</ele><time>2009-09-12T12:57:31Z</time></trkpt>
<trkpt lat="46.57141607" lon="7.07839276"><ele>768.711426</ele><time>2009-09-12T12:57:37Z</time></trkpt>
<trkpt lat="46.57139696" lon="7.07895292"><ele>767.75</ele><time>2009-09-12T12:57:46Z</time></trkpt>
<trkpt lat="46.57135145" lon="7.07938987"><ele>771.114746</ele><time>2009-09-12T12:57:58Z</time></trkpt>
<trkpt lat="46.57110301" lon="7.08014944"><ele>778.805176</ele><time>2009-09-12T12:58:43Z</time></trkpt>
<trkpt lat="46.57099153" lon="7.08007962"><ele>779.285645</ele><time>2009-09-12T12:59:35Z</time></trkpt>
<trkpt lat="46.57094828" lon="7.08013007"><ele>778.805176</ele><time>2009-09-12T12:59:43Z</time></trkpt>
<trkpt lat="46.57094291" lon="7.08014047"><ele>777.84375</ele><time>2009-09-12T12:59:51Z</time></trkpt>
<trkpt lat="46.57093948" lon="7.08013728"><ele>779.766357</ele><time>2009-09-12T13:00:09Z</time></trkpt>
<trkpt lat="46.57092171" lon="7.08014625"><ele>779.766357</ele><time>2009-09-12T13:00:37Z</time></trkpt>
<trkpt lat="46.57091534" lon="7.08015078"><ele>778.324463</ele><time>2009-09-12T13:00:59Z</time></trkpt>
<trkpt lat="46.57076396" lon="7.08019545"><ele>777.363281</ele><time>2009-09-12T13:01:06Z</time></trkpt>
<trkpt lat="46.57049188" lon="7.08015740"><ele>775.921143</ele><time>2009-09-12T13:01:16Z</time></trkpt>
<trkpt lat="46.57042265" lon="7.08017668"><ele>775.44043</ele><time>2009-09-12T13:01:24Z</time></trkpt>
<trkpt lat="46.57041854" lon="7.08017576"><ele>775.44043</ele><time>2009-09-12T13:01:30Z</time></trkpt>
<trkpt lat="46.57039407" lon="7.08019311"><ele>777.84375</ele><time>2009-09-12T13:01:38Z</time></trkpt>
<trkpt lat="46.57036708" lon="7.08022211"><ele>776.401855</ele><time>2009-09-12T13:01:44Z</time></trkpt>
<trkpt lat="46.57038091" lon="7.08023795"><ele>775.921143</ele><time>2009-09-12T13:02:12Z</time></trkpt>
<trkpt lat="46.57032508" lon="7.08024901"><ele>775.44043</ele><time>2009-09-12T13:02:18Z</time></trkpt>
<trkpt lat="46.57020279" lon="7.08023569"><ele>773.998535</ele><time>2009-09-12T13:02:25Z</time></trkpt>
<trkpt lat="46.56995913" lon="7.08036602"><ele>768.711426</ele><time>2009-09-12T13:02:31Z</time></trkpt>
<trkpt lat="46.56966987" lon="7.08052796"><ele>763.904541</ele><time>2009-09-12T13:02:36Z</time></trkpt>
<trkpt lat="46.56955881" lon="7.08058395"><ele>762.462646</ele><time>2009-09-12T13:02:39Z</time></trkpt>
<trkpt lat="46.56916830" lon="7.08067322"><ele>758.617432</ele><time>2009-09-12T13:02:46Z</time></trkpt>
<trkpt lat="46.56868952" lon="7.08078017"><ele>755.733643</ele><time>2009-09-12T13:02:52Z</time></trkpt>
<trkpt lat="46.56796130" lon="7.08099827"><ele>750.446533</ele><time>2009-09-12T13:03:01Z</time></trkpt>
<trkpt lat="46.56789215" lon="7.08103951"><ele>749.96582</ele><time>2009-09-12T13:03:02Z</time></trkpt>
<trkpt lat="46.56751312" lon="7.08142743"><ele>747.562256</ele><time>2009-09-12T13:03:16Z</time></trkpt>
<trkpt lat="46.56733434" lon="7.08144209"><ele>747.081543</ele><time>2009-09-12T13:03:21Z</time></trkpt>
<trkpt lat="46.56710207" lon="7.08163555"><ele>745.158936</ele><time>2009-09-12T13:03:25Z</time></trkpt>
<trkpt lat="46.56667300" lon="7.08230576"><ele>742.275146</ele><time>2009-09-12T13:03:33Z</time></trkpt>
<trkpt lat="46.56662523" lon="7.08239428"><ele>741.794434</ele><time>2009-09-12T13:03:34Z</time></trkpt>
<trkpt lat="46.56660905" lon="7.08255395"><ele>740.352539</ele><time>2009-09-12T13:03:38Z</time></trkpt>
<trkpt lat="46.56669714" lon="7.08260399"><ele>740.352539</ele><time>2009-09-12T13:03:47Z</time></trkpt>
<trkpt lat="46.56687182" lon="7.08262956"><ele>740.833008</ele><time>2009-09-12T13:03:55Z</time></trkpt>
<trkpt lat="46.56702915" lon="7.08247181"><ele>740.833008</ele><time>2009-09-12T13:04:02Z</time></trkpt>
<trkpt lat="46.56714231" lon="7.08231146"><ele>742.275146</ele><time>2009-09-12T13:04:10Z</time></trkpt>
<trkpt lat="46.56725882" lon="7.08226201"><ele>742.275146</ele><time>2009-09-12T13:04:17Z</time></trkpt>
<trkpt lat="46.56743433" lon="7.08242227"><ele>741.313721</ele><time>2009-09-12T13:04:23Z</time></trkpt>
<trkpt lat="46.56755998" lon="7.08248975"><ele>740.833008</ele><time>2009-09-12T13:04:26Z</time></trkpt>
<trkpt lat="46.56804755" lon="7.08266552"><ele>738.429932</ele><time>2009-09-12T13:04:35Z</time></trkpt>
<trkpt lat="46.56823908" lon="7.08277054"><ele>736.987793</ele><time>2009-09-12T13:04:40Z</time></trkpt>
<trkpt lat="46.56826087" lon="7.08298344"><ele>736.507324</ele><time>2009-09-12T13:04:45Z</time></trkpt>
<trkpt lat="46.56806004" lon="7.08342894"><ele>736.026611</ele><time>2009-09-12T13:04:56Z</time></trkpt>
<trkpt lat="46.56787271" lon="7.08358627"><ele>734.104004</ele><time>2009-09-12T13:05:03Z</time></trkpt>
<trkpt lat="46.56761907" lon="7.08352382"><ele>732.181396</ele><time>2009-09-12T13:05:09Z</time></trkpt>
<trkpt lat="46.56726468" lon="7.08343665"><ele>732.181396</ele><time>2009-09-12T13:05:16Z</time></trkpt>
<trkpt lat="46.56683461" lon="7.08350270"><ele>731.700439</ele><time>2009-09-12T13:05:26Z</time></trkpt>
<trkpt lat="46.56642867" lon="7.08354310"><ele>729.297119</ele><time>2009-09-12T13:05:34Z</time></trkpt>
<trkpt lat="46.56624285" lon="7.08352801"><ele>728.335938</ele><time>2009-09-12T13:05:38Z</time></trkpt>
<trkpt lat="46.56609382" lon="7.08326281"><ele>727.374756</ele><time>2009-09-12T13:05:42Z</time></trkpt>
<trkpt lat="46.56604151" lon="7.08323314"><ele>727.374756</ele><time>2009-09-12T13:05:48Z</time></trkpt>
<trkpt lat="46.56594386" lon="7.08372080"><ele>723.048828</ele><time>2009-09-12T13:06:03Z</time></trkpt>
<trkpt lat="46.56593741" lon="7.08373999"><ele>723.529541</ele><time>2009-09-12T13:06:10Z</time></trkpt>
<trkpt lat="46.56593196" lon="7.08372231"><ele>721.606689</ele><time>2009-09-12T13:06:21Z</time></trkpt>
<trkpt lat="46.56591319" lon="7.08370856"><ele>722.087402</ele><time>2009-09-12T13:06:24Z</time></trkpt>
<trkpt lat="46.56582526" lon="7.08367872"><ele>722.568115</ele><time>2009-09-12T13:06:30Z</time></trkpt>
<trkpt lat="46.56578788" lon="7.08363421"><ele>723.048828</ele><time>2009-09-12T13:06:38Z</time></trkpt>
<trkpt lat="46.56578628" lon="7.08363337"><ele>723.048828</ele><time>2009-09-12T13:06:48Z</time></trkpt>
<trkpt lat="46.56577991" lon="7.08363120"><ele>721.606689</ele><time>2009-09-12T13:06:59Z</time></trkpt>
<trkpt lat="46.56575963" lon="7.08361493"><ele>720.645508</ele><time>2009-09-12T13:07:18Z</time></trkpt>
<trkpt lat="46.56576633" lon="7.08361770"><ele>721.606689</ele><time>2009-09-12T13:07:34Z</time></trkpt>
<trkpt lat="46.56577103" lon="7.08361703"><ele>722.087402</ele><time>2009-09-12T13:07:40Z</time></trkpt>
<trkpt lat="46.55884565" lon="7.08681615"><ele>717.281006</ele><time>2009-09-12T13:44:33Z</time></trkpt>
<trkpt lat="46.55830032" lon="7.08638272"><ele>718.242188</ele><time>2009-09-12T13:44:47Z</time></trkpt>
<trkpt lat="46.55788701" lon="7.08601224"><ele>719.684326</ele><time>2009-09-12T13:45:01Z</time></trkpt>
<trkpt lat="46.55773161" lon="7.08579088"><ele>718.7229</ele><time>2009-09-12T13:45:09Z</time></trkpt>
<trkpt lat="46.55745836" lon="7.08545778"><ele>718.242188</ele><time>2009-09-12T13:45:21Z</time></trkpt>
<trkpt lat="46.55718025" lon="7.08517808"><ele>719.203613</ele><time>2009-09-12T13:45:32Z</time></trkpt>
<trkpt lat="46.55713004" lon="7.08510825"><ele>719.203613</ele><time>2009-09-12T13:45:34Z</time></trkpt>
<trkpt lat="46.55700071" lon="7.08473912"><ele>718.242188</ele><time>2009-09-12T13:45:42Z</time></trkpt>
<trkpt lat="46.55682418" lon="7.08424207"><ele>719.684326</ele><time>2009-09-12T13:45:54Z</time></trkpt>
<trkpt lat="46.55665085" lon="7.08412405"><ele>717.761475</ele><time>2009-09-12T13:46:01Z</time></trkpt>
<trkpt lat="46.55656158" lon="7.08410159"><ele>716.800293</ele><time>2009-09-12T13:46:03Z</time></trkpt>
<trkpt lat="46.55639436" lon="7.08401735"><ele>715.358154</ele><time>2009-09-12T13:46:06Z</time></trkpt>
<trkpt lat="46.55590896" lon="7.08359800"><ele>715.358154</ele><time>2009-09-12T13:46:16Z</time></trkpt>
<trkpt lat="46.55544042" lon="7.08307841"><ele>716.31958</ele><time>2009-09-12T13:46:29Z</time></trkpt>
<trkpt lat="46.55475989" lon="7.08239512"><ele>716.800293</ele><time>2009-09-12T13:46:49Z</time></trkpt>
<trkpt lat="46.55418238" lon="7.08187175"><ele>718.7229</ele><time>2009-09-12T13:47:05Z</time></trkpt>
<trkpt lat="46.55366002" lon="7.08141636"><ele>721.126221</ele><time>2009-09-12T13:47:19Z</time></trkpt>
<trkpt lat="46.55323623" lon="7.08103985"><ele>720.164795</ele><time>2009-09-12T13:47:31Z</time></trkpt>
<trkpt lat="46.55269710" lon="7.08064321"><ele>719.684326</ele><time>2009-09-12T13:47:45Z</time></trkpt>
<trkpt lat="46.55219126" lon="7.08032914"><ele>719.203613</ele><time>2009-09-12T13:47:58Z</time></trkpt>
<trkpt lat="46.55166336" lon="7.08009135"><ele>719.203613</ele><time>2009-09-12T13:48:11Z</time></trkpt>
<trkpt lat="46.55111871" lon="7.07996503"><ele>722.568115</ele><time>2009-09-12T13:48:24Z</time></trkpt>
<trkpt lat="46.55035470" lon="7.07965356"><ele>722.087402</ele><time>2009-09-12T13:48:42Z</time></trkpt>
<trkpt lat="46.54967995" lon="7.07936062"><ele>724.971436</ele><time>2009-09-12T13:48:58Z</time></trkpt>
<trkpt lat="46.54900135" lon="7.07907521"><ele>725.451904</ele><time>2009-09-12T13:49:15Z</time></trkpt>
<trkpt lat="46.54863540" lon="7.07884102"><ele>726.894043</ele><time>2009-09-12T13:49:24Z</time></trkpt>
<trkpt lat="46.54836031" lon="7.07866819"><ele>725.932617</ele><time>2009-09-12T13:49:31Z</time></trkpt>
<trkpt lat="46.54771079" lon="7.07856827"><ele>725.932617</ele><time>2009-09-12T13:49:46Z</time></trkpt>
<trkpt lat="46.54706681" lon="7.07838496"><ele>728.81665</ele><time>2009-09-12T13:50:01Z</time></trkpt>
<trkpt lat="46.54686171" lon="7.07809486"><ele>728.335938</ele><time>2009-09-12T13:50:09Z</time></trkpt>
<trkpt lat="46.54674335" lon="7.07787358"><ele>728.81665</ele><time>2009-09-12T13:50:16Z</time></trkpt>
<trkpt lat="46.54631722" lon="7.07684454"><ele>729.777832</ele><time>2009-09-12T13:50:48Z</time></trkpt>
<trkpt lat="46.54618881" lon="7.07669525"><ele>730.258545</ele><time>2009-09-12T13:50:54Z</time></trkpt>
<trkpt lat="46.54590483" lon="7.07664999"><ele>730.258545</ele><time>2009-09-12T13:51:02Z</time></trkpt>
<trkpt lat="46.54559361" lon="7.07654363"><ele>730.258545</ele><time>2009-09-12T13:51:11Z</time></trkpt>
<trkpt lat="46.54511718" lon="7.07642024"><ele>730.258545</ele><time>2009-09-12T13:51:24Z</time></trkpt>
<trkpt lat="46.54479699" lon="7.07639082"><ele>729.777832</ele><time>2009-09-12T13:51:32Z</time></trkpt>
<trkpt lat="46.54467789" lon="7.07633257"><ele>729.777832</ele><time>2009-09-12T13:51:35Z</time></trkpt>
<trkpt lat="46.54433054" lon="7.07596921"><ele>730.258545</ele><time>2009-09-12T13:51:46Z</time></trkpt>
<trkpt lat="46.54393977" lon="7.07551030"><ele>730.739258</ele><time>2009-09-12T13:51:59Z</time></trkpt>
<trkpt lat="46.54352697" lon="7.07506665"><ele>733.623291</ele><time>2009-09-12T13:52:12Z</time></trkpt>
<trkpt lat="46.54294074" lon="7.07448662"><ele>736.026611</ele><time>2009-09-12T13:52:31Z</time></trkpt>
<trkpt lat="46.54264905" lon="7.07415185"><ele>736.507324</ele><time>2009-09-12T13:52:44Z</time></trkpt>
<trkpt lat="46.54261015" lon="7.07406216"><ele>736.987793</ele><time>2009-09-12T13:52:48Z</time></trkpt>
<trkpt lat="46.54294484" lon="7.07343905"><ele>738.910645</ele><time>2009-09-12T13:53:04Z</time></trkpt>
<trkpt lat="46.54311055" lon="7.07336789"><ele>739.871826</ele><time>2009-09-12T13:53:09Z</time></trkpt>
<trkpt lat="46.54338883" lon="7.07345883"><ele>740.352539</ele><time>2009-09-12T13:53:17Z</time></trkpt>
<trkpt lat="46.54369142" lon="7.07361482"><ele>740.833008</ele><time>2009-09-12T13:53:27Z</time></trkpt>
<trkpt lat="46.54386383" lon="7.07366411"><ele>740.833008</ele><time>2009-09-12T13:53:34Z</time></trkpt>
<trkpt lat="46.54388856" lon="7.07366042"><ele>741.313721</ele><time>2009-09-12T13:53:35Z</time></trkpt>
<trkpt lat="46.54399099" lon="7.07349957"><ele>741.794434</ele><time>2009-09-12T13:53:48Z</time></trkpt>
<trkpt lat="46.54395780" lon="7.07328893"><ele>740.352539</ele><time>2009-09-12T13:53:57Z</time></trkpt>
<trkpt lat="46.54399065" lon="7.07315331"><ele>740.833008</ele><time>2009-09-12T13:54:01Z</time></trkpt>
<trkpt lat="46.54392812" lon="7.07302943"><ele>741.313721</ele><time>2009-09-12T13:54:07Z</time></trkpt>
<trkpt lat="46.54391446" lon="7.07301040"><ele>741.313721</ele><time>2009-09-12T13:54:13Z</time></trkpt>
<trkpt lat="46.54390843" lon="7.07299716"><ele>743.236328</ele><time>2009-09-12T13:54:26Z</time></trkpt>
</trkseg></trk></gpx>